<?xml version="1.0" encoding="UTF-8" standalone="no" ?>
<gpx xmlns="http://www.topografix.com/GPX/1/1" xmlns:xsi="http://www.w3.org/2001/XMLSchema-instance" xsi:schemaLocation="http://www.topografix.com/GPX/1/1 http://www.topografix.com/GPX/1/1/gpx.xsd" version="1.1" creator="VisuGPX - https://www.visugpx.com">
  <metadata>
    <name>Montaigu&lt;-&gt; St Maur</name>
    <desc><![CDATA[rando effectuée le 12 décembre 2015
L\'indice IBP d\'effort est de 73, (suivant l\'échelle de la FFRP) un score compris entre 51 et 75 correspond au niveau 3 qualifié de \"PEU DIFFICILE\".La randonnée pédestre nécessite un certain engagement physique qui reste toutefois mesuré. Ce niveau correspond à des randonnées pédestres modérées.]]></desc>
  </metadata>
  <trk>
    <name><![CDATA[10 déc. 2015 09:03:46]]></name>
    <cmt><![CDATA[10 déc. 2015 09:03:46]]></cmt>
    <trkseg>
      <trkpt lat="46.65862" lon="5.56797">
        <ele>431</ele>
        <time>2015-12-10T08:03:47Z</time>
      </trkpt>
      <trkpt lat="46.65862" lon="5.56792">
        <ele>430</ele>
        <time>2015-12-10T08:03:55Z</time>
      </trkpt>
      <trkpt lat="46.6586" lon="5.56789">
        <ele>430</ele>
        <time>2015-12-10T08:04:02Z</time>
      </trkpt>
      <trkpt lat="46.65857" lon="5.56789">
        <ele>429</ele>
        <time>2015-12-10T08:04:08Z</time>
      </trkpt>
      <trkpt lat="46.65851" lon="5.56788">
        <ele>430</ele>
        <time>2015-12-10T08:04:48Z</time>
      </trkpt>
      <trkpt lat="46.65815" lon="5.56793">
        <ele>426</ele>
        <time>2015-12-10T08:05:19Z</time>
      </trkpt>
      <trkpt lat="46.65796" lon="5.56798">
        <ele>424</ele>
        <time>2015-12-10T08:05:36Z</time>
      </trkpt>
      <trkpt lat="46.65785" lon="5.568">
        <ele>425</ele>
        <time>2015-12-10T08:05:44Z</time>
      </trkpt>
      <trkpt lat="46.6578" lon="5.56803">
        <ele>425</ele>
        <time>2015-12-10T08:05:49Z</time>
      </trkpt>
      <trkpt lat="46.65771" lon="5.56809">
        <ele>425</ele>
        <time>2015-12-10T08:05:57Z</time>
      </trkpt>
      <trkpt lat="46.65762" lon="5.56812">
        <ele>425</ele>
        <time>2015-12-10T08:06:06Z</time>
      </trkpt>
      <trkpt lat="46.65735" lon="5.56816">
        <ele>422</ele>
        <time>2015-12-10T08:06:30Z</time>
      </trkpt>
      <trkpt lat="46.65725" lon="5.56818">
        <ele>420</ele>
        <time>2015-12-10T08:06:40Z</time>
      </trkpt>
      <trkpt lat="46.6572" lon="5.56817">
        <ele>419</ele>
        <time>2015-12-10T08:06:44Z</time>
      </trkpt>
      <trkpt lat="46.65715" lon="5.56815">
        <ele>419</ele>
        <time>2015-12-10T08:06:48Z</time>
      </trkpt>
      <trkpt lat="46.657" lon="5.56811">
        <ele>418</ele>
        <time>2015-12-10T08:07:00Z</time>
      </trkpt>
      <trkpt lat="46.65694" lon="5.56808">
        <ele>418</ele>
        <time>2015-12-10T08:07:04Z</time>
      </trkpt>
      <trkpt lat="46.65689" lon="5.56807">
        <ele>418</ele>
        <time>2015-12-10T08:07:08Z</time>
      </trkpt>
      <trkpt lat="46.65684" lon="5.56806">
        <ele>418</ele>
        <time>2015-12-10T08:07:11Z</time>
      </trkpt>
      <trkpt lat="46.65668" lon="5.56803">
        <ele>417</ele>
        <time>2015-12-10T08:07:23Z</time>
      </trkpt>
      <trkpt lat="46.65663" lon="5.56801">
        <ele>417</ele>
        <time>2015-12-10T08:07:27Z</time>
      </trkpt>
      <trkpt lat="46.65625" lon="5.56778">
        <ele>416</ele>
        <time>2015-12-10T08:07:59Z</time>
      </trkpt>
      <trkpt lat="46.65588" lon="5.56771">
        <ele>413</ele>
        <time>2015-12-10T08:08:31Z</time>
      </trkpt>
      <trkpt lat="46.65569" lon="5.5676">
        <ele>410</ele>
        <time>2015-12-10T08:08:46Z</time>
      </trkpt>
      <trkpt lat="46.65559" lon="5.56759">
        <ele>410</ele>
        <time>2015-12-10T08:08:55Z</time>
      </trkpt>
      <trkpt lat="46.65529" lon="5.56754">
        <ele>410</ele>
        <time>2015-12-10T08:09:22Z</time>
      </trkpt>
      <trkpt lat="46.65514" lon="5.56753">
        <ele>409</ele>
        <time>2015-12-10T08:09:34Z</time>
      </trkpt>
      <trkpt lat="46.65504" lon="5.56755">
        <ele>409</ele>
        <time>2015-12-10T08:09:44Z</time>
      </trkpt>
      <trkpt lat="46.65468" lon="5.56733">
        <ele>403</ele>
        <time>2015-12-10T08:10:16Z</time>
      </trkpt>
      <trkpt lat="46.65445" lon="5.56718">
        <ele>400</ele>
        <time>2015-12-10T08:10:38Z</time>
      </trkpt>
      <trkpt lat="46.65441" lon="5.56715">
        <ele>400</ele>
        <time>2015-12-10T08:10:42Z</time>
      </trkpt>
      <trkpt lat="46.65436" lon="5.56711">
        <ele>400</ele>
        <time>2015-12-10T08:10:46Z</time>
      </trkpt>
      <trkpt lat="46.65421" lon="5.56701">
        <ele>399</ele>
        <time>2015-12-10T08:10:57Z</time>
      </trkpt>
      <trkpt lat="46.65417" lon="5.56698">
        <ele>398</ele>
        <time>2015-12-10T08:11:02Z</time>
      </trkpt>
      <trkpt lat="46.65383" lon="5.56688">
        <ele>393</ele>
        <time>2015-12-10T08:11:33Z</time>
      </trkpt>
      <trkpt lat="46.65378" lon="5.56685">
        <ele>393</ele>
        <time>2015-12-10T08:11:38Z</time>
      </trkpt>
      <trkpt lat="46.65363" lon="5.56683">
        <ele>393</ele>
        <time>2015-12-10T08:11:52Z</time>
      </trkpt>
      <trkpt lat="46.6534" lon="5.56674">
        <ele>389</ele>
        <time>2015-12-10T08:12:15Z</time>
      </trkpt>
      <trkpt lat="46.6534" lon="5.56677">
        <ele>389</ele>
        <time>2015-12-10T08:12:38Z</time>
      </trkpt>
      <trkpt lat="46.65336" lon="5.56676">
        <ele>389</ele>
        <time>2015-12-10T08:12:44Z</time>
      </trkpt>
      <trkpt lat="46.65313" lon="5.5666">
        <ele>382</ele>
        <time>2015-12-10T08:13:08Z</time>
      </trkpt>
      <trkpt lat="46.653" lon="5.56651">
        <ele>382</ele>
        <time>2015-12-10T08:13:21Z</time>
      </trkpt>
      <trkpt lat="46.6528" lon="5.5664">
        <ele>380</ele>
        <time>2015-12-10T08:13:38Z</time>
      </trkpt>
      <trkpt lat="46.65271" lon="5.56635">
        <ele>381</ele>
        <time>2015-12-10T08:13:46Z</time>
      </trkpt>
      <trkpt lat="46.65267" lon="5.56634">
        <ele>381</ele>
        <time>2015-12-10T08:13:50Z</time>
      </trkpt>
      <trkpt lat="46.65238" lon="5.5662">
        <ele>376</ele>
        <time>2015-12-10T08:14:24Z</time>
      </trkpt>
      <trkpt lat="46.65224" lon="5.56613">
        <ele>373</ele>
        <time>2015-12-10T08:14:38Z</time>
      </trkpt>
      <trkpt lat="46.65215" lon="5.56606">
        <ele>373</ele>
        <time>2015-12-10T08:14:46Z</time>
      </trkpt>
      <trkpt lat="46.65211" lon="5.56601">
        <ele>373</ele>
        <time>2015-12-10T08:14:50Z</time>
      </trkpt>
      <trkpt lat="46.65201" lon="5.56594">
        <ele>373</ele>
        <time>2015-12-10T08:14:57Z</time>
      </trkpt>
      <trkpt lat="46.65196" lon="5.56591">
        <ele>372</ele>
        <time>2015-12-10T08:15:01Z</time>
      </trkpt>
      <trkpt lat="46.65189" lon="5.56582">
        <ele>372</ele>
        <time>2015-12-10T08:15:11Z</time>
      </trkpt>
      <trkpt lat="46.65186" lon="5.56576">
        <ele>371</ele>
        <time>2015-12-10T08:15:15Z</time>
      </trkpt>
      <trkpt lat="46.65178" lon="5.56564">
        <ele>371</ele>
        <time>2015-12-10T08:15:25Z</time>
      </trkpt>
      <trkpt lat="46.65173" lon="5.56566">
        <ele>371</ele>
        <time>2015-12-10T08:15:31Z</time>
      </trkpt>
      <trkpt lat="46.65168" lon="5.56566">
        <ele>370</ele>
        <time>2015-12-10T08:15:36Z</time>
      </trkpt>
      <trkpt lat="46.65138" lon="5.56566">
        <ele>369</ele>
        <time>2015-12-10T08:16:02Z</time>
      </trkpt>
      <trkpt lat="46.65108" lon="5.56565">
        <ele>370</ele>
        <time>2015-12-10T08:16:28Z</time>
      </trkpt>
      <trkpt lat="46.65081" lon="5.56573">
        <ele>369</ele>
        <time>2015-12-10T08:16:53Z</time>
      </trkpt>
      <trkpt lat="46.65071" lon="5.56577">
        <ele>367</ele>
        <time>2015-12-10T08:17:01Z</time>
      </trkpt>
      <trkpt lat="46.65054" lon="5.56586">
        <ele>366</ele>
        <time>2015-12-10T08:17:16Z</time>
      </trkpt>
      <trkpt lat="46.65017" lon="5.56599">
        <ele>366</ele>
        <time>2015-12-10T08:17:47Z</time>
      </trkpt>
      <trkpt lat="46.64988" lon="5.56609">
        <ele>367</ele>
        <time>2015-12-10T08:18:12Z</time>
      </trkpt>
      <trkpt lat="46.64969" lon="5.5661">
        <ele>365</ele>
        <time>2015-12-10T08:18:25Z</time>
      </trkpt>
      <trkpt lat="46.6494" lon="5.56606">
        <ele>365</ele>
        <time>2015-12-10T08:18:47Z</time>
      </trkpt>
      <trkpt lat="46.649" lon="5.56598">
        <ele>363</ele>
        <time>2015-12-10T08:19:20Z</time>
      </trkpt>
      <trkpt lat="46.64896" lon="5.56595">
        <ele>363</ele>
        <time>2015-12-10T08:19:24Z</time>
      </trkpt>
      <trkpt lat="46.64887" lon="5.56589">
        <ele>363</ele>
        <time>2015-12-10T08:19:32Z</time>
      </trkpt>
      <trkpt lat="46.64882" lon="5.56585">
        <ele>363</ele>
        <time>2015-12-10T08:19:36Z</time>
      </trkpt>
      <trkpt lat="46.6486" lon="5.56568">
        <ele>364</ele>
        <time>2015-12-10T08:19:55Z</time>
      </trkpt>
      <trkpt lat="46.6485" lon="5.56562">
        <ele>364</ele>
        <time>2015-12-10T08:20:03Z</time>
      </trkpt>
      <trkpt lat="46.64846" lon="5.56557">
        <ele>364</ele>
        <time>2015-12-10T08:20:07Z</time>
      </trkpt>
      <trkpt lat="46.64836" lon="5.56552">
        <ele>362</ele>
        <time>2015-12-10T08:20:15Z</time>
      </trkpt>
      <trkpt lat="46.64831" lon="5.56552">
        <ele>362</ele>
        <time>2015-12-10T08:20:20Z</time>
      </trkpt>
      <trkpt lat="46.64826" lon="5.56551">
        <ele>362</ele>
        <time>2015-12-10T08:20:24Z</time>
      </trkpt>
      <trkpt lat="46.64822" lon="5.56547">
        <ele>363</ele>
        <time>2015-12-10T08:20:27Z</time>
      </trkpt>
      <trkpt lat="46.64815" lon="5.56536">
        <ele>363</ele>
        <time>2015-12-10T08:20:34Z</time>
      </trkpt>
      <trkpt lat="46.64797" lon="5.56513">
        <ele>363</ele>
        <time>2015-12-10T08:20:58Z</time>
      </trkpt>
      <trkpt lat="46.64784" lon="5.56501">
        <ele>364</ele>
        <time>2015-12-10T08:21:10Z</time>
      </trkpt>
      <trkpt lat="46.64774" lon="5.56497">
        <ele>364</ele>
        <time>2015-12-10T08:21:17Z</time>
      </trkpt>
      <trkpt lat="46.64765" lon="5.56496">
        <ele>363</ele>
        <time>2015-12-10T08:21:26Z</time>
      </trkpt>
      <trkpt lat="46.64732" lon="5.56487">
        <ele>363</ele>
        <time>2015-12-10T08:21:53Z</time>
      </trkpt>
      <trkpt lat="46.64704" lon="5.56482">
        <ele>360</ele>
        <time>2015-12-10T08:22:17Z</time>
      </trkpt>
      <trkpt lat="46.64695" lon="5.56479">
        <ele>358</ele>
        <time>2015-12-10T08:22:25Z</time>
      </trkpt>
      <trkpt lat="46.64685" lon="5.56477">
        <ele>357</ele>
        <time>2015-12-10T08:22:34Z</time>
      </trkpt>
      <trkpt lat="46.64657" lon="5.56477">
        <ele>353</ele>
        <time>2015-12-10T08:22:57Z</time>
      </trkpt>
      <trkpt lat="46.64629" lon="5.56491">
        <ele>353</ele>
        <time>2015-12-10T08:23:22Z</time>
      </trkpt>
      <trkpt lat="46.6462" lon="5.56496">
        <ele>352</ele>
        <time>2015-12-10T08:23:29Z</time>
      </trkpt>
      <trkpt lat="46.64612" lon="5.565">
        <ele>352</ele>
        <time>2015-12-10T08:23:37Z</time>
      </trkpt>
      <trkpt lat="46.64603" lon="5.56505">
        <ele>352</ele>
        <time>2015-12-10T08:23:49Z</time>
      </trkpt>
      <trkpt lat="46.64594" lon="5.56505">
        <ele>352</ele>
        <time>2015-12-10T08:23:58Z</time>
      </trkpt>
      <trkpt lat="46.64589" lon="5.56506">
        <ele>351</ele>
        <time>2015-12-10T08:24:02Z</time>
      </trkpt>
      <trkpt lat="46.64569" lon="5.56499">
        <ele>350</ele>
        <time>2015-12-10T08:24:18Z</time>
      </trkpt>
      <trkpt lat="46.64553" lon="5.56494">
        <ele>351</ele>
        <time>2015-12-10T08:24:31Z</time>
      </trkpt>
      <trkpt lat="46.64548" lon="5.56492">
        <ele>351</ele>
        <time>2015-12-10T08:24:36Z</time>
      </trkpt>
      <trkpt lat="46.64539" lon="5.56491">
        <ele>351</ele>
        <time>2015-12-10T08:24:45Z</time>
      </trkpt>
      <trkpt lat="46.64533" lon="5.5649">
        <ele>349</ele>
        <time>2015-12-10T08:24:50Z</time>
      </trkpt>
      <trkpt lat="46.64529" lon="5.56491">
        <ele>349</ele>
        <time>2015-12-10T08:24:54Z</time>
      </trkpt>
      <trkpt lat="46.64495" lon="5.56493">
        <ele>342</ele>
        <time>2015-12-10T08:25:25Z</time>
      </trkpt>
      <trkpt lat="46.64457" lon="5.56485">
        <ele>336</ele>
        <time>2015-12-10T08:26:01Z</time>
      </trkpt>
      <trkpt lat="46.64432" lon="5.56472">
        <ele>327</ele>
        <time>2015-12-10T08:26:33Z</time>
      </trkpt>
      <trkpt lat="46.64413" lon="5.56467">
        <ele>323</ele>
        <time>2015-12-10T08:26:53Z</time>
      </trkpt>
      <trkpt lat="46.64408" lon="5.56465">
        <ele>324</ele>
        <time>2015-12-10T08:26:58Z</time>
      </trkpt>
      <trkpt lat="46.64403" lon="5.56463">
        <ele>324</ele>
        <time>2015-12-10T08:27:03Z</time>
      </trkpt>
      <trkpt lat="46.64374" lon="5.56452">
        <ele>321</ele>
        <time>2015-12-10T08:27:38Z</time>
      </trkpt>
      <trkpt lat="46.6434" lon="5.56436">
        <ele>317</ele>
        <time>2015-12-10T08:28:12Z</time>
      </trkpt>
      <trkpt lat="46.64336" lon="5.56434">
        <ele>316</ele>
        <time>2015-12-10T08:28:17Z</time>
      </trkpt>
      <trkpt lat="46.64326" lon="5.5643">
        <ele>315</ele>
        <time>2015-12-10T08:28:26Z</time>
      </trkpt>
      <trkpt lat="46.64321" lon="5.56429">
        <ele>315</ele>
        <time>2015-12-10T08:28:30Z</time>
      </trkpt>
      <trkpt lat="46.64316" lon="5.56428">
        <ele>316</ele>
        <time>2015-12-10T08:28:35Z</time>
      </trkpt>
      <trkpt lat="46.64287" lon="5.56428">
        <ele>308</ele>
        <time>2015-12-10T08:29:06Z</time>
      </trkpt>
      <trkpt lat="46.64277" lon="5.56426">
        <ele>307</ele>
        <time>2015-12-10T08:29:14Z</time>
      </trkpt>
      <trkpt lat="46.64273" lon="5.56422">
        <ele>306</ele>
        <time>2015-12-10T08:29:22Z</time>
      </trkpt>
      <trkpt lat="46.64268" lon="5.56422">
        <ele>305</ele>
        <time>2015-12-10T08:29:27Z</time>
      </trkpt>
      <trkpt lat="46.64265" lon="5.56426">
        <ele>304</ele>
        <time>2015-12-10T08:29:35Z</time>
      </trkpt>
      <trkpt lat="46.64255" lon="5.56428">
        <ele>300</ele>
        <time>2015-12-10T08:29:51Z</time>
      </trkpt>
      <trkpt lat="46.64253" lon="5.56433">
        <ele>299</ele>
        <time>2015-12-10T08:30:03Z</time>
      </trkpt>
      <trkpt lat="46.64249" lon="5.56431">
        <ele>300</ele>
        <time>2015-12-10T08:30:13Z</time>
      </trkpt>
      <trkpt lat="46.64239" lon="5.5643">
        <ele>302</ele>
        <time>2015-12-10T08:30:22Z</time>
      </trkpt>
      <trkpt lat="46.64229" lon="5.5643">
        <ele>303</ele>
        <time>2015-12-10T08:30:32Z</time>
      </trkpt>
      <trkpt lat="46.64224" lon="5.5643">
        <ele>303</ele>
        <time>2015-12-10T08:30:37Z</time>
      </trkpt>
      <trkpt lat="46.64219" lon="5.56429">
        <ele>302</ele>
        <time>2015-12-10T08:30:42Z</time>
      </trkpt>
      <trkpt lat="46.64215" lon="5.56433">
        <ele>301</ele>
        <time>2015-12-10T08:30:48Z</time>
      </trkpt>
      <trkpt lat="46.64214" lon="5.56441">
        <ele>301</ele>
        <time>2015-12-10T08:30:52Z</time>
      </trkpt>
      <trkpt lat="46.64212" lon="5.56454">
        <ele>301</ele>
        <time>2015-12-10T08:31:00Z</time>
      </trkpt>
      <trkpt lat="46.6419" lon="5.56502">
        <ele>299</ele>
        <time>2015-12-10T08:31:33Z</time>
      </trkpt>
      <trkpt lat="46.64188" lon="5.56509">
        <ele>298</ele>
        <time>2015-12-10T08:31:37Z</time>
      </trkpt>
      <trkpt lat="46.64186" lon="5.56515">
        <ele>298</ele>
        <time>2015-12-10T08:31:41Z</time>
      </trkpt>
      <trkpt lat="46.64181" lon="5.56528">
        <ele>299</ele>
        <time>2015-12-10T08:31:49Z</time>
      </trkpt>
      <trkpt lat="46.6418" lon="5.56535">
        <ele>299</ele>
        <time>2015-12-10T08:31:53Z</time>
      </trkpt>
      <trkpt lat="46.64175" lon="5.56564">
        <ele>301</ele>
        <time>2015-12-10T08:32:09Z</time>
      </trkpt>
      <trkpt lat="46.64173" lon="5.5657">
        <ele>301</ele>
        <time>2015-12-10T08:32:13Z</time>
      </trkpt>
      <trkpt lat="46.64167" lon="5.56622">
        <ele>302</ele>
        <time>2015-12-10T08:32:45Z</time>
      </trkpt>
      <trkpt lat="46.64165" lon="5.56629">
        <ele>302</ele>
        <time>2015-12-10T08:32:50Z</time>
      </trkpt>
      <trkpt lat="46.64162" lon="5.56634">
        <ele>301</ele>
        <time>2015-12-10T08:32:59Z</time>
      </trkpt>
      <trkpt lat="46.64164" lon="5.56639">
        <ele>302</ele>
        <time>2015-12-10T08:33:17Z</time>
      </trkpt>
      <trkpt lat="46.64163" lon="5.56647">
        <ele>302</ele>
        <time>2015-12-10T08:33:21Z</time>
      </trkpt>
      <trkpt lat="46.64161" lon="5.56653">
        <ele>302</ele>
        <time>2015-12-10T08:33:25Z</time>
      </trkpt>
      <trkpt lat="46.64159" lon="5.56686">
        <ele>306</ele>
        <time>2015-12-10T08:34:02Z</time>
      </trkpt>
      <trkpt lat="46.64153" lon="5.56699">
        <ele>306</ele>
        <time>2015-12-10T08:34:10Z</time>
      </trkpt>
      <trkpt lat="46.64146" lon="5.56711">
        <ele>305</ele>
        <time>2015-12-10T08:34:17Z</time>
      </trkpt>
      <trkpt lat="46.64144" lon="5.56718">
        <ele>306</ele>
        <time>2015-12-10T08:34:21Z</time>
      </trkpt>
      <trkpt lat="46.64142" lon="5.56724">
        <ele>306</ele>
        <time>2015-12-10T08:34:24Z</time>
      </trkpt>
      <trkpt lat="46.6414" lon="5.56731">
        <ele>305</ele>
        <time>2015-12-10T08:34:28Z</time>
      </trkpt>
      <trkpt lat="46.64138" lon="5.56737">
        <ele>305</ele>
        <time>2015-12-10T08:34:31Z</time>
      </trkpt>
      <trkpt lat="46.64121" lon="5.56777">
        <ele>306</ele>
        <time>2015-12-10T08:35:10Z</time>
      </trkpt>
      <trkpt lat="46.64117" lon="5.5678">
        <ele>305</ele>
        <time>2015-12-10T08:35:20Z</time>
      </trkpt>
      <trkpt lat="46.64115" lon="5.56794">
        <ele>305</ele>
        <time>2015-12-10T08:35:27Z</time>
      </trkpt>
      <trkpt lat="46.64109" lon="5.56825">
        <ele>306</ele>
        <time>2015-12-10T08:35:42Z</time>
      </trkpt>
      <trkpt lat="46.64108" lon="5.56832">
        <ele>307</ele>
        <time>2015-12-10T08:35:45Z</time>
      </trkpt>
      <trkpt lat="46.64106" lon="5.56849">
        <ele>307</ele>
        <time>2015-12-10T08:35:53Z</time>
      </trkpt>
      <trkpt lat="46.64107" lon="5.56856">
        <ele>308</ele>
        <time>2015-12-10T08:35:57Z</time>
      </trkpt>
      <trkpt lat="46.64109" lon="5.56869">
        <ele>308</ele>
        <time>2015-12-10T08:36:05Z</time>
      </trkpt>
      <trkpt lat="46.64104" lon="5.56888">
        <ele>307</ele>
        <time>2015-12-10T08:36:26Z</time>
      </trkpt>
      <trkpt lat="46.64092" lon="5.56929">
        <ele>311</ele>
        <time>2015-12-10T08:36:57Z</time>
      </trkpt>
      <trkpt lat="46.64088" lon="5.56934">
        <ele>312</ele>
        <time>2015-12-10T08:37:02Z</time>
      </trkpt>
      <trkpt lat="46.64085" lon="5.56941">
        <ele>312</ele>
        <time>2015-12-10T08:37:07Z</time>
      </trkpt>
      <trkpt lat="46.64081" lon="5.56946">
        <ele>311</ele>
        <time>2015-12-10T08:37:12Z</time>
      </trkpt>
      <trkpt lat="46.64076" lon="5.56948">
        <ele>311</ele>
        <time>2015-12-10T08:37:16Z</time>
      </trkpt>
      <trkpt lat="46.64069" lon="5.56956">
        <ele>311</ele>
        <time>2015-12-10T08:37:25Z</time>
      </trkpt>
      <trkpt lat="46.64072" lon="5.56962">
        <ele>310</ele>
        <time>2015-12-10T08:37:32Z</time>
      </trkpt>
      <trkpt lat="46.64076" lon="5.56966">
        <ele>310</ele>
        <time>2015-12-10T08:37:37Z</time>
      </trkpt>
      <trkpt lat="46.64084" lon="5.56974">
        <ele>308</ele>
        <time>2015-12-10T08:37:48Z</time>
      </trkpt>
      <trkpt lat="46.64088" lon="5.56979">
        <ele>308</ele>
        <time>2015-12-10T08:37:55Z</time>
      </trkpt>
      <trkpt lat="46.64102" lon="5.56997">
        <ele>317</ele>
        <time>2015-12-10T08:38:26Z</time>
      </trkpt>
      <trkpt lat="46.64112" lon="5.5702">
        <ele>324</ele>
        <time>2015-12-10T08:38:59Z</time>
      </trkpt>
      <trkpt lat="46.64113" lon="5.57028">
        <ele>326</ele>
        <time>2015-12-10T08:39:06Z</time>
      </trkpt>
      <trkpt lat="46.64122" lon="5.57044">
        <ele>328</ele>
        <time>2015-12-10T08:39:27Z</time>
      </trkpt>
      <trkpt lat="46.64129" lon="5.57053">
        <ele>330</ele>
        <time>2015-12-10T08:39:40Z</time>
      </trkpt>
      <trkpt lat="46.64129" lon="5.57057">
        <ele>330</ele>
        <time>2015-12-10T08:40:19Z</time>
      </trkpt>
      <trkpt lat="46.64124" lon="5.57058">
        <ele>331</ele>
        <time>2015-12-10T08:41:00Z</time>
      </trkpt>
      <trkpt lat="46.64121" lon="5.57064">
        <ele>332</ele>
        <time>2015-12-10T08:41:04Z</time>
      </trkpt>
      <trkpt lat="46.64117" lon="5.57071">
        <ele>333</ele>
        <time>2015-12-10T08:41:09Z</time>
      </trkpt>
      <trkpt lat="46.6411" lon="5.5708">
        <ele>332</ele>
        <time>2015-12-10T08:41:17Z</time>
      </trkpt>
      <trkpt lat="46.64091" lon="5.57124">
        <ele>328</ele>
        <time>2015-12-10T08:41:48Z</time>
      </trkpt>
      <trkpt lat="46.64084" lon="5.57132">
        <ele>328</ele>
        <time>2015-12-10T08:41:54Z</time>
      </trkpt>
      <trkpt lat="46.64071" lon="5.57146">
        <ele>329</ele>
        <time>2015-12-10T08:42:06Z</time>
      </trkpt>
      <trkpt lat="46.64062" lon="5.57154">
        <ele>329</ele>
        <time>2015-12-10T08:42:14Z</time>
      </trkpt>
      <trkpt lat="46.64057" lon="5.57158">
        <ele>328</ele>
        <time>2015-12-10T08:42:19Z</time>
      </trkpt>
      <trkpt lat="46.64044" lon="5.57167">
        <ele>328</ele>
        <time>2015-12-10T08:42:31Z</time>
      </trkpt>
      <trkpt lat="46.64007" lon="5.57174">
        <ele>329</ele>
        <time>2015-12-10T08:43:01Z</time>
      </trkpt>
      <trkpt lat="46.64001" lon="5.57175">
        <ele>329</ele>
        <time>2015-12-10T08:43:06Z</time>
      </trkpt>
      <trkpt lat="46.63996" lon="5.57173">
        <ele>328</ele>
        <time>2015-12-10T08:43:11Z</time>
      </trkpt>
      <trkpt lat="46.63989" lon="5.57172">
        <ele>328</ele>
        <time>2015-12-10T08:43:33Z</time>
      </trkpt>
      <trkpt lat="46.63974" lon="5.57167">
        <ele>325</ele>
        <time>2015-12-10T08:43:45Z</time>
      </trkpt>
      <trkpt lat="46.63949" lon="5.57177">
        <ele>321</ele>
        <time>2015-12-10T08:44:05Z</time>
      </trkpt>
      <trkpt lat="46.63909" lon="5.57199">
        <ele>316</ele>
        <time>2015-12-10T08:44:37Z</time>
      </trkpt>
      <trkpt lat="46.63899" lon="5.57206">
        <ele>316</ele>
        <time>2015-12-10T08:44:45Z</time>
      </trkpt>
      <trkpt lat="46.63885" lon="5.57214">
        <ele>317</ele>
        <time>2015-12-10T08:44:56Z</time>
      </trkpt>
      <trkpt lat="46.6387" lon="5.57214">
        <ele>316</ele>
        <time>2015-12-10T08:45:09Z</time>
      </trkpt>
      <trkpt lat="46.63854" lon="5.57215">
        <ele>316</ele>
        <time>2015-12-10T08:45:21Z</time>
      </trkpt>
      <trkpt lat="46.63821" lon="5.57232">
        <ele>315</ele>
        <time>2015-12-10T08:45:46Z</time>
      </trkpt>
      <trkpt lat="46.63794" lon="5.57253">
        <ele>312</ele>
        <time>2015-12-10T08:46:11Z</time>
      </trkpt>
      <trkpt lat="46.63779" lon="5.57261">
        <ele>314</ele>
        <time>2015-12-10T08:46:24Z</time>
      </trkpt>
      <trkpt lat="46.63764" lon="5.57267">
        <ele>314</ele>
        <time>2015-12-10T08:46:36Z</time>
      </trkpt>
      <trkpt lat="46.63753" lon="5.57268">
        <ele>315</ele>
        <time>2015-12-10T08:46:44Z</time>
      </trkpt>
      <trkpt lat="46.6373" lon="5.57266">
        <ele>315</ele>
        <time>2015-12-10T08:47:00Z</time>
      </trkpt>
      <trkpt lat="46.63724" lon="5.57266">
        <ele>316</ele>
        <time>2015-12-10T08:47:04Z</time>
      </trkpt>
      <trkpt lat="46.63719" lon="5.57266">
        <ele>316</ele>
        <time>2015-12-10T08:47:08Z</time>
      </trkpt>
      <trkpt lat="46.63678" lon="5.57266">
        <ele>319</ele>
        <time>2015-12-10T08:47:40Z</time>
      </trkpt>
      <trkpt lat="46.63668" lon="5.57271">
        <ele>319</ele>
        <time>2015-12-10T08:47:49Z</time>
      </trkpt>
      <trkpt lat="46.63658" lon="5.57275">
        <ele>320</ele>
        <time>2015-12-10T08:47:57Z</time>
      </trkpt>
      <trkpt lat="46.63643" lon="5.5728">
        <ele>320</ele>
        <time>2015-12-10T08:48:08Z</time>
      </trkpt>
      <trkpt lat="46.63633" lon="5.57284">
        <ele>319</ele>
        <time>2015-12-10T08:48:16Z</time>
      </trkpt>
      <trkpt lat="46.63618" lon="5.57294">
        <ele>322</ele>
        <time>2015-12-10T08:48:28Z</time>
      </trkpt>
      <trkpt lat="46.63608" lon="5.573">
        <ele>322</ele>
        <time>2015-12-10T08:48:36Z</time>
      </trkpt>
      <trkpt lat="46.636" lon="5.57307">
        <ele>321</ele>
        <time>2015-12-10T08:48:44Z</time>
      </trkpt>
      <trkpt lat="46.63595" lon="5.57311">
        <ele>321</ele>
        <time>2015-12-10T08:48:48Z</time>
      </trkpt>
      <trkpt lat="46.63572" lon="5.57325">
        <ele>322</ele>
        <time>2015-12-10T08:49:08Z</time>
      </trkpt>
      <trkpt lat="46.63562" lon="5.57329">
        <ele>323</ele>
        <time>2015-12-10T08:49:16Z</time>
      </trkpt>
      <trkpt lat="46.63532" lon="5.57342">
        <ele>324</ele>
        <time>2015-12-10T08:49:40Z</time>
      </trkpt>
      <trkpt lat="46.63506" lon="5.57345">
        <ele>324</ele>
        <time>2015-12-10T08:50:00Z</time>
      </trkpt>
      <trkpt lat="46.63485" lon="5.57349">
        <ele>323</ele>
        <time>2015-12-10T08:50:16Z</time>
      </trkpt>
      <trkpt lat="46.63474" lon="5.57353">
        <ele>323</ele>
        <time>2015-12-10T08:50:24Z</time>
      </trkpt>
      <trkpt lat="46.63464" lon="5.57355">
        <ele>323</ele>
        <time>2015-12-10T08:50:32Z</time>
      </trkpt>
      <trkpt lat="46.63424" lon="5.57373">
        <ele>325</ele>
        <time>2015-12-10T08:51:04Z</time>
      </trkpt>
      <trkpt lat="46.63419" lon="5.57375">
        <ele>326</ele>
        <time>2015-12-10T08:51:08Z</time>
      </trkpt>
      <trkpt lat="46.63414" lon="5.57377">
        <ele>326</ele>
        <time>2015-12-10T08:51:12Z</time>
      </trkpt>
      <trkpt lat="46.63409" lon="5.57379">
        <ele>326</ele>
        <time>2015-12-10T08:51:17Z</time>
      </trkpt>
      <trkpt lat="46.63394" lon="5.57387">
        <ele>325</ele>
        <time>2015-12-10T08:51:29Z</time>
      </trkpt>
      <trkpt lat="46.63381" lon="5.57396">
        <ele>325</ele>
        <time>2015-12-10T08:51:41Z</time>
      </trkpt>
      <trkpt lat="46.63377" lon="5.574">
        <ele>325</ele>
        <time>2015-12-10T08:51:45Z</time>
      </trkpt>
      <trkpt lat="46.63372" lon="5.57403">
        <ele>325</ele>
        <time>2015-12-10T08:51:49Z</time>
      </trkpt>
      <trkpt lat="46.63362" lon="5.5741">
        <ele>325</ele>
        <time>2015-12-10T08:51:57Z</time>
      </trkpt>
      <trkpt lat="46.63354" lon="5.57416">
        <ele>324</ele>
        <time>2015-12-10T08:52:05Z</time>
      </trkpt>
      <trkpt lat="46.63329" lon="5.57431">
        <ele>326</ele>
        <time>2015-12-10T08:52:25Z</time>
      </trkpt>
      <trkpt lat="46.63324" lon="5.57434">
        <ele>325</ele>
        <time>2015-12-10T08:52:29Z</time>
      </trkpt>
      <trkpt lat="46.63319" lon="5.57438">
        <ele>324</ele>
        <time>2015-12-10T08:52:33Z</time>
      </trkpt>
      <trkpt lat="46.63299" lon="5.57445">
        <ele>326</ele>
        <time>2015-12-10T08:52:49Z</time>
      </trkpt>
      <trkpt lat="46.63285" lon="5.5745">
        <ele>328</ele>
        <time>2015-12-10T08:53:04Z</time>
      </trkpt>
      <trkpt lat="46.63269" lon="5.57449">
        <ele>329</ele>
        <time>2015-12-10T08:53:16Z</time>
      </trkpt>
      <trkpt lat="46.63264" lon="5.57449">
        <ele>329</ele>
        <time>2015-12-10T08:53:20Z</time>
      </trkpt>
      <trkpt lat="46.63259" lon="5.5745">
        <ele>329</ele>
        <time>2015-12-10T08:53:24Z</time>
      </trkpt>
      <trkpt lat="46.63217" lon="5.57451">
        <ele>332</ele>
        <time>2015-12-10T08:53:56Z</time>
      </trkpt>
      <trkpt lat="46.63212" lon="5.57452">
        <ele>332</ele>
        <time>2015-12-10T08:54:00Z</time>
      </trkpt>
      <trkpt lat="46.63203" lon="5.57453">
        <ele>332</ele>
        <time>2015-12-10T08:54:08Z</time>
      </trkpt>
      <trkpt lat="46.63198" lon="5.57457">
        <ele>334</ele>
        <time>2015-12-10T08:54:13Z</time>
      </trkpt>
      <trkpt lat="46.63194" lon="5.57461">
        <ele>334</ele>
        <time>2015-12-10T08:54:17Z</time>
      </trkpt>
      <trkpt lat="46.63189" lon="5.57465">
        <ele>334</ele>
        <time>2015-12-10T08:54:21Z</time>
      </trkpt>
      <trkpt lat="46.63177" lon="5.5748">
        <ele>333</ele>
        <time>2015-12-10T08:54:34Z</time>
      </trkpt>
      <trkpt lat="46.63158" lon="5.57505">
        <ele>333</ele>
        <time>2015-12-10T08:54:54Z</time>
      </trkpt>
      <trkpt lat="46.63145" lon="5.57529">
        <ele>336</ele>
        <time>2015-12-10T08:55:12Z</time>
      </trkpt>
      <trkpt lat="46.63142" lon="5.57535">
        <ele>336</ele>
        <time>2015-12-10T08:55:16Z</time>
      </trkpt>
      <trkpt lat="46.63137" lon="5.57549">
        <ele>335</ele>
        <time>2015-12-10T08:55:24Z</time>
      </trkpt>
      <trkpt lat="46.63127" lon="5.57575">
        <ele>339</ele>
        <time>2015-12-10T08:55:43Z</time>
      </trkpt>
      <trkpt lat="46.63124" lon="5.5758">
        <ele>339</ele>
        <time>2015-12-10T08:55:47Z</time>
      </trkpt>
      <trkpt lat="46.63119" lon="5.57584">
        <ele>339</ele>
        <time>2015-12-10T08:55:52Z</time>
      </trkpt>
      <trkpt lat="46.63113" lon="5.57588">
        <ele>341</ele>
        <time>2015-12-10T08:56:05Z</time>
      </trkpt>
      <trkpt lat="46.63085" lon="5.57606">
        <ele>342</ele>
        <time>2015-12-10T08:56:35Z</time>
      </trkpt>
      <trkpt lat="46.6308" lon="5.5761">
        <ele>342</ele>
        <time>2015-12-10T08:56:39Z</time>
      </trkpt>
      <trkpt lat="46.63046" lon="5.57609">
        <ele>345</ele>
        <time>2015-12-10T08:57:06Z</time>
      </trkpt>
      <trkpt lat="46.63034" lon="5.57588">
        <ele>347</ele>
        <time>2015-12-10T08:57:22Z</time>
      </trkpt>
      <trkpt lat="46.63025" lon="5.57582">
        <ele>348</ele>
        <time>2015-12-10T08:57:31Z</time>
      </trkpt>
      <trkpt lat="46.63006" lon="5.57582">
        <ele>347</ele>
        <time>2015-12-10T08:57:50Z</time>
      </trkpt>
      <trkpt lat="46.62997" lon="5.57576">
        <ele>347</ele>
        <time>2015-12-10T08:57:59Z</time>
      </trkpt>
      <trkpt lat="46.62988" lon="5.57571">
        <ele>348</ele>
        <time>2015-12-10T08:58:06Z</time>
      </trkpt>
      <trkpt lat="46.62979" lon="5.57569">
        <ele>348</ele>
        <time>2015-12-10T08:58:14Z</time>
      </trkpt>
      <trkpt lat="46.62972" lon="5.57579">
        <ele>347</ele>
        <time>2015-12-10T08:58:23Z</time>
      </trkpt>
      <trkpt lat="46.62964" lon="5.57586">
        <ele>347</ele>
        <time>2015-12-10T08:58:30Z</time>
      </trkpt>
      <trkpt lat="46.62955" lon="5.57586">
        <ele>347</ele>
        <time>2015-12-10T08:58:36Z</time>
      </trkpt>
      <trkpt lat="46.62945" lon="5.57589">
        <ele>348</ele>
        <time>2015-12-10T08:58:45Z</time>
      </trkpt>
      <trkpt lat="46.62939" lon="5.57599">
        <ele>348</ele>
        <time>2015-12-10T08:58:59Z</time>
      </trkpt>
      <trkpt lat="46.62929" lon="5.57599">
        <ele>348</ele>
        <time>2015-12-10T08:59:06Z</time>
      </trkpt>
      <trkpt lat="46.6292" lon="5.57598">
        <ele>349</ele>
        <time>2015-12-10T08:59:11Z</time>
      </trkpt>
      <trkpt lat="46.62894" lon="5.57616">
        <ele>351</ele>
        <time>2015-12-10T08:59:43Z</time>
      </trkpt>
      <trkpt lat="46.62859" lon="5.57639">
        <ele>354</ele>
        <time>2015-12-10T09:00:14Z</time>
      </trkpt>
      <trkpt lat="46.6285" lon="5.57637">
        <ele>355</ele>
        <time>2015-12-10T09:00:22Z</time>
      </trkpt>
      <trkpt lat="46.62841" lon="5.57633">
        <ele>355</ele>
        <time>2015-12-10T09:00:31Z</time>
      </trkpt>
      <trkpt lat="46.62834" lon="5.57624">
        <ele>354</ele>
        <time>2015-12-10T09:00:39Z</time>
      </trkpt>
      <trkpt lat="46.62827" lon="5.57614">
        <ele>355</ele>
        <time>2015-12-10T09:00:46Z</time>
      </trkpt>
      <trkpt lat="46.62821" lon="5.57607">
        <ele>357</ele>
        <time>2015-12-10T09:01:04Z</time>
      </trkpt>
      <trkpt lat="46.62809" lon="5.57609">
        <ele>358</ele>
        <time>2015-12-10T09:01:20Z</time>
      </trkpt>
      <trkpt lat="46.62799" lon="5.5761">
        <ele>358</ele>
        <time>2015-12-10T09:01:28Z</time>
      </trkpt>
      <trkpt lat="46.62791" lon="5.57618">
        <ele>357</ele>
        <time>2015-12-10T09:01:38Z</time>
      </trkpt>
      <trkpt lat="46.62785" lon="5.57627">
        <ele>359</ele>
        <time>2015-12-10T09:01:54Z</time>
      </trkpt>
      <trkpt lat="46.62783" lon="5.57644">
        <ele>360</ele>
        <time>2015-12-10T09:02:07Z</time>
      </trkpt>
      <trkpt lat="46.62777" lon="5.57649">
        <ele>361</ele>
        <time>2015-12-10T09:02:13Z</time>
      </trkpt>
      <trkpt lat="46.62772" lon="5.57652">
        <ele>362</ele>
        <time>2015-12-10T09:02:18Z</time>
      </trkpt>
      <trkpt lat="46.62765" lon="5.57661">
        <ele>363</ele>
        <time>2015-12-10T09:02:26Z</time>
      </trkpt>
      <trkpt lat="46.62767" lon="5.57672">
        <ele>362</ele>
        <time>2015-12-10T09:02:37Z</time>
      </trkpt>
      <trkpt lat="46.62763" lon="5.57679">
        <ele>362</ele>
        <time>2015-12-10T09:02:41Z</time>
      </trkpt>
      <trkpt lat="46.62758" lon="5.57681">
        <ele>362</ele>
        <time>2015-12-10T09:02:45Z</time>
      </trkpt>
      <trkpt lat="46.62741" lon="5.57682">
        <ele>362</ele>
        <time>2015-12-10T09:02:55Z</time>
      </trkpt>
      <trkpt lat="46.62731" lon="5.57682">
        <ele>361</ele>
        <time>2015-12-10T09:03:03Z</time>
      </trkpt>
      <trkpt lat="46.62726" lon="5.57685">
        <ele>361</ele>
        <time>2015-12-10T09:03:07Z</time>
      </trkpt>
      <trkpt lat="46.62724" lon="5.57692">
        <ele>362</ele>
        <time>2015-12-10T09:03:16Z</time>
      </trkpt>
      <trkpt lat="46.62715" lon="5.57691">
        <ele>363</ele>
        <time>2015-12-10T09:03:23Z</time>
      </trkpt>
      <trkpt lat="46.62678" lon="5.57676">
        <ele>365</ele>
        <time>2015-12-10T09:03:49Z</time>
      </trkpt>
      <trkpt lat="46.62673" lon="5.57673">
        <ele>364</ele>
        <time>2015-12-10T09:03:54Z</time>
      </trkpt>
      <trkpt lat="46.62667" lon="5.57663">
        <ele>362</ele>
        <time>2015-12-10T09:04:02Z</time>
      </trkpt>
      <trkpt lat="46.62662" lon="5.57661">
        <ele>362</ele>
        <time>2015-12-10T09:04:10Z</time>
      </trkpt>
      <trkpt lat="46.6264" lon="5.57646">
        <ele>365</ele>
        <time>2015-12-10T09:04:34Z</time>
      </trkpt>
      <trkpt lat="46.62627" lon="5.57633">
        <ele>365</ele>
        <time>2015-12-10T09:04:49Z</time>
      </trkpt>
      <trkpt lat="46.62624" lon="5.57634">
        <ele>367</ele>
        <time>2015-12-10T09:05:00Z</time>
      </trkpt>
      <trkpt lat="46.62621" lon="5.57633">
        <ele>367</ele>
        <time>2015-12-10T09:05:38Z</time>
      </trkpt>
      <trkpt lat="46.62619" lon="5.57632">
        <ele>367</ele>
        <time>2015-12-10T09:06:42Z</time>
      </trkpt>
      <trkpt lat="46.6262" lon="5.57628">
        <ele>367</ele>
        <time>2015-12-10T09:08:48Z</time>
      </trkpt>
      <trkpt lat="46.62615" lon="5.57627">
        <ele>367</ele>
        <time>2015-12-10T09:08:55Z</time>
      </trkpt>
      <trkpt lat="46.62611" lon="5.57626">
        <ele>367</ele>
        <time>2015-12-10T09:09:00Z</time>
      </trkpt>
      <trkpt lat="46.62606" lon="5.57624">
        <ele>367</ele>
        <time>2015-12-10T09:09:04Z</time>
      </trkpt>
      <trkpt lat="46.62568" lon="5.57611">
        <ele>376</ele>
        <time>2015-12-10T09:09:39Z</time>
      </trkpt>
      <trkpt lat="46.62541" lon="5.57601">
        <ele>382</ele>
        <time>2015-12-10T09:10:15Z</time>
      </trkpt>
      <trkpt lat="46.62514" lon="5.57591">
        <ele>386</ele>
        <time>2015-12-10T09:10:50Z</time>
      </trkpt>
      <trkpt lat="46.62496" lon="5.57582">
        <ele>391</ele>
        <time>2015-12-10T09:11:14Z</time>
      </trkpt>
      <trkpt lat="46.62498" lon="5.57569">
        <ele>392</ele>
        <time>2015-12-10T09:11:28Z</time>
      </trkpt>
      <trkpt lat="46.62496" lon="5.57556">
        <ele>394</ele>
        <time>2015-12-10T09:11:42Z</time>
      </trkpt>
      <trkpt lat="46.6249" lon="5.57545">
        <ele>395</ele>
        <time>2015-12-10T09:11:53Z</time>
      </trkpt>
      <trkpt lat="46.62483" lon="5.57536">
        <ele>397</ele>
        <time>2015-12-10T09:12:04Z</time>
      </trkpt>
      <trkpt lat="46.62477" lon="5.57526">
        <ele>398</ele>
        <time>2015-12-10T09:12:15Z</time>
      </trkpt>
      <trkpt lat="46.62472" lon="5.57485">
        <ele>406</ele>
        <time>2015-12-10T09:12:57Z</time>
      </trkpt>
      <trkpt lat="46.62476" lon="5.57452">
        <ele>411</ele>
        <time>2015-12-10T09:13:35Z</time>
      </trkpt>
      <trkpt lat="46.6249" lon="5.57427">
        <ele>418</ele>
        <time>2015-12-10T09:14:08Z</time>
      </trkpt>
      <trkpt lat="46.62496" lon="5.57416">
        <ele>419</ele>
        <time>2015-12-10T09:14:19Z</time>
      </trkpt>
      <trkpt lat="46.62506" lon="5.57414">
        <ele>421</ele>
        <time>2015-12-10T09:14:25Z</time>
      </trkpt>
      <trkpt lat="46.62511" lon="5.57404">
        <ele>424</ele>
        <time>2015-12-10T09:14:39Z</time>
      </trkpt>
      <trkpt lat="46.62512" lon="5.57391">
        <ele>426</ele>
        <time>2015-12-10T09:14:54Z</time>
      </trkpt>
      <trkpt lat="46.62516" lon="5.57383">
        <ele>427</ele>
        <time>2015-12-10T09:15:14Z</time>
      </trkpt>
      <trkpt lat="46.62514" lon="5.5737">
        <ele>430</ele>
        <time>2015-12-10T09:15:28Z</time>
      </trkpt>
      <trkpt lat="46.62518" lon="5.57344">
        <ele>441</ele>
        <time>2015-12-10T09:16:06Z</time>
      </trkpt>
      <trkpt lat="46.6252" lon="5.57331">
        <ele>442</ele>
        <time>2015-12-10T09:16:21Z</time>
      </trkpt>
      <trkpt lat="46.62526" lon="5.57319">
        <ele>444</ele>
        <time>2015-12-10T09:16:32Z</time>
      </trkpt>
      <trkpt lat="46.62528" lon="5.57306">
        <ele>445</ele>
        <time>2015-12-10T09:16:46Z</time>
      </trkpt>
      <trkpt lat="46.62526" lon="5.57293">
        <ele>447</ele>
        <time>2015-12-10T09:17:01Z</time>
      </trkpt>
      <trkpt lat="46.62521" lon="5.57282">
        <ele>448</ele>
        <time>2015-12-10T09:17:16Z</time>
      </trkpt>
      <trkpt lat="46.62512" lon="5.57275">
        <ele>450</ele>
        <time>2015-12-10T09:17:30Z</time>
      </trkpt>
      <trkpt lat="46.62483" lon="5.57282">
        <ele>456</ele>
        <time>2015-12-10T09:18:07Z</time>
      </trkpt>
      <trkpt lat="46.62477" lon="5.57291">
        <ele>458</ele>
        <time>2015-12-10T09:18:22Z</time>
      </trkpt>
      <trkpt lat="46.62461" lon="5.57307">
        <ele>459</ele>
        <time>2015-12-10T09:18:43Z</time>
      </trkpt>
      <trkpt lat="46.62453" lon="5.57314">
        <ele>459</ele>
        <time>2015-12-10T09:18:52Z</time>
      </trkpt>
      <trkpt lat="46.62446" lon="5.57321">
        <ele>459</ele>
        <time>2015-12-10T09:19:01Z</time>
      </trkpt>
      <trkpt lat="46.62438" lon="5.57328">
        <ele>459</ele>
        <time>2015-12-10T09:19:13Z</time>
      </trkpt>
      <trkpt lat="46.62412" lon="5.57344">
        <ele>461</ele>
        <time>2015-12-10T09:19:45Z</time>
      </trkpt>
      <trkpt lat="46.62391" lon="5.57356">
        <ele>463</ele>
        <time>2015-12-10T09:20:23Z</time>
      </trkpt>
      <trkpt lat="46.62363" lon="5.57363">
        <ele>467</ele>
        <time>2015-12-10T09:20:55Z</time>
      </trkpt>
      <trkpt lat="46.62362" lon="5.57369">
        <ele>466</ele>
        <time>2015-12-10T09:21:06Z</time>
      </trkpt>
      <trkpt lat="46.62356" lon="5.57379">
        <ele>465</ele>
        <time>2015-12-10T09:22:20Z</time>
      </trkpt>
      <trkpt lat="46.62328" lon="5.57393">
        <ele>470</ele>
        <time>2015-12-10T09:22:54Z</time>
      </trkpt>
      <trkpt lat="46.62321" lon="5.57401">
        <ele>471</ele>
        <time>2015-12-10T09:23:03Z</time>
      </trkpt>
      <trkpt lat="46.62303" lon="5.57433">
        <ele>475</ele>
        <time>2015-12-10T09:23:37Z</time>
      </trkpt>
      <trkpt lat="46.62278" lon="5.5745">
        <ele>478</ele>
        <time>2015-12-10T09:24:16Z</time>
      </trkpt>
      <trkpt lat="46.62269" lon="5.57454">
        <ele>479</ele>
        <time>2015-12-10T09:24:28Z</time>
      </trkpt>
      <trkpt lat="46.62242" lon="5.57452">
        <ele>486</ele>
        <time>2015-12-10T09:25:08Z</time>
      </trkpt>
      <trkpt lat="46.62232" lon="5.57455">
        <ele>488</ele>
        <time>2015-12-10T09:25:19Z</time>
      </trkpt>
      <trkpt lat="46.62216" lon="5.57443">
        <ele>492</ele>
        <time>2015-12-10T09:25:48Z</time>
      </trkpt>
      <trkpt lat="46.62207" lon="5.57444">
        <ele>492</ele>
        <time>2015-12-10T09:26:00Z</time>
      </trkpt>
      <trkpt lat="46.62199" lon="5.57448">
        <ele>494</ele>
        <time>2015-12-10T09:26:18Z</time>
      </trkpt>
      <trkpt lat="46.62176" lon="5.57452">
        <ele>494</ele>
        <time>2015-12-10T09:26:53Z</time>
      </trkpt>
      <trkpt lat="46.62178" lon="5.57456">
        <ele>493</ele>
        <time>2015-12-10T09:27:29Z</time>
      </trkpt>
      <trkpt lat="46.62174" lon="5.57461">
        <ele>492</ele>
        <time>2015-12-10T09:28:10Z</time>
      </trkpt>
      <trkpt lat="46.62174" lon="5.5747">
        <ele>492</ele>
        <time>2015-12-10T09:28:18Z</time>
      </trkpt>
      <trkpt lat="46.62178" lon="5.57475">
        <ele>492</ele>
        <time>2015-12-10T09:28:24Z</time>
      </trkpt>
      <trkpt lat="46.62181" lon="5.5748">
        <ele>494</ele>
        <time>2015-12-10T09:28:31Z</time>
      </trkpt>
      <trkpt lat="46.62182" lon="5.57486">
        <ele>496</ele>
        <time>2015-12-10T09:28:37Z</time>
      </trkpt>
      <trkpt lat="46.62177" lon="5.57502">
        <ele>502</ele>
        <time>2015-12-10T09:28:59Z</time>
      </trkpt>
      <trkpt lat="46.62168" lon="5.57507">
        <ele>503</ele>
        <time>2015-12-10T09:29:10Z</time>
      </trkpt>
      <trkpt lat="46.62153" lon="5.57529">
        <ele>505</ele>
        <time>2015-12-10T09:29:40Z</time>
      </trkpt>
      <trkpt lat="46.62148" lon="5.57535">
        <ele>507</ele>
        <time>2015-12-10T09:29:51Z</time>
      </trkpt>
      <trkpt lat="46.62147" lon="5.57542">
        <ele>510</ele>
        <time>2015-12-10T09:30:00Z</time>
      </trkpt>
      <trkpt lat="46.62145" lon="5.57548">
        <ele>510</ele>
        <time>2015-12-10T09:30:10Z</time>
      </trkpt>
      <trkpt lat="46.62144" lon="5.57551">
        <ele>510</ele>
        <time>2015-12-10T09:30:16Z</time>
      </trkpt>
      <trkpt lat="46.62143" lon="5.57563">
        <ele>511</ele>
        <time>2015-12-10T09:30:34Z</time>
      </trkpt>
      <trkpt lat="46.6214" lon="5.57589">
        <ele>516</ele>
        <time>2015-12-10T09:31:10Z</time>
      </trkpt>
      <trkpt lat="46.62129" lon="5.57613">
        <ele>523</ele>
        <time>2015-12-10T09:31:47Z</time>
      </trkpt>
      <trkpt lat="46.62132" lon="5.57627">
        <ele>525</ele>
        <time>2015-12-10T09:32:01Z</time>
      </trkpt>
      <trkpt lat="46.62134" lon="5.57654">
        <ele>529</ele>
        <time>2015-12-10T09:32:29Z</time>
      </trkpt>
      <trkpt lat="46.62142" lon="5.57658">
        <ele>529</ele>
        <time>2015-12-10T09:32:41Z</time>
      </trkpt>
      <trkpt lat="46.62145" lon="5.57654">
        <ele>527</ele>
        <time>2015-12-10T09:35:16Z</time>
      </trkpt>
      <trkpt lat="46.62148" lon="5.57657">
        <ele>527</ele>
        <time>2015-12-10T09:35:29Z</time>
      </trkpt>
      <trkpt lat="46.62145" lon="5.57656">
        <ele>529</ele>
        <time>2015-12-10T09:39:52Z</time>
      </trkpt>
      <trkpt lat="46.62134" lon="5.57647">
        <ele>529</ele>
        <time>2015-12-10T09:40:23Z</time>
      </trkpt>
      <trkpt lat="46.62136" lon="5.57634">
        <ele>528</ele>
        <time>2015-12-10T09:40:40Z</time>
      </trkpt>
      <trkpt lat="46.62132" lon="5.57622">
        <ele>527</ele>
        <time>2015-12-10T09:40:51Z</time>
      </trkpt>
      <trkpt lat="46.62137" lon="5.5761">
        <ele>526</ele>
        <time>2015-12-10T09:41:03Z</time>
      </trkpt>
      <trkpt lat="46.62142" lon="5.57583">
        <ele>524</ele>
        <time>2015-12-10T09:41:33Z</time>
      </trkpt>
      <trkpt lat="46.62143" lon="5.5757">
        <ele>522</ele>
        <time>2015-12-10T09:41:45Z</time>
      </trkpt>
      <trkpt lat="46.62146" lon="5.57557">
        <ele>521</ele>
        <time>2015-12-10T09:41:59Z</time>
      </trkpt>
      <trkpt lat="46.62166" lon="5.57512">
        <ele>514</ele>
        <time>2015-12-10T09:42:39Z</time>
      </trkpt>
      <trkpt lat="46.62191" lon="5.57493">
        <ele>507</ele>
        <time>2015-12-10T09:43:02Z</time>
      </trkpt>
      <trkpt lat="46.62188" lon="5.57479">
        <ele>505</ele>
        <time>2015-12-10T09:43:11Z</time>
      </trkpt>
      <trkpt lat="46.62168" lon="5.57459">
        <ele>500</ele>
        <time>2015-12-10T09:43:30Z</time>
      </trkpt>
      <trkpt lat="46.62162" lon="5.57458">
        <ele>499</ele>
        <time>2015-12-10T09:43:34Z</time>
      </trkpt>
      <trkpt lat="46.62122" lon="5.57461">
        <ele>502</ele>
        <time>2015-12-10T09:44:07Z</time>
      </trkpt>
      <trkpt lat="46.62095" lon="5.57458">
        <ele>503</ele>
        <time>2015-12-10T09:44:26Z</time>
      </trkpt>
      <trkpt lat="46.62081" lon="5.57461">
        <ele>504</ele>
        <time>2015-12-10T09:44:39Z</time>
      </trkpt>
      <trkpt lat="46.6207" lon="5.57461">
        <ele>504</ele>
        <time>2015-12-10T09:44:48Z</time>
      </trkpt>
      <trkpt lat="46.6206" lon="5.57459">
        <ele>504</ele>
        <time>2015-12-10T09:44:56Z</time>
      </trkpt>
      <trkpt lat="46.62035" lon="5.57457">
        <ele>504</ele>
        <time>2015-12-10T09:45:16Z</time>
      </trkpt>
      <trkpt lat="46.62026" lon="5.57457">
        <ele>506</ele>
        <time>2015-12-10T09:45:24Z</time>
      </trkpt>
      <trkpt lat="46.62016" lon="5.57459">
        <ele>506</ele>
        <time>2015-12-10T09:45:32Z</time>
      </trkpt>
      <trkpt lat="46.62011" lon="5.57461">
        <ele>507</ele>
        <time>2015-12-10T09:45:36Z</time>
      </trkpt>
      <trkpt lat="46.61971" lon="5.57468">
        <ele>509</ele>
        <time>2015-12-10T09:46:10Z</time>
      </trkpt>
      <trkpt lat="46.61961" lon="5.57462">
        <ele>509</ele>
        <time>2015-12-10T09:46:19Z</time>
      </trkpt>
      <trkpt lat="46.61935" lon="5.57438">
        <ele>508</ele>
        <time>2015-12-10T09:46:47Z</time>
      </trkpt>
      <trkpt lat="46.61931" lon="5.57433">
        <ele>508</ele>
        <time>2015-12-10T09:46:51Z</time>
      </trkpt>
      <trkpt lat="46.61928" lon="5.57428">
        <ele>508</ele>
        <time>2015-12-10T09:46:55Z</time>
      </trkpt>
      <trkpt lat="46.61924" lon="5.57423">
        <ele>509</ele>
        <time>2015-12-10T09:46:59Z</time>
      </trkpt>
      <trkpt lat="46.6192" lon="5.57418">
        <ele>509</ele>
        <time>2015-12-10T09:47:03Z</time>
      </trkpt>
      <trkpt lat="46.61896" lon="5.5741">
        <ele>512</ele>
        <time>2015-12-10T09:47:24Z</time>
      </trkpt>
      <trkpt lat="46.61876" lon="5.57409">
        <ele>511</ele>
        <time>2015-12-10T09:47:40Z</time>
      </trkpt>
      <trkpt lat="46.61866" lon="5.57408">
        <ele>513</ele>
        <time>2015-12-10T09:47:48Z</time>
      </trkpt>
      <trkpt lat="46.61854" lon="5.57406">
        <ele>513</ele>
        <time>2015-12-10T09:47:56Z</time>
      </trkpt>
      <trkpt lat="46.6185" lon="5.57407">
        <ele>513</ele>
        <time>2015-12-10T09:48:00Z</time>
      </trkpt>
      <trkpt lat="46.61846" lon="5.57411">
        <ele>513</ele>
        <time>2015-12-10T09:48:05Z</time>
      </trkpt>
      <trkpt lat="46.61841" lon="5.57409">
        <ele>514</ele>
        <time>2015-12-10T09:48:09Z</time>
      </trkpt>
      <trkpt lat="46.61835" lon="5.5741">
        <ele>513</ele>
        <time>2015-12-10T09:48:14Z</time>
      </trkpt>
      <trkpt lat="46.61825" lon="5.57406">
        <ele>514</ele>
        <time>2015-12-10T09:48:21Z</time>
      </trkpt>
      <trkpt lat="46.61815" lon="5.57405">
        <ele>513</ele>
        <time>2015-12-10T09:48:29Z</time>
      </trkpt>
      <trkpt lat="46.61809" lon="5.57405">
        <ele>513</ele>
        <time>2015-12-10T09:48:34Z</time>
      </trkpt>
      <trkpt lat="46.61804" lon="5.57403">
        <ele>513</ele>
        <time>2015-12-10T09:48:38Z</time>
      </trkpt>
      <trkpt lat="46.618" lon="5.57402">
        <ele>514</ele>
        <time>2015-12-10T09:48:42Z</time>
      </trkpt>
      <trkpt lat="46.61789" lon="5.57398">
        <ele>513</ele>
        <time>2015-12-10T09:48:50Z</time>
      </trkpt>
      <trkpt lat="46.61768" lon="5.57393">
        <ele>514</ele>
        <time>2015-12-10T09:49:06Z</time>
      </trkpt>
      <trkpt lat="46.61743" lon="5.57383">
        <ele>516</ele>
        <time>2015-12-10T09:49:26Z</time>
      </trkpt>
      <trkpt lat="46.61729" lon="5.5738">
        <ele>516</ele>
        <time>2015-12-10T09:49:38Z</time>
      </trkpt>
      <trkpt lat="46.61718" lon="5.57375">
        <ele>517</ele>
        <time>2015-12-10T09:49:47Z</time>
      </trkpt>
      <trkpt lat="46.61714" lon="5.57372">
        <ele>517</ele>
        <time>2015-12-10T09:49:50Z</time>
      </trkpt>
      <trkpt lat="46.61709" lon="5.57371">
        <ele>517</ele>
        <time>2015-12-10T09:49:54Z</time>
      </trkpt>
      <trkpt lat="46.6168" lon="5.57364">
        <ele>516</ele>
        <time>2015-12-10T09:50:18Z</time>
      </trkpt>
      <trkpt lat="46.61676" lon="5.57362">
        <ele>516</ele>
        <time>2015-12-10T09:50:22Z</time>
      </trkpt>
      <trkpt lat="46.61671" lon="5.57361">
        <ele>516</ele>
        <time>2015-12-10T09:50:26Z</time>
      </trkpt>
      <trkpt lat="46.61656" lon="5.57357">
        <ele>515</ele>
        <time>2015-12-10T09:50:38Z</time>
      </trkpt>
      <trkpt lat="46.61651" lon="5.57353">
        <ele>516</ele>
        <time>2015-12-10T09:50:42Z</time>
      </trkpt>
      <trkpt lat="46.61646" lon="5.5735">
        <ele>516</ele>
        <time>2015-12-10T09:50:46Z</time>
      </trkpt>
      <trkpt lat="46.61641" lon="5.57347">
        <ele>517</ele>
        <time>2015-12-10T09:50:50Z</time>
      </trkpt>
      <trkpt lat="46.61637" lon="5.57345">
        <ele>516</ele>
        <time>2015-12-10T09:50:54Z</time>
      </trkpt>
      <trkpt lat="46.61633" lon="5.57342">
        <ele>517</ele>
        <time>2015-12-10T09:50:58Z</time>
      </trkpt>
      <trkpt lat="46.616" lon="5.5732">
        <ele>515</ele>
        <time>2015-12-10T09:51:26Z</time>
      </trkpt>
      <trkpt lat="46.61596" lon="5.57318">
        <ele>515</ele>
        <time>2015-12-10T09:51:30Z</time>
      </trkpt>
      <trkpt lat="46.61582" lon="5.57314">
        <ele>515</ele>
        <time>2015-12-10T09:51:44Z</time>
      </trkpt>
      <trkpt lat="46.61573" lon="5.57319">
        <ele>514</ele>
        <time>2015-12-10T09:51:53Z</time>
      </trkpt>
      <trkpt lat="46.61569" lon="5.57325">
        <ele>513</ele>
        <time>2015-12-10T09:51:59Z</time>
      </trkpt>
      <trkpt lat="46.61567" lon="5.57332">
        <ele>514</ele>
        <time>2015-12-10T09:52:03Z</time>
      </trkpt>
      <trkpt lat="46.6156" lon="5.57344">
        <ele>514</ele>
        <time>2015-12-10T09:52:13Z</time>
      </trkpt>
      <trkpt lat="46.61553" lon="5.57363">
        <ele>514</ele>
        <time>2015-12-10T09:52:29Z</time>
      </trkpt>
      <trkpt lat="46.61551" lon="5.57371">
        <ele>515</ele>
        <time>2015-12-10T09:52:34Z</time>
      </trkpt>
      <trkpt lat="46.61551" lon="5.57378">
        <ele>515</ele>
        <time>2015-12-10T09:52:37Z</time>
      </trkpt>
      <trkpt lat="46.61548" lon="5.574">
        <ele>516</ele>
        <time>2015-12-10T09:52:49Z</time>
      </trkpt>
      <trkpt lat="46.61548" lon="5.57408">
        <ele>515</ele>
        <time>2015-12-10T09:52:54Z</time>
      </trkpt>
      <trkpt lat="46.61547" lon="5.57415">
        <ele>515</ele>
        <time>2015-12-10T09:52:58Z</time>
      </trkpt>
      <trkpt lat="46.61539" lon="5.57441">
        <ele>518</ele>
        <time>2015-12-10T09:53:16Z</time>
      </trkpt>
      <trkpt lat="46.61536" lon="5.57447">
        <ele>517</ele>
        <time>2015-12-10T09:53:21Z</time>
      </trkpt>
      <trkpt lat="46.6153" lon="5.57482">
        <ele>521</ele>
        <time>2015-12-10T09:53:47Z</time>
      </trkpt>
      <trkpt lat="46.61533" lon="5.57495">
        <ele>522</ele>
        <time>2015-12-10T09:53:56Z</time>
      </trkpt>
      <trkpt lat="46.61536" lon="5.57501">
        <ele>523</ele>
        <time>2015-12-10T09:54:01Z</time>
      </trkpt>
      <trkpt lat="46.61538" lon="5.57515">
        <ele>523</ele>
        <time>2015-12-10T09:54:12Z</time>
      </trkpt>
      <trkpt lat="46.61537" lon="5.57522">
        <ele>522</ele>
        <time>2015-12-10T09:54:17Z</time>
      </trkpt>
      <trkpt lat="46.61537" lon="5.57529">
        <ele>522</ele>
        <time>2015-12-10T09:54:22Z</time>
      </trkpt>
      <trkpt lat="46.6153" lon="5.57582">
        <ele>529</ele>
        <time>2015-12-10T09:54:59Z</time>
      </trkpt>
      <trkpt lat="46.61524" lon="5.57637">
        <ele>534</ele>
        <time>2015-12-10T09:55:32Z</time>
      </trkpt>
      <trkpt lat="46.61523" lon="5.57643">
        <ele>535</ele>
        <time>2015-12-10T09:55:37Z</time>
      </trkpt>
      <trkpt lat="46.61519" lon="5.57658">
        <ele>535</ele>
        <time>2015-12-10T09:55:48Z</time>
      </trkpt>
      <trkpt lat="46.61517" lon="5.5768">
        <ele>534</ele>
        <time>2015-12-10T09:56:02Z</time>
      </trkpt>
      <trkpt lat="46.61514" lon="5.57701">
        <ele>534</ele>
        <time>2015-12-10T09:56:14Z</time>
      </trkpt>
      <trkpt lat="46.61513" lon="5.57715">
        <ele>535</ele>
        <time>2015-12-10T09:56:22Z</time>
      </trkpt>
      <trkpt lat="46.61509" lon="5.57736">
        <ele>538</ele>
        <time>2015-12-10T09:56:44Z</time>
      </trkpt>
      <trkpt lat="46.61502" lon="5.57747">
        <ele>542</ele>
        <time>2015-12-10T09:56:57Z</time>
      </trkpt>
      <trkpt lat="46.61502" lon="5.57753">
        <ele>543</ele>
        <time>2015-12-10T09:57:02Z</time>
      </trkpt>
      <trkpt lat="46.61498" lon="5.57759">
        <ele>545</ele>
        <time>2015-12-10T09:57:08Z</time>
      </trkpt>
      <trkpt lat="46.61494" lon="5.57787">
        <ele>550</ele>
        <time>2015-12-10T09:57:29Z</time>
      </trkpt>
      <trkpt lat="46.61492" lon="5.57794">
        <ele>550</ele>
        <time>2015-12-10T09:57:35Z</time>
      </trkpt>
      <trkpt lat="46.61489" lon="5.578">
        <ele>551</ele>
        <time>2015-12-10T09:57:40Z</time>
      </trkpt>
      <trkpt lat="46.61487" lon="5.57814">
        <ele>552</ele>
        <time>2015-12-10T09:57:49Z</time>
      </trkpt>
      <trkpt lat="46.61485" lon="5.57821">
        <ele>552</ele>
        <time>2015-12-10T09:57:54Z</time>
      </trkpt>
      <trkpt lat="46.61482" lon="5.57827">
        <ele>552</ele>
        <time>2015-12-10T09:58:00Z</time>
      </trkpt>
      <trkpt lat="46.61456" lon="5.57845">
        <ele>558</ele>
        <time>2015-12-10T09:58:33Z</time>
      </trkpt>
      <trkpt lat="46.61443" lon="5.57857">
        <ele>563</ele>
        <time>2015-12-10T09:58:51Z</time>
      </trkpt>
      <trkpt lat="46.61437" lon="5.57868">
        <ele>563</ele>
        <time>2015-12-10T09:59:02Z</time>
      </trkpt>
      <trkpt lat="46.61436" lon="5.57875">
        <ele>564</ele>
        <time>2015-12-10T09:59:07Z</time>
      </trkpt>
      <trkpt lat="46.61444" lon="5.57924">
        <ele>567</ele>
        <time>2015-12-10T09:59:44Z</time>
      </trkpt>
      <trkpt lat="46.61445" lon="5.57937">
        <ele>569</ele>
        <time>2015-12-10T10:00:02Z</time>
      </trkpt>
      <trkpt lat="46.61446" lon="5.57941">
        <ele>576</ele>
        <time>2015-12-10T10:01:03Z</time>
      </trkpt>
      <trkpt lat="46.61447" lon="5.57945">
        <ele>575</ele>
        <time>2015-12-10T10:01:21Z</time>
      </trkpt>
      <trkpt lat="46.61451" lon="5.57942">
        <ele>575</ele>
        <time>2015-12-10T10:01:25Z</time>
      </trkpt>
      <trkpt lat="46.61465" lon="5.57931">
        <ele>568</ele>
        <time>2015-12-10T10:01:38Z</time>
      </trkpt>
      <trkpt lat="46.61467" lon="5.57933">
        <ele>569</ele>
        <time>2015-12-10T10:02:28Z</time>
      </trkpt>
      <trkpt lat="46.61461" lon="5.57943">
        <ele>568</ele>
        <time>2015-12-10T10:02:34Z</time>
      </trkpt>
      <trkpt lat="46.61457" lon="5.57937">
        <ele>567</ele>
        <time>2015-12-10T10:02:40Z</time>
      </trkpt>
      <trkpt lat="46.61454" lon="5.57937">
        <ele>567</ele>
        <time>2015-12-10T10:02:47Z</time>
      </trkpt>
      <trkpt lat="46.61456" lon="5.57937">
        <ele>570</ele>
        <time>2015-12-10T10:04:26Z</time>
      </trkpt>
      <trkpt lat="46.6146" lon="5.57933">
        <ele>570</ele>
        <time>2015-12-10T10:04:32Z</time>
      </trkpt>
      <trkpt lat="46.61456" lon="5.57934">
        <ele>570</ele>
        <time>2015-12-10T10:04:56Z</time>
      </trkpt>
      <trkpt lat="46.61453" lon="5.57939">
        <ele>570</ele>
        <time>2015-12-10T10:05:01Z</time>
      </trkpt>
      <trkpt lat="46.61444" lon="5.57937">
        <ele>571</ele>
        <time>2015-12-10T10:06:09Z</time>
      </trkpt>
      <trkpt lat="46.61444" lon="5.57948">
        <ele>571</ele>
        <time>2015-12-10T10:06:32Z</time>
      </trkpt>
      <trkpt lat="46.61442" lon="5.57956">
        <ele>571</ele>
        <time>2015-12-10T10:07:40Z</time>
      </trkpt>
      <trkpt lat="46.61438" lon="5.57962">
        <ele>571</ele>
        <time>2015-12-10T10:07:46Z</time>
      </trkpt>
      <trkpt lat="46.61438" lon="5.5797">
        <ele>571</ele>
        <time>2015-12-10T10:07:52Z</time>
      </trkpt>
      <trkpt lat="46.61435" lon="5.57978">
        <ele>571</ele>
        <time>2015-12-10T10:07:56Z</time>
      </trkpt>
      <trkpt lat="46.61428" lon="5.57989">
        <ele>572</ele>
        <time>2015-12-10T10:08:04Z</time>
      </trkpt>
      <trkpt lat="46.61426" lon="5.57997">
        <ele>572</ele>
        <time>2015-12-10T10:08:08Z</time>
      </trkpt>
      <trkpt lat="46.61421" lon="5.58035">
        <ele>571</ele>
        <time>2015-12-10T10:08:24Z</time>
      </trkpt>
      <trkpt lat="46.61423" lon="5.58057">
        <ele>568</ele>
        <time>2015-12-10T10:08:40Z</time>
      </trkpt>
      <trkpt lat="46.61422" lon="5.58064">
        <ele>568</ele>
        <time>2015-12-10T10:08:44Z</time>
      </trkpt>
      <trkpt lat="46.61416" lon="5.58085">
        <ele>566</ele>
        <time>2015-12-10T10:08:54Z</time>
      </trkpt>
      <trkpt lat="46.61411" lon="5.58099">
        <ele>566</ele>
        <time>2015-12-10T10:09:00Z</time>
      </trkpt>
      <trkpt lat="46.61402" lon="5.58117">
        <ele>564</ele>
        <time>2015-12-10T10:09:11Z</time>
      </trkpt>
      <trkpt lat="46.61395" lon="5.58129">
        <ele>565</ele>
        <time>2015-12-10T10:09:18Z</time>
      </trkpt>
      <trkpt lat="46.61383" lon="5.5815">
        <ele>565</ele>
        <time>2015-12-10T10:09:34Z</time>
      </trkpt>
      <trkpt lat="46.61375" lon="5.5816">
        <ele>566</ele>
        <time>2015-12-10T10:09:42Z</time>
      </trkpt>
      <trkpt lat="46.61371" lon="5.58165">
        <ele>566</ele>
        <time>2015-12-10T10:09:47Z</time>
      </trkpt>
      <trkpt lat="46.61368" lon="5.5817">
        <ele>565</ele>
        <time>2015-12-10T10:09:51Z</time>
      </trkpt>
      <trkpt lat="46.61356" lon="5.58204">
        <ele>560</ele>
        <time>2015-12-10T10:10:12Z</time>
      </trkpt>
      <trkpt lat="46.61344" lon="5.58216">
        <ele>560</ele>
        <time>2015-12-10T10:10:25Z</time>
      </trkpt>
      <trkpt lat="46.61334" lon="5.58219">
        <ele>559</ele>
        <time>2015-12-10T10:10:32Z</time>
      </trkpt>
      <trkpt lat="46.61328" lon="5.58233">
        <ele>558</ele>
        <time>2015-12-10T10:10:41Z</time>
      </trkpt>
      <trkpt lat="46.61331" lon="5.58247">
        <ele>558</ele>
        <time>2015-12-10T10:10:49Z</time>
      </trkpt>
      <trkpt lat="46.61344" lon="5.58269">
        <ele>556</ele>
        <time>2015-12-10T10:11:01Z</time>
      </trkpt>
      <trkpt lat="46.61351" lon="5.5827">
        <ele>554</ele>
        <time>2015-12-10T10:11:45Z</time>
      </trkpt>
      <trkpt lat="46.61371" lon="5.58271">
        <ele>554</ele>
        <time>2015-12-10T10:12:04Z</time>
      </trkpt>
      <trkpt lat="46.6138" lon="5.58272">
        <ele>553</ele>
        <time>2015-12-10T10:12:14Z</time>
      </trkpt>
      <trkpt lat="46.6139" lon="5.58272">
        <ele>553</ele>
        <time>2015-12-10T10:12:22Z</time>
      </trkpt>
      <trkpt lat="46.61437" lon="5.58273">
        <ele>556</ele>
        <time>2015-12-10T10:12:58Z</time>
      </trkpt>
      <trkpt lat="46.61447" lon="5.58273">
        <ele>556</ele>
        <time>2015-12-10T10:13:07Z</time>
      </trkpt>
      <trkpt lat="46.61456" lon="5.58273">
        <ele>557</ele>
        <time>2015-12-10T10:13:17Z</time>
      </trkpt>
      <trkpt lat="46.61465" lon="5.58279">
        <ele>558</ele>
        <time>2015-12-10T10:13:23Z</time>
      </trkpt>
      <trkpt lat="46.61468" lon="5.58285">
        <ele>558</ele>
        <time>2015-12-10T10:13:25Z</time>
      </trkpt>
      <trkpt lat="46.6148" lon="5.58341">
        <ele>563</ele>
        <time>2015-12-10T10:14:03Z</time>
      </trkpt>
      <trkpt lat="46.61487" lon="5.58367">
        <ele>564</ele>
        <time>2015-12-10T10:14:20Z</time>
      </trkpt>
      <trkpt lat="46.61489" lon="5.58381">
        <ele>564</ele>
        <time>2015-12-10T10:14:30Z</time>
      </trkpt>
      <trkpt lat="46.61482" lon="5.58424">
        <ele>566</ele>
        <time>2015-12-10T10:14:52Z</time>
      </trkpt>
      <trkpt lat="46.61471" lon="5.58462">
        <ele>567</ele>
        <time>2015-12-10T10:15:14Z</time>
      </trkpt>
      <trkpt lat="46.61469" lon="5.58489">
        <ele>569</ele>
        <time>2015-12-10T10:15:25Z</time>
      </trkpt>
      <trkpt lat="46.61468" lon="5.58496">
        <ele>571</ele>
        <time>2015-12-10T10:15:31Z</time>
      </trkpt>
      <trkpt lat="46.61466" lon="5.5851">
        <ele>572</ele>
        <time>2015-12-10T10:15:44Z</time>
      </trkpt>
      <trkpt lat="46.61467" lon="5.58517">
        <ele>571</ele>
        <time>2015-12-10T10:15:49Z</time>
      </trkpt>
      <trkpt lat="46.61468" lon="5.58524">
        <ele>572</ele>
        <time>2015-12-10T10:15:53Z</time>
      </trkpt>
      <trkpt lat="46.61465" lon="5.58529">
        <ele>572</ele>
        <time>2015-12-10T10:15:58Z</time>
      </trkpt>
      <trkpt lat="46.61464" lon="5.58537">
        <ele>571</ele>
        <time>2015-12-10T10:16:09Z</time>
      </trkpt>
      <trkpt lat="46.61466" lon="5.58573">
        <ele>572</ele>
        <time>2015-12-10T10:16:30Z</time>
      </trkpt>
      <trkpt lat="46.61477" lon="5.58612">
        <ele>572</ele>
        <time>2015-12-10T10:16:54Z</time>
      </trkpt>
      <trkpt lat="46.61495" lon="5.58623">
        <ele>575</ele>
        <time>2015-12-10T10:17:09Z</time>
      </trkpt>
      <trkpt lat="46.61523" lon="5.58624">
        <ele>579</ele>
        <time>2015-12-10T10:17:35Z</time>
      </trkpt>
      <trkpt lat="46.61532" lon="5.58628">
        <ele>579</ele>
        <time>2015-12-10T10:17:42Z</time>
      </trkpt>
      <trkpt lat="46.61538" lon="5.58638">
        <ele>579</ele>
        <time>2015-12-10T10:17:50Z</time>
      </trkpt>
      <trkpt lat="46.61541" lon="5.58651">
        <ele>581</ele>
        <time>2015-12-10T10:17:59Z</time>
      </trkpt>
      <trkpt lat="46.61543" lon="5.58678">
        <ele>582</ele>
        <time>2015-12-10T10:18:13Z</time>
      </trkpt>
      <trkpt lat="46.61548" lon="5.5869">
        <ele>583</ele>
        <time>2015-12-10T10:18:23Z</time>
      </trkpt>
      <trkpt lat="46.61568" lon="5.58737">
        <ele>585</ele>
        <time>2015-12-10T10:18:55Z</time>
      </trkpt>
      <trkpt lat="46.61588" lon="5.58799">
        <ele>585</ele>
        <time>2015-12-10T10:19:28Z</time>
      </trkpt>
      <trkpt lat="46.61595" lon="5.5881">
        <ele>585</ele>
        <time>2015-12-10T10:19:37Z</time>
      </trkpt>
      <trkpt lat="46.61598" lon="5.58823">
        <ele>584</ele>
        <time>2015-12-10T10:19:44Z</time>
      </trkpt>
      <trkpt lat="46.61618" lon="5.58872">
        <ele>586</ele>
        <time>2015-12-10T10:20:16Z</time>
      </trkpt>
      <trkpt lat="46.61623" lon="5.58885">
        <ele>587</ele>
        <time>2015-12-10T10:20:23Z</time>
      </trkpt>
      <trkpt lat="46.61629" lon="5.58896">
        <ele>587</ele>
        <time>2015-12-10T10:20:31Z</time>
      </trkpt>
      <trkpt lat="46.61636" lon="5.58922">
        <ele>589</ele>
        <time>2015-12-10T10:20:45Z</time>
      </trkpt>
      <trkpt lat="46.61635" lon="5.5893">
        <ele>589</ele>
        <time>2015-12-10T10:20:55Z</time>
      </trkpt>
      <trkpt lat="46.6163" lon="5.58931">
        <ele>590</ele>
        <time>2015-12-10T10:21:01Z</time>
      </trkpt>
      <trkpt lat="46.61625" lon="5.58933">
        <ele>590</ele>
        <time>2015-12-10T10:21:07Z</time>
      </trkpt>
      <trkpt lat="46.61617" lon="5.58938">
        <ele>590</ele>
        <time>2015-12-10T10:21:19Z</time>
      </trkpt>
      <trkpt lat="46.61605" lon="5.58952">
        <ele>593</ele>
        <time>2015-12-10T10:21:35Z</time>
      </trkpt>
      <trkpt lat="46.616" lon="5.58957">
        <ele>593</ele>
        <time>2015-12-10T10:21:41Z</time>
      </trkpt>
      <trkpt lat="46.61597" lon="5.58964">
        <ele>594</ele>
        <time>2015-12-10T10:21:45Z</time>
      </trkpt>
      <trkpt lat="46.61596" lon="5.58972">
        <ele>595</ele>
        <time>2015-12-10T10:21:49Z</time>
      </trkpt>
      <trkpt lat="46.61599" lon="5.58986">
        <ele>596</ele>
        <time>2015-12-10T10:22:07Z</time>
      </trkpt>
      <trkpt lat="46.61589" lon="5.58983">
        <ele>596</ele>
        <time>2015-12-10T10:22:16Z</time>
      </trkpt>
      <trkpt lat="46.61571" lon="5.5898">
        <ele>596</ele>
        <time>2015-12-10T10:22:35Z</time>
      </trkpt>
      <trkpt lat="46.61563" lon="5.58981">
        <ele>597</ele>
        <time>2015-12-10T10:22:52Z</time>
      </trkpt>
      <trkpt lat="46.61556" lon="5.58991">
        <ele>597</ele>
        <time>2015-12-10T10:23:07Z</time>
      </trkpt>
      <trkpt lat="46.61554" lon="5.58996">
        <ele>596</ele>
        <time>2015-12-10T10:23:16Z</time>
      </trkpt>
      <trkpt lat="46.61555" lon="5.59005">
        <ele>595</ele>
        <time>2015-12-10T10:23:55Z</time>
      </trkpt>
      <trkpt lat="46.61555" lon="5.59011">
        <ele>596</ele>
        <time>2015-12-10T10:24:00Z</time>
      </trkpt>
      <trkpt lat="46.61554" lon="5.59018">
        <ele>595</ele>
        <time>2015-12-10T10:24:08Z</time>
      </trkpt>
      <trkpt lat="46.61559" lon="5.59028">
        <ele>596</ele>
        <time>2015-12-10T10:24:29Z</time>
      </trkpt>
      <trkpt lat="46.61556" lon="5.59025">
        <ele>598</ele>
        <time>2015-12-10T10:25:00Z</time>
      </trkpt>
      <trkpt lat="46.61552" lon="5.59004">
        <ele>601</ele>
        <time>2015-12-10T10:25:16Z</time>
      </trkpt>
      <trkpt lat="46.61554" lon="5.58997">
        <ele>600</ele>
        <time>2015-12-10T10:25:26Z</time>
      </trkpt>
      <trkpt lat="46.61559" lon="5.58997">
        <ele>600</ele>
        <time>2015-12-10T10:25:31Z</time>
      </trkpt>
      <trkpt lat="46.61563" lon="5.58994">
        <ele>599</ele>
        <time>2015-12-10T10:25:37Z</time>
      </trkpt>
      <trkpt lat="46.61562" lon="5.58987">
        <ele>599</ele>
        <time>2015-12-10T10:25:44Z</time>
      </trkpt>
      <trkpt lat="46.6155" lon="5.58984">
        <ele>598</ele>
        <time>2015-12-10T10:26:00Z</time>
      </trkpt>
      <trkpt lat="46.61536" lon="5.58979">
        <ele>600</ele>
        <time>2015-12-10T10:26:14Z</time>
      </trkpt>
      <trkpt lat="46.61531" lon="5.58977">
        <ele>600</ele>
        <time>2015-12-10T10:26:20Z</time>
      </trkpt>
      <trkpt lat="46.61521" lon="5.58974">
        <ele>600</ele>
        <time>2015-12-10T10:26:29Z</time>
      </trkpt>
      <trkpt lat="46.61516" lon="5.58975">
        <ele>600</ele>
        <time>2015-12-10T10:26:33Z</time>
      </trkpt>
      <trkpt lat="46.61511" lon="5.58978">
        <ele>602</ele>
        <time>2015-12-10T10:26:37Z</time>
      </trkpt>
      <trkpt lat="46.61486" lon="5.58985">
        <ele>604</ele>
        <time>2015-12-10T10:27:00Z</time>
      </trkpt>
      <trkpt lat="46.61481" lon="5.58988">
        <ele>604</ele>
        <time>2015-12-10T10:27:04Z</time>
      </trkpt>
      <trkpt lat="46.61468" lon="5.58998">
        <ele>606</ele>
        <time>2015-12-10T10:27:18Z</time>
      </trkpt>
      <trkpt lat="46.61464" lon="5.59004">
        <ele>606</ele>
        <time>2015-12-10T10:27:25Z</time>
      </trkpt>
      <trkpt lat="46.6146" lon="5.59009">
        <ele>604</ele>
        <time>2015-12-10T10:27:29Z</time>
      </trkpt>
      <trkpt lat="46.61458" lon="5.58999">
        <ele>603</ele>
        <time>2015-12-10T10:27:54Z</time>
      </trkpt>
      <trkpt lat="46.61449" lon="5.59002">
        <ele>603</ele>
        <time>2015-12-10T10:28:05Z</time>
      </trkpt>
      <trkpt lat="46.61423" lon="5.58993">
        <ele>607</ele>
        <time>2015-12-10T10:28:25Z</time>
      </trkpt>
      <trkpt lat="46.61418" lon="5.58992">
        <ele>607</ele>
        <time>2015-12-10T10:28:29Z</time>
      </trkpt>
      <trkpt lat="46.61408" lon="5.58992">
        <ele>607</ele>
        <time>2015-12-10T10:28:37Z</time>
      </trkpt>
      <trkpt lat="46.61398" lon="5.58992">
        <ele>607</ele>
        <time>2015-12-10T10:28:45Z</time>
      </trkpt>
      <trkpt lat="46.61393" lon="5.58993">
        <ele>606</ele>
        <time>2015-12-10T10:28:49Z</time>
      </trkpt>
      <trkpt lat="46.61363" lon="5.58997">
        <ele>607</ele>
        <time>2015-12-10T10:29:12Z</time>
      </trkpt>
      <trkpt lat="46.61331" lon="5.59012">
        <ele>613</ele>
        <time>2015-12-10T10:29:45Z</time>
      </trkpt>
      <trkpt lat="46.61326" lon="5.59015">
        <ele>613</ele>
        <time>2015-12-10T10:29:51Z</time>
      </trkpt>
      <trkpt lat="46.61321" lon="5.59018">
        <ele>614</ele>
        <time>2015-12-10T10:29:56Z</time>
      </trkpt>
      <trkpt lat="46.61317" lon="5.59022">
        <ele>614</ele>
        <time>2015-12-10T10:30:01Z</time>
      </trkpt>
      <trkpt lat="46.61315" lon="5.59028">
        <ele>613</ele>
        <time>2015-12-10T10:30:05Z</time>
      </trkpt>
      <trkpt lat="46.61307" lon="5.59036">
        <ele>612</ele>
        <time>2015-12-10T10:30:16Z</time>
      </trkpt>
      <trkpt lat="46.61302" lon="5.59039">
        <ele>613</ele>
        <time>2015-12-10T10:30:22Z</time>
      </trkpt>
      <trkpt lat="46.61298" lon="5.59043">
        <ele>614</ele>
        <time>2015-12-10T10:30:28Z</time>
      </trkpt>
      <trkpt lat="46.61295" lon="5.5905">
        <ele>615</ele>
        <time>2015-12-10T10:30:34Z</time>
      </trkpt>
      <trkpt lat="46.61292" lon="5.59055">
        <ele>615</ele>
        <time>2015-12-10T10:30:39Z</time>
      </trkpt>
      <trkpt lat="46.61278" lon="5.59058">
        <ele>616</ele>
        <time>2015-12-10T10:30:54Z</time>
      </trkpt>
      <trkpt lat="46.61273" lon="5.59058">
        <ele>616</ele>
        <time>2015-12-10T10:30:58Z</time>
      </trkpt>
      <trkpt lat="46.61268" lon="5.59061">
        <ele>617</ele>
        <time>2015-12-10T10:31:04Z</time>
      </trkpt>
      <trkpt lat="46.61233" lon="5.59066">
        <ele>622</ele>
        <time>2015-12-10T10:31:37Z</time>
      </trkpt>
      <trkpt lat="46.61228" lon="5.59066">
        <ele>623</ele>
        <time>2015-12-10T10:31:42Z</time>
      </trkpt>
      <trkpt lat="46.61224" lon="5.5907">
        <ele>624</ele>
        <time>2015-12-10T10:31:46Z</time>
      </trkpt>
      <trkpt lat="46.61219" lon="5.5907">
        <ele>624</ele>
        <time>2015-12-10T10:31:51Z</time>
      </trkpt>
      <trkpt lat="46.61215" lon="5.59069">
        <ele>623</ele>
        <time>2015-12-10T10:32:02Z</time>
      </trkpt>
      <trkpt lat="46.612" lon="5.5907">
        <ele>623</ele>
        <time>2015-12-10T10:32:19Z</time>
      </trkpt>
      <trkpt lat="46.61195" lon="5.59071">
        <ele>624</ele>
        <time>2015-12-10T10:32:24Z</time>
      </trkpt>
      <trkpt lat="46.61185" lon="5.59071">
        <ele>625</ele>
        <time>2015-12-10T10:32:34Z</time>
      </trkpt>
      <trkpt lat="46.61149" lon="5.59079">
        <ele>630</ele>
        <time>2015-12-10T10:33:09Z</time>
      </trkpt>
      <trkpt lat="46.61134" lon="5.59082">
        <ele>630</ele>
        <time>2015-12-10T10:33:22Z</time>
      </trkpt>
      <trkpt lat="46.61123" lon="5.59083">
        <ele>631</ele>
        <time>2015-12-10T10:33:31Z</time>
      </trkpt>
      <trkpt lat="46.61119" lon="5.59083">
        <ele>631</ele>
        <time>2015-12-10T10:33:35Z</time>
      </trkpt>
      <trkpt lat="46.61114" lon="5.59084">
        <ele>631</ele>
        <time>2015-12-10T10:33:41Z</time>
      </trkpt>
      <trkpt lat="46.61108" lon="5.59085">
        <ele>631</ele>
        <time>2015-12-10T10:33:47Z</time>
      </trkpt>
      <trkpt lat="46.61099" lon="5.59086">
        <ele>631</ele>
        <time>2015-12-10T10:33:57Z</time>
      </trkpt>
      <trkpt lat="46.61084" lon="5.59087">
        <ele>634</ele>
        <time>2015-12-10T10:34:13Z</time>
      </trkpt>
      <trkpt lat="46.6108" lon="5.59091">
        <ele>634</ele>
        <time>2015-12-10T10:34:19Z</time>
      </trkpt>
      <trkpt lat="46.61073" lon="5.59095">
        <ele>635</ele>
        <time>2015-12-10T10:34:34Z</time>
      </trkpt>
      <trkpt lat="46.61068" lon="5.59097">
        <ele>635</ele>
        <time>2015-12-10T10:34:53Z</time>
      </trkpt>
      <trkpt lat="46.61065" lon="5.59094">
        <ele>635</ele>
        <time>2015-12-10T10:35:20Z</time>
      </trkpt>
      <trkpt lat="46.61064" lon="5.59099">
        <ele>634</ele>
        <time>2015-12-10T10:37:42Z</time>
      </trkpt>
      <trkpt lat="46.61066" lon="5.59099">
        <ele>635</ele>
        <time>2015-12-10T10:39:18Z</time>
      </trkpt>
      <trkpt lat="46.61072" lon="5.59099">
        <ele>635</ele>
        <time>2015-12-10T10:39:24Z</time>
      </trkpt>
      <trkpt lat="46.61086" lon="5.59096">
        <ele>639</ele>
        <time>2015-12-10T10:39:42Z</time>
      </trkpt>
      <trkpt lat="46.61086" lon="5.59096">
        <ele>640</ele>
        <time>2015-12-10T10:40:12Z</time>
      </trkpt>
      <trkpt lat="46.61077" lon="5.59093">
        <ele>640</ele>
        <time>2015-12-10T10:40:29Z</time>
      </trkpt>
      <trkpt lat="46.61072" lon="5.59092">
        <ele>640</ele>
        <time>2015-12-10T10:40:36Z</time>
      </trkpt>
      <trkpt lat="46.61067" lon="5.59093">
        <ele>640</ele>
        <time>2015-12-10T10:40:41Z</time>
      </trkpt>
      <trkpt lat="46.61063" lon="5.59096">
        <ele>640</ele>
        <time>2015-12-10T10:41:01Z</time>
      </trkpt>
      <trkpt lat="46.61062" lon="5.59096">
        <ele>643</ele>
        <time>2015-12-10T10:42:32Z</time>
      </trkpt>
      <trkpt lat="46.61068" lon="5.59093">
        <ele>641</ele>
        <time>2015-12-10T10:42:52Z</time>
      </trkpt>
      <trkpt lat="46.61071" lon="5.59093">
        <ele>635</ele>
        <time>2015-12-10T10:44:18Z</time>
      </trkpt>
      <trkpt lat="46.61074" lon="5.59092">
        <ele>636</ele>
        <time>2015-12-10T10:44:57Z</time>
      </trkpt>
      <trkpt lat="46.61078" lon="5.59088">
        <ele>636</ele>
        <time>2015-12-10T10:44:59Z</time>
      </trkpt>
      <trkpt lat="46.61082" lon="5.59088">
        <ele>642</ele>
        <time>2015-12-10T10:45:40Z</time>
      </trkpt>
      <trkpt lat="46.61086" lon="5.5909">
        <ele>643</ele>
        <time>2015-12-10T10:45:48Z</time>
      </trkpt>
      <trkpt lat="46.61093" lon="5.59088">
        <ele>646</ele>
        <time>2015-12-10T10:46:00Z</time>
      </trkpt>
      <trkpt lat="46.61124" lon="5.59082">
        <ele>634</ele>
        <time>2015-12-10T10:46:32Z</time>
      </trkpt>
      <trkpt lat="46.61134" lon="5.59082">
        <ele>633</ele>
        <time>2015-12-10T10:46:40Z</time>
      </trkpt>
      <trkpt lat="46.61149" lon="5.59078">
        <ele>632</ele>
        <time>2015-12-10T10:46:51Z</time>
      </trkpt>
      <trkpt lat="46.61159" lon="5.59074">
        <ele>633</ele>
        <time>2015-12-10T10:47:03Z</time>
      </trkpt>
      <trkpt lat="46.61164" lon="5.59074">
        <ele>632</ele>
        <time>2015-12-10T10:47:10Z</time>
      </trkpt>
      <trkpt lat="46.61179" lon="5.59073">
        <ele>632</ele>
        <time>2015-12-10T10:47:27Z</time>
      </trkpt>
      <trkpt lat="46.61188" lon="5.59071">
        <ele>632</ele>
        <time>2015-12-10T10:47:36Z</time>
      </trkpt>
      <trkpt lat="46.61213" lon="5.59067">
        <ele>627</ele>
        <time>2015-12-10T10:47:58Z</time>
      </trkpt>
      <trkpt lat="46.61217" lon="5.59066">
        <ele>627</ele>
        <time>2015-12-10T10:48:03Z</time>
      </trkpt>
      <trkpt lat="46.61223" lon="5.59064">
        <ele>626</ele>
        <time>2015-12-10T10:48:08Z</time>
      </trkpt>
      <trkpt lat="46.61251" lon="5.59059">
        <ele>624</ele>
        <time>2015-12-10T10:48:34Z</time>
      </trkpt>
      <trkpt lat="46.61291" lon="5.59053">
        <ele>619</ele>
        <time>2015-12-10T10:49:08Z</time>
      </trkpt>
      <trkpt lat="46.61302" lon="5.5904">
        <ele>617</ele>
        <time>2015-12-10T10:49:27Z</time>
      </trkpt>
      <trkpt lat="46.61307" lon="5.59035">
        <ele>617</ele>
        <time>2015-12-10T10:49:35Z</time>
      </trkpt>
      <trkpt lat="46.61341" lon="5.59008">
        <ele>613</ele>
        <time>2015-12-10T10:50:07Z</time>
      </trkpt>
      <trkpt lat="46.61376" lon="5.58999">
        <ele>610</ele>
        <time>2015-12-10T10:50:36Z</time>
      </trkpt>
      <trkpt lat="46.61386" lon="5.58996">
        <ele>608</ele>
        <time>2015-12-10T10:50:46Z</time>
      </trkpt>
      <trkpt lat="46.61396" lon="5.58996">
        <ele>607</ele>
        <time>2015-12-10T10:50:53Z</time>
      </trkpt>
      <trkpt lat="46.61411" lon="5.58991">
        <ele>608</ele>
        <time>2015-12-10T10:51:06Z</time>
      </trkpt>
      <trkpt lat="46.61416" lon="5.58991">
        <ele>607</ele>
        <time>2015-12-10T10:51:11Z</time>
      </trkpt>
      <trkpt lat="46.61441" lon="5.58988">
        <ele>607</ele>
        <time>2015-12-10T10:51:34Z</time>
      </trkpt>
      <trkpt lat="46.61451" lon="5.58986">
        <ele>608</ele>
        <time>2015-12-10T10:51:41Z</time>
      </trkpt>
      <trkpt lat="46.6147" lon="5.58985">
        <ele>609</ele>
        <time>2015-12-10T10:51:59Z</time>
      </trkpt>
      <trkpt lat="46.61485" lon="5.58985">
        <ele>607</ele>
        <time>2015-12-10T10:52:10Z</time>
      </trkpt>
      <trkpt lat="46.61496" lon="5.58981">
        <ele>607</ele>
        <time>2015-12-10T10:52:18Z</time>
      </trkpt>
      <trkpt lat="46.61506" lon="5.58978">
        <ele>606</ele>
        <time>2015-12-10T10:52:28Z</time>
      </trkpt>
      <trkpt lat="46.61512" lon="5.58976">
        <ele>606</ele>
        <time>2015-12-10T10:52:32Z</time>
      </trkpt>
      <trkpt lat="46.61517" lon="5.58978">
        <ele>606</ele>
        <time>2015-12-10T10:52:36Z</time>
      </trkpt>
      <trkpt lat="46.61527" lon="5.58977">
        <ele>606</ele>
        <time>2015-12-10T10:52:42Z</time>
      </trkpt>
      <trkpt lat="46.61531" lon="5.58982">
        <ele>605</ele>
        <time>2015-12-10T10:52:47Z</time>
      </trkpt>
      <trkpt lat="46.61531" lon="5.58989">
        <ele>605</ele>
        <time>2015-12-10T10:52:50Z</time>
      </trkpt>
      <trkpt lat="46.61524" lon="5.59">
        <ele>605</ele>
        <time>2015-12-10T10:52:56Z</time>
      </trkpt>
      <trkpt lat="46.61523" lon="5.59007">
        <ele>604</ele>
        <time>2015-12-10T10:53:01Z</time>
      </trkpt>
      <trkpt lat="46.61528" lon="5.59007">
        <ele>604</ele>
        <time>2015-12-10T10:53:06Z</time>
      </trkpt>
      <trkpt lat="46.61529" lon="5.59009">
        <ele>605</ele>
        <time>2015-12-10T10:53:24Z</time>
      </trkpt>
      <trkpt lat="46.61526" lon="5.59005">
        <ele>606</ele>
        <time>2015-12-10T10:53:35Z</time>
      </trkpt>
      <trkpt lat="46.6153" lon="5.58992">
        <ele>607</ele>
        <time>2015-12-10T10:53:43Z</time>
      </trkpt>
      <trkpt lat="46.61537" lon="5.58983">
        <ele>607</ele>
        <time>2015-12-10T10:53:51Z</time>
      </trkpt>
      <trkpt lat="46.61556" lon="5.58975">
        <ele>607</ele>
        <time>2015-12-10T10:54:04Z</time>
      </trkpt>
      <trkpt lat="46.61576" lon="5.58972">
        <ele>605</ele>
        <time>2015-12-10T10:54:19Z</time>
      </trkpt>
      <trkpt lat="46.61609" lon="5.58948">
        <ele>598</ele>
        <time>2015-12-10T10:54:51Z</time>
      </trkpt>
      <trkpt lat="46.61616" lon="5.5894">
        <ele>597</ele>
        <time>2015-12-10T10:55:02Z</time>
      </trkpt>
      <trkpt lat="46.61628" lon="5.58917">
        <ele>594</ele>
        <time>2015-12-10T10:55:23Z</time>
      </trkpt>
      <trkpt lat="46.61627" lon="5.58904">
        <ele>593</ele>
        <time>2015-12-10T10:55:30Z</time>
      </trkpt>
      <trkpt lat="46.61621" lon="5.58869">
        <ele>589</ele>
        <time>2015-12-10T10:56:02Z</time>
      </trkpt>
      <trkpt lat="46.61618" lon="5.58863">
        <ele>588</ele>
        <time>2015-12-10T10:56:06Z</time>
      </trkpt>
      <trkpt lat="46.61615" lon="5.58857">
        <ele>588</ele>
        <time>2015-12-10T10:56:11Z</time>
      </trkpt>
      <trkpt lat="46.61613" lon="5.58851">
        <ele>589</ele>
        <time>2015-12-10T10:56:15Z</time>
      </trkpt>
      <trkpt lat="46.61611" lon="5.58844">
        <ele>589</ele>
        <time>2015-12-10T10:56:20Z</time>
      </trkpt>
      <trkpt lat="46.61605" lon="5.58831">
        <ele>590</ele>
        <time>2015-12-10T10:56:29Z</time>
      </trkpt>
      <trkpt lat="46.61585" lon="5.5878">
        <ele>589</ele>
        <time>2015-12-10T10:56:58Z</time>
      </trkpt>
      <trkpt lat="46.61565" lon="5.58735">
        <ele>585</ele>
        <time>2015-12-10T10:57:29Z</time>
      </trkpt>
      <trkpt lat="46.61563" lon="5.58727">
        <ele>585</ele>
        <time>2015-12-10T10:57:33Z</time>
      </trkpt>
      <trkpt lat="46.61561" lon="5.5872">
        <ele>585</ele>
        <time>2015-12-10T10:57:37Z</time>
      </trkpt>
      <trkpt lat="46.61557" lon="5.58713">
        <ele>586</ele>
        <time>2015-12-10T10:57:41Z</time>
      </trkpt>
      <trkpt lat="46.61541" lon="5.58666">
        <ele>588</ele>
        <time>2015-12-10T10:58:10Z</time>
      </trkpt>
      <trkpt lat="46.6154" lon="5.58659">
        <ele>588</ele>
        <time>2015-12-10T10:58:14Z</time>
      </trkpt>
      <trkpt lat="46.61539" lon="5.58652">
        <ele>588</ele>
        <time>2015-12-10T10:58:18Z</time>
      </trkpt>
      <trkpt lat="46.61534" lon="5.5863">
        <ele>589</ele>
        <time>2015-12-10T10:58:30Z</time>
      </trkpt>
      <trkpt lat="46.61529" lon="5.58624">
        <ele>588</ele>
        <time>2015-12-10T10:58:35Z</time>
      </trkpt>
      <trkpt lat="46.61514" lon="5.58619">
        <ele>588</ele>
        <time>2015-12-10T10:58:46Z</time>
      </trkpt>
      <trkpt lat="46.61509" lon="5.5862">
        <ele>588</ele>
        <time>2015-12-10T10:58:51Z</time>
      </trkpt>
      <trkpt lat="46.61503" lon="5.58618">
        <ele>588</ele>
        <time>2015-12-10T10:58:55Z</time>
      </trkpt>
      <trkpt lat="46.61477" lon="5.58613">
        <ele>585</ele>
        <time>2015-12-10T10:59:16Z</time>
      </trkpt>
      <trkpt lat="46.6147" lon="5.58602">
        <ele>582</ele>
        <time>2015-12-10T10:59:27Z</time>
      </trkpt>
      <trkpt lat="46.61462" lon="5.58545">
        <ele>576</ele>
        <time>2015-12-10T10:59:59Z</time>
      </trkpt>
      <trkpt lat="46.61464" lon="5.58518">
        <ele>573</ele>
        <time>2015-12-10T11:00:13Z</time>
      </trkpt>
      <trkpt lat="46.6147" lon="5.58491">
        <ele>572</ele>
        <time>2015-12-10T11:00:29Z</time>
      </trkpt>
      <trkpt lat="46.61482" lon="5.58439">
        <ele>571</ele>
        <time>2015-12-10T11:01:01Z</time>
      </trkpt>
      <trkpt lat="46.61495" lon="5.58418">
        <ele>569</ele>
        <time>2015-12-10T11:01:15Z</time>
      </trkpt>
      <trkpt lat="46.61497" lon="5.58405">
        <ele>567</ele>
        <time>2015-12-10T11:01:23Z</time>
      </trkpt>
      <trkpt lat="46.61495" lon="5.58391">
        <ele>566</ele>
        <time>2015-12-10T11:01:30Z</time>
      </trkpt>
      <trkpt lat="46.61491" lon="5.58365">
        <ele>566</ele>
        <time>2015-12-10T11:01:42Z</time>
      </trkpt>
      <trkpt lat="46.6148" lon="5.58297">
        <ele>563</ele>
        <time>2015-12-10T11:02:18Z</time>
      </trkpt>
      <trkpt lat="46.61469" lon="5.58275">
        <ele>562</ele>
        <time>2015-12-10T11:02:32Z</time>
      </trkpt>
      <trkpt lat="46.61421" lon="5.58256">
        <ele>559</ele>
        <time>2015-12-10T11:03:04Z</time>
      </trkpt>
      <trkpt lat="46.61384" lon="5.58256">
        <ele>556</ele>
        <time>2015-12-10T11:03:37Z</time>
      </trkpt>
      <trkpt lat="46.61374" lon="5.5826">
        <ele>555</ele>
        <time>2015-12-10T11:03:45Z</time>
      </trkpt>
      <trkpt lat="46.61355" lon="5.58257">
        <ele>553</ele>
        <time>2015-12-10T11:03:57Z</time>
      </trkpt>
      <trkpt lat="46.61336" lon="5.58249">
        <ele>554</ele>
        <time>2015-12-10T11:04:11Z</time>
      </trkpt>
      <trkpt lat="46.61333" lon="5.58236">
        <ele>552</ele>
        <time>2015-12-10T11:04:23Z</time>
      </trkpt>
      <trkpt lat="46.61335" lon="5.58222">
        <ele>550</ele>
        <time>2015-12-10T11:04:34Z</time>
      </trkpt>
      <trkpt lat="46.61344" lon="5.58221">
        <ele>549</ele>
        <time>2015-12-10T11:04:46Z</time>
      </trkpt>
      <trkpt lat="46.61354" lon="5.58218">
        <ele>550</ele>
        <time>2015-12-10T11:04:59Z</time>
      </trkpt>
      <trkpt lat="46.61362" lon="5.5821">
        <ele>551</ele>
        <time>2015-12-10T11:05:07Z</time>
      </trkpt>
      <trkpt lat="46.61385" lon="5.58166">
        <ele>555</ele>
        <time>2015-12-10T11:05:38Z</time>
      </trkpt>
      <trkpt lat="46.61391" lon="5.58156">
        <ele>556</ele>
        <time>2015-12-10T11:05:45Z</time>
      </trkpt>
      <trkpt lat="46.61399" lon="5.58132">
        <ele>557</ele>
        <time>2015-12-10T11:06:02Z</time>
      </trkpt>
      <trkpt lat="46.61404" lon="5.58117">
        <ele>557</ele>
        <time>2015-12-10T11:06:11Z</time>
      </trkpt>
      <trkpt lat="46.61405" lon="5.5811">
        <ele>557</ele>
        <time>2015-12-10T11:06:16Z</time>
      </trkpt>
      <trkpt lat="46.61408" lon="5.58104">
        <ele>557</ele>
        <time>2015-12-10T11:06:20Z</time>
      </trkpt>
      <trkpt lat="46.61415" lon="5.58085">
        <ele>555</ele>
        <time>2015-12-10T11:06:34Z</time>
      </trkpt>
      <trkpt lat="46.61418" lon="5.5808">
        <ele>555</ele>
        <time>2015-12-10T11:06:38Z</time>
      </trkpt>
      <trkpt lat="46.61421" lon="5.58074">
        <ele>555</ele>
        <time>2015-12-10T11:06:43Z</time>
      </trkpt>
      <trkpt lat="46.61424" lon="5.58038">
        <ele>555</ele>
        <time>2015-12-10T11:07:06Z</time>
      </trkpt>
      <trkpt lat="46.61423" lon="5.58015">
        <ele>556</ele>
        <time>2015-12-10T11:07:20Z</time>
      </trkpt>
      <trkpt lat="46.61436" lon="5.57966">
        <ele>565</ele>
        <time>2015-12-10T11:07:54Z</time>
      </trkpt>
      <trkpt lat="46.61447" lon="5.57953">
        <ele>566</ele>
        <time>2015-12-10T11:08:07Z</time>
      </trkpt>
      <trkpt lat="46.61448" lon="5.57946">
        <ele>566</ele>
        <time>2015-12-10T11:08:10Z</time>
      </trkpt>
      <trkpt lat="46.61449" lon="5.57931">
        <ele>568</ele>
        <time>2015-12-10T11:08:17Z</time>
      </trkpt>
      <trkpt lat="46.61439" lon="5.57877">
        <ele>574</ele>
        <time>2015-12-10T11:08:49Z</time>
      </trkpt>
      <trkpt lat="46.61439" lon="5.5787">
        <ele>574</ele>
        <time>2015-12-10T11:08:55Z</time>
      </trkpt>
      <trkpt lat="46.61446" lon="5.57849">
        <ele>573</ele>
        <time>2015-12-10T11:09:11Z</time>
      </trkpt>
      <trkpt lat="46.6145" lon="5.57845">
        <ele>572</ele>
        <time>2015-12-10T11:09:16Z</time>
      </trkpt>
      <trkpt lat="46.61455" lon="5.57843">
        <ele>571</ele>
        <time>2015-12-10T11:09:21Z</time>
      </trkpt>
      <trkpt lat="46.61481" lon="5.57824">
        <ele>567</ele>
        <time>2015-12-10T11:09:46Z</time>
      </trkpt>
      <trkpt lat="46.61502" lon="5.57774">
        <ele>558</ele>
        <time>2015-12-10T11:10:19Z</time>
      </trkpt>
      <trkpt lat="46.61509" lon="5.57732">
        <ele>551</ele>
        <time>2015-12-10T11:10:51Z</time>
      </trkpt>
      <trkpt lat="46.61519" lon="5.57673">
        <ele>545</ele>
        <time>2015-12-10T11:11:24Z</time>
      </trkpt>
      <trkpt lat="46.61526" lon="5.5761">
        <ele>537</ele>
        <time>2015-12-10T11:11:58Z</time>
      </trkpt>
      <trkpt lat="46.61532" lon="5.57561">
        <ele>529</ele>
        <time>2015-12-10T11:12:28Z</time>
      </trkpt>
      <trkpt lat="46.61534" lon="5.57547">
        <ele>526</ele>
        <time>2015-12-10T11:12:37Z</time>
      </trkpt>
      <trkpt lat="46.61534" lon="5.57539">
        <ele>526</ele>
        <time>2015-12-10T11:12:42Z</time>
      </trkpt>
      <trkpt lat="46.61532" lon="5.57495">
        <ele>525</ele>
        <time>2015-12-10T11:13:11Z</time>
      </trkpt>
      <trkpt lat="46.6153" lon="5.57481">
        <ele>525</ele>
        <time>2015-12-10T11:13:19Z</time>
      </trkpt>
      <trkpt lat="46.61536" lon="5.57441">
        <ele>517</ele>
        <time>2015-12-10T11:13:43Z</time>
      </trkpt>
      <trkpt lat="46.61546" lon="5.57415">
        <ele>515</ele>
        <time>2015-12-10T11:13:59Z</time>
      </trkpt>
      <trkpt lat="46.61547" lon="5.57378">
        <ele>510</ele>
        <time>2015-12-10T11:14:19Z</time>
      </trkpt>
      <trkpt lat="46.61551" lon="5.57362">
        <ele>510</ele>
        <time>2015-12-10T11:14:28Z</time>
      </trkpt>
      <trkpt lat="46.61554" lon="5.57341">
        <ele>508</ele>
        <time>2015-12-10T11:14:40Z</time>
      </trkpt>
      <trkpt lat="46.61555" lon="5.57326">
        <ele>508</ele>
        <time>2015-12-10T11:14:48Z</time>
      </trkpt>
      <trkpt lat="46.61557" lon="5.57311">
        <ele>509</ele>
        <time>2015-12-10T11:14:56Z</time>
      </trkpt>
      <trkpt lat="46.61556" lon="5.57304">
        <ele>509</ele>
        <time>2015-12-10T11:15:00Z</time>
      </trkpt>
      <trkpt lat="46.61557" lon="5.57274">
        <ele>507</ele>
        <time>2015-12-10T11:15:17Z</time>
      </trkpt>
      <trkpt lat="46.61559" lon="5.57246">
        <ele>507</ele>
        <time>2015-12-10T11:15:33Z</time>
      </trkpt>
      <trkpt lat="46.61563" lon="5.57202">
        <ele>505</ele>
        <time>2015-12-10T11:15:58Z</time>
      </trkpt>
      <trkpt lat="46.61563" lon="5.57192">
        <ele>505</ele>
        <time>2015-12-10T11:17:17Z</time>
      </trkpt>
      <trkpt lat="46.61568" lon="5.57178">
        <ele>507</ele>
        <time>2015-12-10T11:17:26Z</time>
      </trkpt>
      <trkpt lat="46.61571" lon="5.57172">
        <ele>507</ele>
        <time>2015-12-10T11:17:29Z</time>
      </trkpt>
      <trkpt lat="46.61574" lon="5.5716">
        <ele>508</ele>
        <time>2015-12-10T11:17:35Z</time>
      </trkpt>
      <trkpt lat="46.61575" lon="5.57152">
        <ele>508</ele>
        <time>2015-12-10T11:17:39Z</time>
      </trkpt>
      <trkpt lat="46.61581" lon="5.57111">
        <ele>507</ele>
        <time>2015-12-10T11:17:59Z</time>
      </trkpt>
      <trkpt lat="46.61582" lon="5.57104">
        <ele>507</ele>
        <time>2015-12-10T11:18:03Z</time>
      </trkpt>
      <trkpt lat="46.61583" lon="5.57096">
        <ele>507</ele>
        <time>2015-12-10T11:18:07Z</time>
      </trkpt>
      <trkpt lat="46.61587" lon="5.57048">
        <ele>503</ele>
        <time>2015-12-10T11:18:31Z</time>
      </trkpt>
      <trkpt lat="46.61587" lon="5.56998">
        <ele>503</ele>
        <time>2015-12-10T11:18:55Z</time>
      </trkpt>
      <trkpt lat="46.61583" lon="5.56967">
        <ele>505</ele>
        <time>2015-12-10T11:19:11Z</time>
      </trkpt>
      <trkpt lat="46.61583" lon="5.56959">
        <ele>504</ele>
        <time>2015-12-10T11:19:15Z</time>
      </trkpt>
      <trkpt lat="46.61582" lon="5.56951">
        <ele>504</ele>
        <time>2015-12-10T11:19:19Z</time>
      </trkpt>
      <trkpt lat="46.61581" lon="5.56929">
        <ele>506</ele>
        <time>2015-12-10T11:19:30Z</time>
      </trkpt>
      <trkpt lat="46.61581" lon="5.5692">
        <ele>506</ele>
        <time>2015-12-10T11:19:34Z</time>
      </trkpt>
      <trkpt lat="46.6158" lon="5.56912">
        <ele>506</ele>
        <time>2015-12-10T11:19:38Z</time>
      </trkpt>
      <trkpt lat="46.6158" lon="5.56905">
        <ele>506</ele>
        <time>2015-12-10T11:19:42Z</time>
      </trkpt>
      <trkpt lat="46.61584" lon="5.56843">
        <ele>510</ele>
        <time>2015-12-10T11:20:14Z</time>
      </trkpt>
      <trkpt lat="46.61584" lon="5.56834">
        <ele>510</ele>
        <time>2015-12-10T11:20:18Z</time>
      </trkpt>
      <trkpt lat="46.61585" lon="5.56826">
        <ele>511</ele>
        <time>2015-12-10T11:20:22Z</time>
      </trkpt>
      <trkpt lat="46.61585" lon="5.5681">
        <ele>510</ele>
        <time>2015-12-10T11:20:30Z</time>
      </trkpt>
      <trkpt lat="46.61592" lon="5.56749">
        <ele>511</ele>
        <time>2015-12-10T11:21:02Z</time>
      </trkpt>
      <trkpt lat="46.61593" lon="5.56741">
        <ele>511</ele>
        <time>2015-12-10T11:21:06Z</time>
      </trkpt>
      <trkpt lat="46.61598" lon="5.56728">
        <ele>512</ele>
        <time>2015-12-10T11:21:14Z</time>
      </trkpt>
      <trkpt lat="46.61602" lon="5.56712">
        <ele>512</ele>
        <time>2015-12-10T11:21:22Z</time>
      </trkpt>
      <trkpt lat="46.61603" lon="5.56705">
        <ele>513</ele>
        <time>2015-12-10T11:21:26Z</time>
      </trkpt>
      <trkpt lat="46.61606" lon="5.56698">
        <ele>513</ele>
        <time>2015-12-10T11:21:30Z</time>
      </trkpt>
      <trkpt lat="46.61609" lon="5.56692">
        <ele>514</ele>
        <time>2015-12-10T11:21:35Z</time>
      </trkpt>
      <trkpt lat="46.61638" lon="5.56635">
        <ele>517</ele>
        <time>2015-12-10T11:22:10Z</time>
      </trkpt>
      <trkpt lat="46.61645" lon="5.56624">
        <ele>517</ele>
        <time>2015-12-10T11:22:17Z</time>
      </trkpt>
      <trkpt lat="46.61672" lon="5.56568">
        <ele>511</ele>
        <time>2015-12-10T11:22:50Z</time>
      </trkpt>
      <trkpt lat="46.61675" lon="5.56553">
        <ele>511</ele>
        <time>2015-12-10T11:22:57Z</time>
      </trkpt>
      <trkpt lat="46.61674" lon="5.56539">
        <ele>512</ele>
        <time>2015-12-10T11:23:04Z</time>
      </trkpt>
      <trkpt lat="46.61657" lon="5.56472">
        <ele>513</ele>
        <time>2015-12-10T11:23:40Z</time>
      </trkpt>
      <trkpt lat="46.61648" lon="5.56404">
        <ele>515</ele>
        <time>2015-12-10T11:24:16Z</time>
      </trkpt>
      <trkpt lat="46.6165" lon="5.56391">
        <ele>514</ele>
        <time>2015-12-10T11:24:24Z</time>
      </trkpt>
      <trkpt lat="46.6165" lon="5.56376">
        <ele>514</ele>
        <time>2015-12-10T11:24:31Z</time>
      </trkpt>
      <trkpt lat="46.61648" lon="5.5632">
        <ele>519</ele>
        <time>2015-12-10T11:24:59Z</time>
      </trkpt>
      <trkpt lat="46.61646" lon="5.56283">
        <ele>519</ele>
        <time>2015-12-10T11:25:17Z</time>
      </trkpt>
      <trkpt lat="46.61624" lon="5.56217">
        <ele>516</ele>
        <time>2015-12-10T11:25:50Z</time>
      </trkpt>
      <trkpt lat="46.61614" lon="5.56184">
        <ele>515</ele>
        <time>2015-12-10T11:26:10Z</time>
      </trkpt>
      <trkpt lat="46.61613" lon="5.56177">
        <ele>515</ele>
        <time>2015-12-10T11:26:14Z</time>
      </trkpt>
      <trkpt lat="46.61611" lon="5.56169">
        <ele>515</ele>
        <time>2015-12-10T11:26:18Z</time>
      </trkpt>
      <trkpt lat="46.6161" lon="5.56162">
        <ele>514</ele>
        <time>2015-12-10T11:26:22Z</time>
      </trkpt>
      <trkpt lat="46.61609" lon="5.56147">
        <ele>514</ele>
        <time>2015-12-10T11:26:29Z</time>
      </trkpt>
      <trkpt lat="46.61605" lon="5.56091">
        <ele>513</ele>
        <time>2015-12-10T11:26:59Z</time>
      </trkpt>
      <trkpt lat="46.61606" lon="5.56076">
        <ele>511</ele>
        <time>2015-12-10T11:27:06Z</time>
      </trkpt>
      <trkpt lat="46.61606" lon="5.56069">
        <ele>511</ele>
        <time>2015-12-10T11:27:09Z</time>
      </trkpt>
      <trkpt lat="46.61606" lon="5.56061">
        <ele>510</ele>
        <time>2015-12-10T11:27:13Z</time>
      </trkpt>
      <trkpt lat="46.61606" lon="5.56046">
        <ele>511</ele>
        <time>2015-12-10T11:27:21Z</time>
      </trkpt>
      <trkpt lat="46.61606" lon="5.55984">
        <ele>509</ele>
        <time>2015-12-10T11:27:52Z</time>
      </trkpt>
      <trkpt lat="46.61606" lon="5.55967">
        <ele>509</ele>
        <time>2015-12-10T11:28:00Z</time>
      </trkpt>
      <trkpt lat="46.61606" lon="5.55959">
        <ele>509</ele>
        <time>2015-12-10T11:28:04Z</time>
      </trkpt>
      <trkpt lat="46.61606" lon="5.5595">
        <ele>508</ele>
        <time>2015-12-10T11:28:08Z</time>
      </trkpt>
      <trkpt lat="46.61606" lon="5.55935">
        <ele>508</ele>
        <time>2015-12-10T11:28:16Z</time>
      </trkpt>
      <trkpt lat="46.61607" lon="5.55912">
        <ele>509</ele>
        <time>2015-12-10T11:28:28Z</time>
      </trkpt>
      <trkpt lat="46.61604" lon="5.55884">
        <ele>507</ele>
        <time>2015-12-10T11:28:44Z</time>
      </trkpt>
      <trkpt lat="46.61579" lon="5.55834">
        <ele>508</ele>
        <time>2015-12-10T11:29:16Z</time>
      </trkpt>
      <trkpt lat="46.61567" lon="5.55821">
        <ele>509</ele>
        <time>2015-12-10T11:29:25Z</time>
      </trkpt>
      <trkpt lat="46.61555" lon="5.55805">
        <ele>508</ele>
        <time>2015-12-10T11:29:37Z</time>
      </trkpt>
      <trkpt lat="46.61546" lon="5.55797">
        <ele>506</ele>
        <time>2015-12-10T11:29:45Z</time>
      </trkpt>
      <trkpt lat="46.61542" lon="5.55791">
        <ele>506</ele>
        <time>2015-12-10T11:29:49Z</time>
      </trkpt>
      <trkpt lat="46.61536" lon="5.55788">
        <ele>506</ele>
        <time>2015-12-10T11:29:54Z</time>
      </trkpt>
      <trkpt lat="46.61524" lon="5.55775">
        <ele>505</ele>
        <time>2015-12-10T11:30:06Z</time>
      </trkpt>
      <trkpt lat="46.61513" lon="5.55758">
        <ele>507</ele>
        <time>2015-12-10T11:30:18Z</time>
      </trkpt>
      <trkpt lat="46.61511" lon="5.55752">
        <ele>507</ele>
        <time>2015-12-10T11:30:22Z</time>
      </trkpt>
      <trkpt lat="46.61512" lon="5.55704">
        <ele>505</ele>
        <time>2015-12-10T11:30:51Z</time>
      </trkpt>
      <trkpt lat="46.61514" lon="5.55697">
        <ele>505</ele>
        <time>2015-12-10T11:30:55Z</time>
      </trkpt>
      <trkpt lat="46.61518" lon="5.5569">
        <ele>505</ele>
        <time>2015-12-10T11:31:00Z</time>
      </trkpt>
      <trkpt lat="46.6152" lon="5.55675">
        <ele>505</ele>
        <time>2015-12-10T11:31:08Z</time>
      </trkpt>
      <trkpt lat="46.61526" lon="5.55655">
        <ele>503</ele>
        <time>2015-12-10T11:31:20Z</time>
      </trkpt>
      <trkpt lat="46.61527" lon="5.55648">
        <ele>503</ele>
        <time>2015-12-10T11:31:23Z</time>
      </trkpt>
      <trkpt lat="46.61529" lon="5.55633">
        <ele>504</ele>
        <time>2015-12-10T11:31:29Z</time>
      </trkpt>
      <trkpt lat="46.6153" lon="5.55625">
        <ele>504</ele>
        <time>2015-12-10T11:31:33Z</time>
      </trkpt>
      <trkpt lat="46.61531" lon="5.55602">
        <ele>502</ele>
        <time>2015-12-10T11:31:46Z</time>
      </trkpt>
      <trkpt lat="46.6153" lon="5.55594">
        <ele>502</ele>
        <time>2015-12-10T11:31:51Z</time>
      </trkpt>
      <trkpt lat="46.6153" lon="5.5558">
        <ele>500</ele>
        <time>2015-12-10T11:31:59Z</time>
      </trkpt>
      <trkpt lat="46.6153" lon="5.55558">
        <ele>500</ele>
        <time>2015-12-10T11:32:11Z</time>
      </trkpt>
      <trkpt lat="46.61532" lon="5.55544">
        <ele>501</ele>
        <time>2015-12-10T11:32:19Z</time>
      </trkpt>
      <trkpt lat="46.61532" lon="5.55537">
        <ele>501</ele>
        <time>2015-12-10T11:32:23Z</time>
      </trkpt>
      <trkpt lat="46.61531" lon="5.55486">
        <ele>499</ele>
        <time>2015-12-10T11:32:51Z</time>
      </trkpt>
      <trkpt lat="46.61532" lon="5.55478">
        <ele>499</ele>
        <time>2015-12-10T11:32:56Z</time>
      </trkpt>
      <trkpt lat="46.6153" lon="5.55465">
        <ele>500</ele>
        <time>2015-12-10T11:33:05Z</time>
      </trkpt>
      <trkpt lat="46.61529" lon="5.55457">
        <ele>500</ele>
        <time>2015-12-10T11:33:09Z</time>
      </trkpt>
      <trkpt lat="46.61528" lon="5.55442">
        <ele>499</ele>
        <time>2015-12-10T11:33:18Z</time>
      </trkpt>
      <trkpt lat="46.61525" lon="5.55429">
        <ele>499</ele>
        <time>2015-12-10T11:33:26Z</time>
      </trkpt>
      <trkpt lat="46.61526" lon="5.55422">
        <ele>500</ele>
        <time>2015-12-10T11:33:30Z</time>
      </trkpt>
      <trkpt lat="46.6153" lon="5.55418">
        <ele>500</ele>
        <time>2015-12-10T11:33:34Z</time>
      </trkpt>
      <trkpt lat="46.61535" lon="5.55418">
        <ele>500</ele>
        <time>2015-12-10T11:33:38Z</time>
      </trkpt>
      <trkpt lat="46.61545" lon="5.55421">
        <ele>500</ele>
        <time>2015-12-10T11:33:46Z</time>
      </trkpt>
      <trkpt lat="46.6155" lon="5.55419">
        <ele>500</ele>
        <time>2015-12-10T11:33:51Z</time>
      </trkpt>
      <trkpt lat="46.61558" lon="5.55415">
        <ele>499</ele>
        <time>2015-12-10T11:34:03Z</time>
      </trkpt>
      <trkpt lat="46.61563" lon="5.55414">
        <ele>499</ele>
        <time>2015-12-10T11:34:11Z</time>
      </trkpt>
      <trkpt lat="46.61567" lon="5.55411">
        <ele>499</ele>
        <time>2015-12-10T11:34:28Z</time>
      </trkpt>
      <trkpt lat="46.61589" lon="5.5541">
        <ele>495</ele>
        <time>2015-12-10T11:35:01Z</time>
      </trkpt>
      <trkpt lat="46.61609" lon="5.55404">
        <ele>493</ele>
        <time>2015-12-10T11:35:18Z</time>
      </trkpt>
      <trkpt lat="46.61613" lon="5.55403">
        <ele>493</ele>
        <time>2015-12-10T11:35:22Z</time>
      </trkpt>
      <trkpt lat="46.61649" lon="5.5541">
        <ele>497</ele>
        <time>2015-12-10T11:35:56Z</time>
      </trkpt>
      <trkpt lat="46.6166" lon="5.5541">
        <ele>497</ele>
        <time>2015-12-10T11:36:04Z</time>
      </trkpt>
      <trkpt lat="46.61662" lon="5.55416">
        <ele>497</ele>
        <time>2015-12-10T11:36:09Z</time>
      </trkpt>
      <trkpt lat="46.61667" lon="5.55418">
        <ele>498</ele>
        <time>2015-12-10T11:36:16Z</time>
      </trkpt>
      <trkpt lat="46.61671" lon="5.55412">
        <ele>498</ele>
        <time>2015-12-10T11:36:22Z</time>
      </trkpt>
      <trkpt lat="46.61673" lon="5.55406">
        <ele>499</ele>
        <time>2015-12-10T11:36:26Z</time>
      </trkpt>
      <trkpt lat="46.61677" lon="5.55401">
        <ele>499</ele>
        <time>2015-12-10T11:36:30Z</time>
      </trkpt>
      <trkpt lat="46.61699" lon="5.55371">
        <ele>503</ele>
        <time>2015-12-10T11:36:56Z</time>
      </trkpt>
      <trkpt lat="46.61708" lon="5.55365">
        <ele>503</ele>
        <time>2015-12-10T11:37:05Z</time>
      </trkpt>
      <trkpt lat="46.61712" lon="5.55363">
        <ele>503</ele>
        <time>2015-12-10T11:37:09Z</time>
      </trkpt>
      <trkpt lat="46.61723" lon="5.55349">
        <ele>504</ele>
        <time>2015-12-10T11:37:24Z</time>
      </trkpt>
      <trkpt lat="46.61731" lon="5.55319">
        <ele>506</ele>
        <time>2015-12-10T11:37:42Z</time>
      </trkpt>
      <trkpt lat="46.6173" lon="5.55306">
        <ele>505</ele>
        <time>2015-12-10T11:37:50Z</time>
      </trkpt>
      <trkpt lat="46.61729" lon="5.55299">
        <ele>504</ele>
        <time>2015-12-10T11:37:55Z</time>
      </trkpt>
      <trkpt lat="46.61722" lon="5.55271">
        <ele>502</ele>
        <time>2015-12-10T11:38:16Z</time>
      </trkpt>
      <trkpt lat="46.61719" lon="5.55257">
        <ele>502</ele>
        <time>2015-12-10T11:38:25Z</time>
      </trkpt>
      <trkpt lat="46.61718" lon="5.55243">
        <ele>501</ele>
        <time>2015-12-10T11:38:36Z</time>
      </trkpt>
      <trkpt lat="46.61717" lon="5.55229">
        <ele>501</ele>
        <time>2015-12-10T11:38:47Z</time>
      </trkpt>
      <trkpt lat="46.61712" lon="5.55188">
        <ele>503</ele>
        <time>2015-12-10T11:39:13Z</time>
      </trkpt>
      <trkpt lat="46.61705" lon="5.55178">
        <ele>503</ele>
        <time>2015-12-10T11:39:21Z</time>
      </trkpt>
      <trkpt lat="46.61704" lon="5.55165">
        <ele>504</ele>
        <time>2015-12-10T11:39:30Z</time>
      </trkpt>
      <trkpt lat="46.61702" lon="5.55138">
        <ele>508</ele>
        <time>2015-12-10T11:39:57Z</time>
      </trkpt>
      <trkpt lat="46.61689" lon="5.55101">
        <ele>510</ele>
        <time>2015-12-10T11:40:30Z</time>
      </trkpt>
      <trkpt lat="46.61688" lon="5.55087">
        <ele>513</ele>
        <time>2015-12-10T11:40:39Z</time>
      </trkpt>
      <trkpt lat="46.61694" lon="5.55076">
        <ele>515</ele>
        <time>2015-12-10T11:40:51Z</time>
      </trkpt>
      <trkpt lat="46.61703" lon="5.55071">
        <ele>518</ele>
        <time>2015-12-10T11:41:03Z</time>
      </trkpt>
      <trkpt lat="46.61739" lon="5.5508">
        <ele>521</ele>
        <time>2015-12-10T11:41:36Z</time>
      </trkpt>
      <trkpt lat="46.61749" lon="5.55083">
        <ele>521</ele>
        <time>2015-12-10T11:41:44Z</time>
      </trkpt>
      <trkpt lat="46.61756" lon="5.5509">
        <ele>523</ele>
        <time>2015-12-10T11:41:57Z</time>
      </trkpt>
      <trkpt lat="46.61759" lon="5.55094">
        <ele>523</ele>
        <time>2015-12-10T11:42:06Z</time>
      </trkpt>
      <trkpt lat="46.61757" lon="5.55098">
        <ele>523</ele>
        <time>2015-12-10T11:42:13Z</time>
      </trkpt>
      <trkpt lat="46.61753" lon="5.55103">
        <ele>523</ele>
        <time>2015-12-10T11:42:19Z</time>
      </trkpt>
      <trkpt lat="46.6175" lon="5.55108">
        <ele>525</ele>
        <time>2015-12-10T11:42:42Z</time>
      </trkpt>
      <trkpt lat="46.61753" lon="5.55109">
        <ele>522</ele>
        <time>2015-12-10T11:46:38Z</time>
      </trkpt>
      <trkpt lat="46.61759" lon="5.55098">
        <ele>527</ele>
        <time>2015-12-10T12:21:43Z</time>
      </trkpt>
      <trkpt lat="46.6174" lon="5.55077">
        <ele>521</ele>
        <time>2015-12-10T12:22:23Z</time>
      </trkpt>
      <trkpt lat="46.61731" lon="5.55078">
        <ele>521</ele>
        <time>2015-12-10T12:22:32Z</time>
      </trkpt>
      <trkpt lat="46.61721" lon="5.55076">
        <ele>520</ele>
        <time>2015-12-10T12:22:43Z</time>
      </trkpt>
      <trkpt lat="46.61708" lon="5.55071">
        <ele>520</ele>
        <time>2015-12-10T12:22:52Z</time>
      </trkpt>
      <trkpt lat="46.61693" lon="5.55074">
        <ele>519</ele>
        <time>2015-12-10T12:23:05Z</time>
      </trkpt>
      <trkpt lat="46.61685" lon="5.55085">
        <ele>518</ele>
        <time>2015-12-10T12:23:14Z</time>
      </trkpt>
      <trkpt lat="46.61684" lon="5.55092">
        <ele>516</ele>
        <time>2015-12-10T12:23:20Z</time>
      </trkpt>
      <trkpt lat="46.61687" lon="5.55113">
        <ele>515</ele>
        <time>2015-12-10T12:23:34Z</time>
      </trkpt>
      <trkpt lat="46.61703" lon="5.55139">
        <ele>511</ele>
        <time>2015-12-10T12:23:59Z</time>
      </trkpt>
      <trkpt lat="46.61702" lon="5.55155">
        <ele>511</ele>
        <time>2015-12-10T12:24:18Z</time>
      </trkpt>
      <trkpt lat="46.61704" lon="5.55169">
        <ele>511</ele>
        <time>2015-12-10T12:24:28Z</time>
      </trkpt>
      <trkpt lat="46.61715" lon="5.55193">
        <ele>507</ele>
        <time>2015-12-10T12:24:47Z</time>
      </trkpt>
      <trkpt lat="46.6172" lon="5.5525">
        <ele>501</ele>
        <time>2015-12-10T12:25:20Z</time>
      </trkpt>
      <trkpt lat="46.6172" lon="5.55258">
        <ele>501</ele>
        <time>2015-12-10T12:25:24Z</time>
      </trkpt>
      <trkpt lat="46.61723" lon="5.55272">
        <ele>499</ele>
        <time>2015-12-10T12:25:34Z</time>
      </trkpt>
      <trkpt lat="46.61728" lon="5.55286">
        <ele>500</ele>
        <time>2015-12-10T12:25:42Z</time>
      </trkpt>
      <trkpt lat="46.61729" lon="5.55293">
        <ele>499</ele>
        <time>2015-12-10T12:25:46Z</time>
      </trkpt>
      <trkpt lat="46.61731" lon="5.553">
        <ele>500</ele>
        <time>2015-12-10T12:25:50Z</time>
      </trkpt>
      <trkpt lat="46.6173" lon="5.55328">
        <ele>502</ele>
        <time>2015-12-10T12:26:06Z</time>
      </trkpt>
      <trkpt lat="46.61727" lon="5.55334">
        <ele>502</ele>
        <time>2015-12-10T12:26:10Z</time>
      </trkpt>
      <trkpt lat="46.61695" lon="5.55367">
        <ele>501</ele>
        <time>2015-12-10T12:26:41Z</time>
      </trkpt>
      <trkpt lat="46.61691" lon="5.55372">
        <ele>501</ele>
        <time>2015-12-10T12:26:45Z</time>
      </trkpt>
      <trkpt lat="46.6167" lon="5.55413">
        <ele>501</ele>
        <time>2015-12-10T12:27:15Z</time>
      </trkpt>
      <trkpt lat="46.61666" lon="5.55418">
        <ele>500</ele>
        <time>2015-12-10T12:27:19Z</time>
      </trkpt>
      <trkpt lat="46.61661" lon="5.55422">
        <ele>500</ele>
        <time>2015-12-10T12:27:24Z</time>
      </trkpt>
      <trkpt lat="46.61656" lon="5.55421">
        <ele>500</ele>
        <time>2015-12-10T12:27:29Z</time>
      </trkpt>
      <trkpt lat="46.61646" lon="5.55415">
        <ele>500</ele>
        <time>2015-12-10T12:27:40Z</time>
      </trkpt>
      <trkpt lat="46.61641" lon="5.55411">
        <ele>500</ele>
        <time>2015-12-10T12:27:44Z</time>
      </trkpt>
      <trkpt lat="46.61631" lon="5.55404">
        <ele>498</ele>
        <time>2015-12-10T12:27:53Z</time>
      </trkpt>
      <trkpt lat="46.61628" lon="5.55408">
        <ele>496</ele>
        <time>2015-12-10T12:28:00Z</time>
      </trkpt>
      <trkpt lat="46.6163" lon="5.55414">
        <ele>496</ele>
        <time>2015-12-10T12:28:03Z</time>
      </trkpt>
      <trkpt lat="46.61634" lon="5.55418">
        <ele>494</ele>
        <time>2015-12-10T12:28:06Z</time>
      </trkpt>
      <trkpt lat="46.61639" lon="5.55421">
        <ele>494</ele>
        <time>2015-12-10T12:28:10Z</time>
      </trkpt>
      <trkpt lat="46.61644" lon="5.55424">
        <ele>494</ele>
        <time>2015-12-10T12:28:14Z</time>
      </trkpt>
      <trkpt lat="46.61668" lon="5.55439">
        <ele>496</ele>
        <time>2015-12-10T12:28:32Z</time>
      </trkpt>
      <trkpt lat="46.61678" lon="5.55445">
        <ele>495</ele>
        <time>2015-12-10T12:28:41Z</time>
      </trkpt>
      <trkpt lat="46.61683" lon="5.55449">
        <ele>495</ele>
        <time>2015-12-10T12:28:45Z</time>
      </trkpt>
      <trkpt lat="46.61687" lon="5.55453">
        <ele>495</ele>
        <time>2015-12-10T12:28:49Z</time>
      </trkpt>
      <trkpt lat="46.6169" lon="5.55459">
        <ele>494</ele>
        <time>2015-12-10T12:28:54Z</time>
      </trkpt>
      <trkpt lat="46.6169" lon="5.55474">
        <ele>495</ele>
        <time>2015-12-10T12:29:03Z</time>
      </trkpt>
      <trkpt lat="46.61687" lon="5.55486">
        <ele>495</ele>
        <time>2015-12-10T12:29:09Z</time>
      </trkpt>
      <trkpt lat="46.61682" lon="5.55541">
        <ele>491</ele>
        <time>2015-12-10T12:29:39Z</time>
      </trkpt>
      <trkpt lat="46.61681" lon="5.55611">
        <ele>489</ele>
        <time>2015-12-10T12:30:15Z</time>
      </trkpt>
      <trkpt lat="46.61685" lon="5.55638">
        <ele>489</ele>
        <time>2015-12-10T12:30:30Z</time>
      </trkpt>
      <trkpt lat="46.61688" lon="5.55652">
        <ele>490</ele>
        <time>2015-12-10T12:30:37Z</time>
      </trkpt>
      <trkpt lat="46.61694" lon="5.55664">
        <ele>491</ele>
        <time>2015-12-10T12:30:45Z</time>
      </trkpt>
      <trkpt lat="46.61711" lon="5.55676">
        <ele>492</ele>
        <time>2015-12-10T12:31:02Z</time>
      </trkpt>
      <trkpt lat="46.61721" lon="5.55681">
        <ele>492</ele>
        <time>2015-12-10T12:31:20Z</time>
      </trkpt>
      <trkpt lat="46.61741" lon="5.55683">
        <ele>493</ele>
        <time>2015-12-10T12:31:36Z</time>
      </trkpt>
      <trkpt lat="46.61748" lon="5.55682">
        <ele>493</ele>
        <time>2015-12-10T12:31:43Z</time>
      </trkpt>
      <trkpt lat="46.61754" lon="5.5568">
        <ele>494</ele>
        <time>2015-12-10T12:31:52Z</time>
      </trkpt>
      <trkpt lat="46.61759" lon="5.55678">
        <ele>493</ele>
        <time>2015-12-10T12:31:56Z</time>
      </trkpt>
      <trkpt lat="46.61768" lon="5.55674">
        <ele>494</ele>
        <time>2015-12-10T12:32:04Z</time>
      </trkpt>
      <trkpt lat="46.61773" lon="5.55671">
        <ele>494</ele>
        <time>2015-12-10T12:32:11Z</time>
      </trkpt>
      <trkpt lat="46.61801" lon="5.55642">
        <ele>488</ele>
        <time>2015-12-10T12:32:42Z</time>
      </trkpt>
      <trkpt lat="46.61808" lon="5.55632">
        <ele>487</ele>
        <time>2015-12-10T12:32:51Z</time>
      </trkpt>
      <trkpt lat="46.61812" lon="5.55628">
        <ele>487</ele>
        <time>2015-12-10T12:32:57Z</time>
      </trkpt>
      <trkpt lat="46.61817" lon="5.55625">
        <ele>488</ele>
        <time>2015-12-10T12:33:02Z</time>
      </trkpt>
      <trkpt lat="46.61821" lon="5.55621">
        <ele>487</ele>
        <time>2015-12-10T12:33:07Z</time>
      </trkpt>
      <trkpt lat="46.61826" lon="5.55622">
        <ele>488</ele>
        <time>2015-12-10T12:33:12Z</time>
      </trkpt>
      <trkpt lat="46.61854" lon="5.5562">
        <ele>486</ele>
        <time>2015-12-10T12:33:43Z</time>
      </trkpt>
      <trkpt lat="46.61859" lon="5.55618">
        <ele>485</ele>
        <time>2015-12-10T12:33:48Z</time>
      </trkpt>
      <trkpt lat="46.61869" lon="5.55617">
        <ele>485</ele>
        <time>2015-12-10T12:33:56Z</time>
      </trkpt>
      <trkpt lat="46.61887" lon="5.55613">
        <ele>486</ele>
        <time>2015-12-10T12:34:11Z</time>
      </trkpt>
      <trkpt lat="46.61892" lon="5.55613">
        <ele>487</ele>
        <time>2015-12-10T12:34:18Z</time>
      </trkpt>
      <trkpt lat="46.61897" lon="5.55612">
        <ele>488</ele>
        <time>2015-12-10T12:34:23Z</time>
      </trkpt>
      <trkpt lat="46.61902" lon="5.55612">
        <ele>487</ele>
        <time>2015-12-10T12:34:27Z</time>
      </trkpt>
      <trkpt lat="46.61912" lon="5.5561">
        <ele>486</ele>
        <time>2015-12-10T12:34:35Z</time>
      </trkpt>
      <trkpt lat="46.61915" lon="5.55608">
        <ele>486</ele>
        <time>2015-12-10T12:34:42Z</time>
      </trkpt>
      <trkpt lat="46.61915" lon="5.55603">
        <ele>486</ele>
        <time>2015-12-10T12:34:57Z</time>
      </trkpt>
      <trkpt lat="46.61919" lon="5.55599">
        <ele>487</ele>
        <time>2015-12-10T12:35:44Z</time>
      </trkpt>
      <trkpt lat="46.61922" lon="5.556">
        <ele>487</ele>
        <time>2015-12-10T12:35:52Z</time>
      </trkpt>
      <trkpt lat="46.61932" lon="5.55598">
        <ele>488</ele>
        <time>2015-12-10T12:36:04Z</time>
      </trkpt>
      <trkpt lat="46.61972" lon="5.55605">
        <ele>487</ele>
        <time>2015-12-10T12:36:38Z</time>
      </trkpt>
      <trkpt lat="46.61977" lon="5.55606">
        <ele>487</ele>
        <time>2015-12-10T12:36:42Z</time>
      </trkpt>
      <trkpt lat="46.61981" lon="5.55607">
        <ele>487</ele>
        <time>2015-12-10T12:36:46Z</time>
      </trkpt>
      <trkpt lat="46.61996" lon="5.5561">
        <ele>488</ele>
        <time>2015-12-10T12:37:00Z</time>
      </trkpt>
      <trkpt lat="46.6203" lon="5.55621">
        <ele>486</ele>
        <time>2015-12-10T12:37:56Z</time>
      </trkpt>
      <trkpt lat="46.62035" lon="5.55624">
        <ele>486</ele>
        <time>2015-12-10T12:38:00Z</time>
      </trkpt>
      <trkpt lat="46.62044" lon="5.55628">
        <ele>486</ele>
        <time>2015-12-10T12:38:08Z</time>
      </trkpt>
      <trkpt lat="46.62048" lon="5.55631">
        <ele>486</ele>
        <time>2015-12-10T12:38:12Z</time>
      </trkpt>
      <trkpt lat="46.62053" lon="5.55634">
        <ele>486</ele>
        <time>2015-12-10T12:38:17Z</time>
      </trkpt>
      <trkpt lat="46.62068" lon="5.5564">
        <ele>485</ele>
        <time>2015-12-10T12:38:30Z</time>
      </trkpt>
      <trkpt lat="46.62073" lon="5.55641">
        <ele>486</ele>
        <time>2015-12-10T12:38:34Z</time>
      </trkpt>
      <trkpt lat="46.62084" lon="5.55643">
        <ele>485</ele>
        <time>2015-12-10T12:38:43Z</time>
      </trkpt>
      <trkpt lat="46.62098" lon="5.55647">
        <ele>485</ele>
        <time>2015-12-10T12:38:55Z</time>
      </trkpt>
      <trkpt lat="46.62117" lon="5.55651">
        <ele>487</ele>
        <time>2015-12-10T12:39:11Z</time>
      </trkpt>
      <trkpt lat="46.62122" lon="5.55653">
        <ele>487</ele>
        <time>2015-12-10T12:39:15Z</time>
      </trkpt>
      <trkpt lat="46.62136" lon="5.55657">
        <ele>486</ele>
        <time>2015-12-10T12:39:27Z</time>
      </trkpt>
      <trkpt lat="46.62141" lon="5.55657">
        <ele>486</ele>
        <time>2015-12-10T12:39:31Z</time>
      </trkpt>
      <trkpt lat="46.62183" lon="5.55667">
        <ele>486</ele>
        <time>2015-12-10T12:40:05Z</time>
      </trkpt>
      <trkpt lat="46.62224" lon="5.55675">
        <ele>487</ele>
        <time>2015-12-10T12:40:37Z</time>
      </trkpt>
      <trkpt lat="46.6223" lon="5.55678">
        <ele>487</ele>
        <time>2015-12-10T12:40:41Z</time>
      </trkpt>
      <trkpt lat="46.6224" lon="5.55683">
        <ele>487</ele>
        <time>2015-12-10T12:40:49Z</time>
      </trkpt>
      <trkpt lat="46.62246" lon="5.55685">
        <ele>487</ele>
        <time>2015-12-10T12:40:53Z</time>
      </trkpt>
      <trkpt lat="46.62267" lon="5.55693">
        <ele>486</ele>
        <time>2015-12-10T12:41:09Z</time>
      </trkpt>
      <trkpt lat="46.62296" lon="5.55704">
        <ele>487</ele>
        <time>2015-12-10T12:41:33Z</time>
      </trkpt>
      <trkpt lat="46.62311" lon="5.55708">
        <ele>486</ele>
        <time>2015-12-10T12:41:45Z</time>
      </trkpt>
      <trkpt lat="46.62316" lon="5.55707">
        <ele>486</ele>
        <time>2015-12-10T12:41:49Z</time>
      </trkpt>
      <trkpt lat="46.62326" lon="5.55705">
        <ele>485</ele>
        <time>2015-12-10T12:41:57Z</time>
      </trkpt>
      <trkpt lat="46.62368" lon="5.55695">
        <ele>487</ele>
        <time>2015-12-10T12:42:29Z</time>
      </trkpt>
      <trkpt lat="46.62374" lon="5.55691">
        <ele>487</ele>
        <time>2015-12-10T12:42:33Z</time>
      </trkpt>
      <trkpt lat="46.62384" lon="5.55692">
        <ele>487</ele>
        <time>2015-12-10T12:42:41Z</time>
      </trkpt>
      <trkpt lat="46.62411" lon="5.55687">
        <ele>486</ele>
        <time>2015-12-10T12:43:01Z</time>
      </trkpt>
      <trkpt lat="46.62435" lon="5.55698">
        <ele>482</ele>
        <time>2015-12-10T12:43:21Z</time>
      </trkpt>
      <trkpt lat="46.62445" lon="5.55704">
        <ele>481</ele>
        <time>2015-12-10T12:43:29Z</time>
      </trkpt>
      <trkpt lat="46.6245" lon="5.55707">
        <ele>482</ele>
        <time>2015-12-10T12:43:33Z</time>
      </trkpt>
      <trkpt lat="46.62454" lon="5.55711">
        <ele>481</ele>
        <time>2015-12-10T12:43:37Z</time>
      </trkpt>
      <trkpt lat="46.62459" lon="5.55715">
        <ele>482</ele>
        <time>2015-12-10T12:43:42Z</time>
      </trkpt>
      <trkpt lat="46.62468" lon="5.55719">
        <ele>482</ele>
        <time>2015-12-10T12:43:50Z</time>
      </trkpt>
      <trkpt lat="46.62477" lon="5.55724">
        <ele>482</ele>
        <time>2015-12-10T12:43:58Z</time>
      </trkpt>
      <trkpt lat="46.62482" lon="5.55727">
        <ele>482</ele>
        <time>2015-12-10T12:44:02Z</time>
      </trkpt>
      <trkpt lat="46.62486" lon="5.55731">
        <ele>483</ele>
        <time>2015-12-10T12:44:06Z</time>
      </trkpt>
      <trkpt lat="46.62491" lon="5.55734">
        <ele>483</ele>
        <time>2015-12-10T12:44:10Z</time>
      </trkpt>
      <trkpt lat="46.62495" lon="5.55737">
        <ele>482</ele>
        <time>2015-12-10T12:44:14Z</time>
      </trkpt>
      <trkpt lat="46.62531" lon="5.55765">
        <ele>482</ele>
        <time>2015-12-10T12:44:46Z</time>
      </trkpt>
      <trkpt lat="46.62536" lon="5.55768">
        <ele>482</ele>
        <time>2015-12-10T12:44:50Z</time>
      </trkpt>
      <trkpt lat="46.62556" lon="5.55783">
        <ele>482</ele>
        <time>2015-12-10T12:45:06Z</time>
      </trkpt>
      <trkpt lat="46.62598" lon="5.55788">
        <ele>483</ele>
        <time>2015-12-10T12:45:38Z</time>
      </trkpt>
      <trkpt lat="46.62608" lon="5.55789">
        <ele>483</ele>
        <time>2015-12-10T12:45:46Z</time>
      </trkpt>
      <trkpt lat="46.62614" lon="5.5579">
        <ele>483</ele>
        <time>2015-12-10T12:45:50Z</time>
      </trkpt>
      <trkpt lat="46.62623" lon="5.55793">
        <ele>484</ele>
        <time>2015-12-10T12:45:58Z</time>
      </trkpt>
      <trkpt lat="46.62629" lon="5.55799">
        <ele>484</ele>
        <time>2015-12-10T12:46:03Z</time>
      </trkpt>
      <trkpt lat="46.62665" lon="5.55808">
        <ele>485</ele>
        <time>2015-12-10T12:46:32Z</time>
      </trkpt>
      <trkpt lat="46.62681" lon="5.55813">
        <ele>484</ele>
        <time>2015-12-10T12:46:44Z</time>
      </trkpt>
      <trkpt lat="46.62685" lon="5.55816">
        <ele>484</ele>
        <time>2015-12-10T12:46:48Z</time>
      </trkpt>
      <trkpt lat="46.62694" lon="5.55824">
        <ele>485</ele>
        <time>2015-12-10T12:46:56Z</time>
      </trkpt>
      <trkpt lat="46.62703" lon="5.55831">
        <ele>485</ele>
        <time>2015-12-10T12:47:04Z</time>
      </trkpt>
      <trkpt lat="46.62714" lon="5.55833">
        <ele>485</ele>
        <time>2015-12-10T12:47:12Z</time>
      </trkpt>
      <trkpt lat="46.62751" lon="5.55806">
        <ele>483</ele>
        <time>2015-12-10T12:47:43Z</time>
      </trkpt>
      <trkpt lat="46.62756" lon="5.55802">
        <ele>483</ele>
        <time>2015-12-10T12:47:47Z</time>
      </trkpt>
      <trkpt lat="46.62782" lon="5.55775">
        <ele>482</ele>
        <time>2015-12-10T12:48:12Z</time>
      </trkpt>
      <trkpt lat="46.62787" lon="5.55771">
        <ele>483</ele>
        <time>2015-12-10T12:48:17Z</time>
      </trkpt>
      <trkpt lat="46.62793" lon="5.55769">
        <ele>483</ele>
        <time>2015-12-10T12:48:21Z</time>
      </trkpt>
      <trkpt lat="46.62797" lon="5.55767">
        <ele>483</ele>
        <time>2015-12-10T12:48:25Z</time>
      </trkpt>
      <trkpt lat="46.62803" lon="5.55765">
        <ele>484</ele>
        <time>2015-12-10T12:48:29Z</time>
      </trkpt>
      <trkpt lat="46.62824" lon="5.55752">
        <ele>483</ele>
        <time>2015-12-10T12:48:45Z</time>
      </trkpt>
      <trkpt lat="46.62849" lon="5.5574">
        <ele>485</ele>
        <time>2015-12-10T12:49:05Z</time>
      </trkpt>
      <trkpt lat="46.62853" lon="5.55737">
        <ele>485</ele>
        <time>2015-12-10T12:49:09Z</time>
      </trkpt>
      <trkpt lat="46.62858" lon="5.55734">
        <ele>485</ele>
        <time>2015-12-10T12:49:13Z</time>
      </trkpt>
      <trkpt lat="46.62863" lon="5.5573">
        <ele>485</ele>
        <time>2015-12-10T12:49:17Z</time>
      </trkpt>
      <trkpt lat="46.62868" lon="5.55727">
        <ele>485</ele>
        <time>2015-12-10T12:49:21Z</time>
      </trkpt>
      <trkpt lat="46.62878" lon="5.55722">
        <ele>485</ele>
        <time>2015-12-10T12:49:29Z</time>
      </trkpt>
      <trkpt lat="46.62882" lon="5.5572">
        <ele>485</ele>
        <time>2015-12-10T12:49:33Z</time>
      </trkpt>
      <trkpt lat="46.62892" lon="5.55712">
        <ele>486</ele>
        <time>2015-12-10T12:49:41Z</time>
      </trkpt>
      <trkpt lat="46.62925" lon="5.55695">
        <ele>484</ele>
        <time>2015-12-10T12:50:17Z</time>
      </trkpt>
      <trkpt lat="46.62931" lon="5.55693">
        <ele>484</ele>
        <time>2015-12-10T12:50:36Z</time>
      </trkpt>
      <trkpt lat="46.62935" lon="5.55692">
        <ele>485</ele>
        <time>2015-12-10T12:50:45Z</time>
      </trkpt>
      <trkpt lat="46.62939" lon="5.55687">
        <ele>485</ele>
        <time>2015-12-10T12:50:50Z</time>
      </trkpt>
      <trkpt lat="46.62949" lon="5.55671">
        <ele>482</ele>
        <time>2015-12-10T12:51:03Z</time>
      </trkpt>
      <trkpt lat="46.62956" lon="5.5566">
        <ele>481</ele>
        <time>2015-12-10T12:51:11Z</time>
      </trkpt>
      <trkpt lat="46.62961" lon="5.55657">
        <ele>481</ele>
        <time>2015-12-10T12:51:15Z</time>
      </trkpt>
      <trkpt lat="46.62993" lon="5.55607">
        <ele>478</ele>
        <time>2015-12-10T12:51:49Z</time>
      </trkpt>
      <trkpt lat="46.63" lon="5.55599">
        <ele>477</ele>
        <time>2015-12-10T12:51:56Z</time>
      </trkpt>
      <trkpt lat="46.63004" lon="5.55586">
        <ele>473</ele>
        <time>2015-12-10T12:52:04Z</time>
      </trkpt>
      <trkpt lat="46.63005" lon="5.55558">
        <ele>471</ele>
        <time>2015-12-10T12:52:22Z</time>
      </trkpt>
      <trkpt lat="46.63007" lon="5.55545">
        <ele>471</ele>
        <time>2015-12-10T12:52:34Z</time>
      </trkpt>
      <trkpt lat="46.63008" lon="5.55547">
        <ele>470</ele>
        <time>2015-12-10T12:53:11Z</time>
      </trkpt>
      <trkpt lat="46.63011" lon="5.55541">
        <ele>470</ele>
        <time>2015-12-10T12:53:31Z</time>
      </trkpt>
      <trkpt lat="46.63017" lon="5.55511">
        <ele>464</ele>
        <time>2015-12-10T12:53:47Z</time>
      </trkpt>
      <trkpt lat="46.6302" lon="5.55496">
        <ele>464</ele>
        <time>2015-12-10T12:53:55Z</time>
      </trkpt>
      <trkpt lat="46.63028" lon="5.55438">
        <ele>466</ele>
        <time>2015-12-10T12:54:27Z</time>
      </trkpt>
      <trkpt lat="46.63034" lon="5.55427">
        <ele>466</ele>
        <time>2015-12-10T12:54:35Z</time>
      </trkpt>
      <trkpt lat="46.63039" lon="5.55424">
        <ele>467</ele>
        <time>2015-12-10T12:54:39Z</time>
      </trkpt>
      <trkpt lat="46.63048" lon="5.55423">
        <ele>467</ele>
        <time>2015-12-10T12:54:47Z</time>
      </trkpt>
      <trkpt lat="46.63057" lon="5.55419">
        <ele>466</ele>
        <time>2015-12-10T12:54:55Z</time>
      </trkpt>
      <trkpt lat="46.63062" lon="5.55421">
        <ele>466</ele>
        <time>2015-12-10T12:54:59Z</time>
      </trkpt>
      <trkpt lat="46.63072" lon="5.55428">
        <ele>465</ele>
        <time>2015-12-10T12:55:08Z</time>
      </trkpt>
      <trkpt lat="46.63096" lon="5.55429">
        <ele>462</ele>
        <time>2015-12-10T12:55:38Z</time>
      </trkpt>
      <trkpt lat="46.63105" lon="5.55428">
        <ele>460</ele>
        <time>2015-12-10T12:55:44Z</time>
      </trkpt>
      <trkpt lat="46.63117" lon="5.55426">
        <ele>460</ele>
        <time>2015-12-10T12:55:49Z</time>
      </trkpt>
      <trkpt lat="46.63124" lon="5.55419">
        <ele>458</ele>
        <time>2015-12-10T12:55:57Z</time>
      </trkpt>
      <trkpt lat="46.63139" lon="5.55401">
        <ele>458</ele>
        <time>2015-12-10T12:56:13Z</time>
      </trkpt>
      <trkpt lat="46.63148" lon="5.554">
        <ele>457</ele>
        <time>2015-12-10T12:56:20Z</time>
      </trkpt>
      <trkpt lat="46.63189" lon="5.55433">
        <ele>451</ele>
        <time>2015-12-10T12:56:55Z</time>
      </trkpt>
      <trkpt lat="46.63217" lon="5.55441">
        <ele>448</ele>
        <time>2015-12-10T12:57:21Z</time>
      </trkpt>
      <trkpt lat="46.63249" lon="5.5545">
        <ele>440</ele>
        <time>2015-12-10T12:57:50Z</time>
      </trkpt>
      <trkpt lat="46.63258" lon="5.55452">
        <ele>440</ele>
        <time>2015-12-10T12:57:56Z</time>
      </trkpt>
      <trkpt lat="46.6329" lon="5.55474">
        <ele>435</ele>
        <time>2015-12-10T12:58:28Z</time>
      </trkpt>
      <trkpt lat="46.63293" lon="5.55468">
        <ele>434</ele>
        <time>2015-12-10T12:58:33Z</time>
      </trkpt>
      <trkpt lat="46.63292" lon="5.5546">
        <ele>433</ele>
        <time>2015-12-10T12:58:37Z</time>
      </trkpt>
      <trkpt lat="46.63276" lon="5.55407">
        <ele>429</ele>
        <time>2015-12-10T12:59:09Z</time>
      </trkpt>
      <trkpt lat="46.63268" lon="5.55351">
        <ele>424</ele>
        <time>2015-12-10T12:59:43Z</time>
      </trkpt>
      <trkpt lat="46.63255" lon="5.55329">
        <ele>422</ele>
        <time>2015-12-10T13:00:00Z</time>
      </trkpt>
      <trkpt lat="46.63255" lon="5.55321">
        <ele>422</ele>
        <time>2015-12-10T13:00:05Z</time>
      </trkpt>
      <trkpt lat="46.6326" lon="5.55318">
        <ele>422</ele>
        <time>2015-12-10T13:00:09Z</time>
      </trkpt>
      <trkpt lat="46.63263" lon="5.55323">
        <ele>422</ele>
        <time>2015-12-10T13:00:15Z</time>
      </trkpt>
      <trkpt lat="46.63295" lon="5.55346">
        <ele>419</ele>
        <time>2015-12-10T13:00:46Z</time>
      </trkpt>
      <trkpt lat="46.63312" lon="5.55348">
        <ele>420</ele>
        <time>2015-12-10T13:00:57Z</time>
      </trkpt>
      <trkpt lat="46.63327" lon="5.55345">
        <ele>419</ele>
        <time>2015-12-10T13:01:09Z</time>
      </trkpt>
      <trkpt lat="46.63336" lon="5.55345">
        <ele>418</ele>
        <time>2015-12-10T13:01:18Z</time>
      </trkpt>
      <trkpt lat="46.63345" lon="5.55343">
        <ele>416</ele>
        <time>2015-12-10T13:01:25Z</time>
      </trkpt>
      <trkpt lat="46.63368" lon="5.5533">
        <ele>413</ele>
        <time>2015-12-10T13:01:43Z</time>
      </trkpt>
      <trkpt lat="46.63387" lon="5.55287">
        <ele>413</ele>
        <time>2015-12-10T13:02:11Z</time>
      </trkpt>
      <trkpt lat="46.63389" lon="5.55279">
        <ele>412</ele>
        <time>2015-12-10T13:02:15Z</time>
      </trkpt>
      <trkpt lat="46.634" lon="5.55255">
        <ele>412</ele>
        <time>2015-12-10T13:02:31Z</time>
      </trkpt>
      <trkpt lat="46.63403" lon="5.5525">
        <ele>412</ele>
        <time>2015-12-10T13:02:35Z</time>
      </trkpt>
      <trkpt lat="46.63434" lon="5.55209">
        <ele>411</ele>
        <time>2015-12-10T13:03:07Z</time>
      </trkpt>
      <trkpt lat="46.6344" lon="5.55199">
        <ele>411</ele>
        <time>2015-12-10T13:03:15Z</time>
      </trkpt>
      <trkpt lat="46.63461" lon="5.55177">
        <ele>409</ele>
        <time>2015-12-10T13:03:35Z</time>
      </trkpt>
      <trkpt lat="46.63465" lon="5.55172">
        <ele>409</ele>
        <time>2015-12-10T13:03:39Z</time>
      </trkpt>
      <trkpt lat="46.63474" lon="5.55165">
        <ele>410</ele>
        <time>2015-12-10T13:03:47Z</time>
      </trkpt>
      <trkpt lat="46.63479" lon="5.55163">
        <ele>410</ele>
        <time>2015-12-10T13:03:51Z</time>
      </trkpt>
      <trkpt lat="46.63488" lon="5.55156">
        <ele>409</ele>
        <time>2015-12-10T13:04:00Z</time>
      </trkpt>
      <trkpt lat="46.63497" lon="5.5515">
        <ele>409</ele>
        <time>2015-12-10T13:04:08Z</time>
      </trkpt>
      <trkpt lat="46.63535" lon="5.55129">
        <ele>405</ele>
        <time>2015-12-10T13:04:40Z</time>
      </trkpt>
      <trkpt lat="46.63573" lon="5.55105">
        <ele>400</ele>
        <time>2015-12-10T13:05:13Z</time>
      </trkpt>
      <trkpt lat="46.63578" lon="5.55103">
        <ele>400</ele>
        <time>2015-12-10T13:05:16Z</time>
      </trkpt>
      <trkpt lat="46.63594" lon="5.55093">
        <ele>401</ele>
        <time>2015-12-10T13:05:29Z</time>
      </trkpt>
      <trkpt lat="46.63602" lon="5.55086">
        <ele>401</ele>
        <time>2015-12-10T13:05:37Z</time>
      </trkpt>
      <trkpt lat="46.63606" lon="5.55083">
        <ele>401</ele>
        <time>2015-12-10T13:05:41Z</time>
      </trkpt>
      <trkpt lat="46.63616" lon="5.55076">
        <ele>400</ele>
        <time>2015-12-10T13:05:49Z</time>
      </trkpt>
      <trkpt lat="46.63621" lon="5.55073">
        <ele>401</ele>
        <time>2015-12-10T13:05:53Z</time>
      </trkpt>
      <trkpt lat="46.63625" lon="5.55068">
        <ele>401</ele>
        <time>2015-12-10T13:05:58Z</time>
      </trkpt>
      <trkpt lat="46.63634" lon="5.55059">
        <ele>400</ele>
        <time>2015-12-10T13:06:06Z</time>
      </trkpt>
      <trkpt lat="46.63638" lon="5.55056">
        <ele>400</ele>
        <time>2015-12-10T13:06:10Z</time>
      </trkpt>
      <trkpt lat="46.6366" lon="5.55037">
        <ele>401</ele>
        <time>2015-12-10T13:06:31Z</time>
      </trkpt>
      <trkpt lat="46.63663" lon="5.55032">
        <ele>401</ele>
        <time>2015-12-10T13:06:35Z</time>
      </trkpt>
      <trkpt lat="46.63677" lon="5.55018">
        <ele>401</ele>
        <time>2015-12-10T13:06:49Z</time>
      </trkpt>
      <trkpt lat="46.63703" lon="5.54994">
        <ele>396</ele>
        <time>2015-12-10T13:07:13Z</time>
      </trkpt>
      <trkpt lat="46.63717" lon="5.54983">
        <ele>395</ele>
        <time>2015-12-10T13:07:25Z</time>
      </trkpt>
      <trkpt lat="46.63726" lon="5.54978">
        <ele>394</ele>
        <time>2015-12-10T13:07:34Z</time>
      </trkpt>
      <trkpt lat="46.63745" lon="5.54974">
        <ele>394</ele>
        <time>2015-12-10T13:07:51Z</time>
      </trkpt>
      <trkpt lat="46.63782" lon="5.5495">
        <ele>389</ele>
        <time>2015-12-10T13:08:23Z</time>
      </trkpt>
      <trkpt lat="46.63813" lon="5.54928">
        <ele>386</ele>
        <time>2015-12-10T13:08:53Z</time>
      </trkpt>
      <trkpt lat="46.63818" lon="5.54925">
        <ele>385</ele>
        <time>2015-12-10T13:08:56Z</time>
      </trkpt>
      <trkpt lat="46.63863" lon="5.54905">
        <ele>385</ele>
        <time>2015-12-10T13:09:33Z</time>
      </trkpt>
      <trkpt lat="46.6388" lon="5.54894">
        <ele>383</ele>
        <time>2015-12-10T13:09:48Z</time>
      </trkpt>
      <trkpt lat="46.63899" lon="5.54893">
        <ele>382</ele>
        <time>2015-12-10T13:10:03Z</time>
      </trkpt>
      <trkpt lat="46.63926" lon="5.54877">
        <ele>377</ele>
        <time>2015-12-10T13:10:26Z</time>
      </trkpt>
      <trkpt lat="46.63945" lon="5.54874">
        <ele>377</ele>
        <time>2015-12-10T13:10:38Z</time>
      </trkpt>
      <trkpt lat="46.63974" lon="5.54861">
        <ele>379</ele>
        <time>2015-12-10T13:11:02Z</time>
      </trkpt>
      <trkpt lat="46.63999" lon="5.54857">
        <ele>377</ele>
        <time>2015-12-10T13:11:22Z</time>
      </trkpt>
      <trkpt lat="46.64009" lon="5.54856">
        <ele>378</ele>
        <time>2015-12-10T13:11:30Z</time>
      </trkpt>
      <trkpt lat="46.64052" lon="5.54863">
        <ele>374</ele>
        <time>2015-12-10T13:12:05Z</time>
      </trkpt>
      <trkpt lat="46.64082" lon="5.54866">
        <ele>369</ele>
        <time>2015-12-10T13:12:29Z</time>
      </trkpt>
      <trkpt lat="46.64102" lon="5.54866">
        <ele>369</ele>
        <time>2015-12-10T13:12:44Z</time>
      </trkpt>
      <trkpt lat="46.64111" lon="5.54869">
        <ele>368</ele>
        <time>2015-12-10T13:12:54Z</time>
      </trkpt>
      <trkpt lat="46.64121" lon="5.5487">
        <ele>365</ele>
        <time>2015-12-10T13:13:02Z</time>
      </trkpt>
      <trkpt lat="46.64159" lon="5.54871">
        <ele>361</ele>
        <time>2015-12-10T13:13:31Z</time>
      </trkpt>
      <trkpt lat="46.64199" lon="5.54877">
        <ele>359</ele>
        <time>2015-12-10T13:14:03Z</time>
      </trkpt>
      <trkpt lat="46.64209" lon="5.54877">
        <ele>358</ele>
        <time>2015-12-10T13:14:12Z</time>
      </trkpt>
      <trkpt lat="46.64219" lon="5.54878">
        <ele>357</ele>
        <time>2015-12-10T13:14:20Z</time>
      </trkpt>
      <trkpt lat="46.64229" lon="5.54877">
        <ele>356</ele>
        <time>2015-12-10T13:14:29Z</time>
      </trkpt>
      <trkpt lat="46.64248" lon="5.54877">
        <ele>355</ele>
        <time>2015-12-10T13:14:44Z</time>
      </trkpt>
      <trkpt lat="46.64258" lon="5.54879">
        <ele>354</ele>
        <time>2015-12-10T13:14:52Z</time>
      </trkpt>
      <trkpt lat="46.64276" lon="5.54887">
        <ele>354</ele>
        <time>2015-12-10T13:15:06Z</time>
      </trkpt>
      <trkpt lat="46.64286" lon="5.5489">
        <ele>352</ele>
        <time>2015-12-10T13:15:17Z</time>
      </trkpt>
      <trkpt lat="46.64295" lon="5.54889">
        <ele>352</ele>
        <time>2015-12-10T13:15:25Z</time>
      </trkpt>
      <trkpt lat="46.64306" lon="5.54889">
        <ele>350</ele>
        <time>2015-12-10T13:15:32Z</time>
      </trkpt>
      <trkpt lat="46.64315" lon="5.54887">
        <ele>349</ele>
        <time>2015-12-10T13:15:39Z</time>
      </trkpt>
      <trkpt lat="46.64353" lon="5.54888">
        <ele>344</ele>
        <time>2015-12-10T13:16:10Z</time>
      </trkpt>
      <trkpt lat="46.64391" lon="5.5488">
        <ele>341</ele>
        <time>2015-12-10T13:16:41Z</time>
      </trkpt>
      <trkpt lat="46.644" lon="5.54878">
        <ele>341</ele>
        <time>2015-12-10T13:16:48Z</time>
      </trkpt>
      <trkpt lat="46.64409" lon="5.54874">
        <ele>340</ele>
        <time>2015-12-10T13:16:55Z</time>
      </trkpt>
      <trkpt lat="46.64444" lon="5.54853">
        <ele>337</ele>
        <time>2015-12-10T13:17:26Z</time>
      </trkpt>
      <trkpt lat="46.64484" lon="5.54849">
        <ele>332</ele>
        <time>2015-12-10T13:17:57Z</time>
      </trkpt>
      <trkpt lat="46.64489" lon="5.54847">
        <ele>332</ele>
        <time>2015-12-10T13:18:01Z</time>
      </trkpt>
      <trkpt lat="46.64507" lon="5.5484">
        <ele>330</ele>
        <time>2015-12-10T13:18:17Z</time>
      </trkpt>
      <trkpt lat="46.64515" lon="5.54831">
        <ele>329</ele>
        <time>2015-12-10T13:18:25Z</time>
      </trkpt>
      <trkpt lat="46.64517" lon="5.54825">
        <ele>329</ele>
        <time>2015-12-10T13:18:29Z</time>
      </trkpt>
      <trkpt lat="46.64519" lon="5.54818">
        <ele>329</ele>
        <time>2015-12-10T13:18:33Z</time>
      </trkpt>
      <trkpt lat="46.64523" lon="5.54813">
        <ele>328</ele>
        <time>2015-12-10T13:18:38Z</time>
      </trkpt>
      <trkpt lat="46.64527" lon="5.548">
        <ele>328</ele>
        <time>2015-12-10T13:18:45Z</time>
      </trkpt>
      <trkpt lat="46.6453" lon="5.54794">
        <ele>328</ele>
        <time>2015-12-10T13:18:49Z</time>
      </trkpt>
      <trkpt lat="46.6454" lon="5.54778">
        <ele>327</ele>
        <time>2015-12-10T13:19:03Z</time>
      </trkpt>
      <trkpt lat="46.64544" lon="5.54773">
        <ele>326</ele>
        <time>2015-12-10T13:19:08Z</time>
      </trkpt>
      <trkpt lat="46.64558" lon="5.54726">
        <ele>321</ele>
        <time>2015-12-10T13:19:39Z</time>
      </trkpt>
      <trkpt lat="46.64558" lon="5.54718">
        <ele>320</ele>
        <time>2015-12-10T13:19:44Z</time>
      </trkpt>
      <trkpt lat="46.64557" lon="5.54699">
        <ele>319</ele>
        <time>2015-12-10T13:19:57Z</time>
      </trkpt>
      <trkpt lat="46.64576" lon="5.54647">
        <ele>315</ele>
        <time>2015-12-10T13:20:29Z</time>
      </trkpt>
      <trkpt lat="46.64581" lon="5.54635">
        <ele>314</ele>
        <time>2015-12-10T13:20:37Z</time>
      </trkpt>
      <trkpt lat="46.6459" lon="5.54628">
        <ele>313</ele>
        <time>2015-12-10T13:20:45Z</time>
      </trkpt>
      <trkpt lat="46.64625" lon="5.54607">
        <ele>304</ele>
        <time>2015-12-10T13:21:24Z</time>
      </trkpt>
      <trkpt lat="46.6463" lon="5.54606">
        <ele>303</ele>
        <time>2015-12-10T13:21:29Z</time>
      </trkpt>
      <trkpt lat="46.64639" lon="5.54605">
        <ele>302</ele>
        <time>2015-12-10T13:21:37Z</time>
      </trkpt>
      <trkpt lat="46.64654" lon="5.54603">
        <ele>300</ele>
        <time>2015-12-10T13:21:52Z</time>
      </trkpt>
      <trkpt lat="46.64659" lon="5.54607">
        <ele>297</ele>
        <time>2015-12-10T13:22:06Z</time>
      </trkpt>
      <trkpt lat="46.64668" lon="5.54603">
        <ele>294</ele>
        <time>2015-12-10T13:22:17Z</time>
      </trkpt>
      <trkpt lat="46.64671" lon="5.54613">
        <ele>292</ele>
        <time>2015-12-10T13:22:27Z</time>
      </trkpt>
      <trkpt lat="46.64677" lon="5.54623">
        <ele>292</ele>
        <time>2015-12-10T13:22:39Z</time>
      </trkpt>
      <trkpt lat="46.64679" lon="5.54626">
        <ele>292</ele>
        <time>2015-12-10T13:22:45Z</time>
      </trkpt>
      <trkpt lat="46.64677" lon="5.54625">
        <ele>291</ele>
        <time>2015-12-10T13:23:21Z</time>
      </trkpt>
      <trkpt lat="46.64669" lon="5.54606">
        <ele>290</ele>
        <time>2015-12-10T13:23:44Z</time>
      </trkpt>
      <trkpt lat="46.64666" lon="5.54591">
        <ele>285</ele>
        <time>2015-12-10T13:24:10Z</time>
      </trkpt>
      <trkpt lat="46.64663" lon="5.54578">
        <ele>285</ele>
        <time>2015-12-10T13:24:18Z</time>
      </trkpt>
      <trkpt lat="46.6466" lon="5.5455">
        <ele>286</ele>
        <time>2015-12-10T13:24:33Z</time>
      </trkpt>
      <trkpt lat="46.6466" lon="5.54536">
        <ele>285</ele>
        <time>2015-12-10T13:24:41Z</time>
      </trkpt>
      <trkpt lat="46.64661" lon="5.54522">
        <ele>285</ele>
        <time>2015-12-10T13:24:49Z</time>
      </trkpt>
      <trkpt lat="46.64662" lon="5.54516">
        <ele>283</ele>
        <time>2015-12-10T13:24:53Z</time>
      </trkpt>
      <trkpt lat="46.64665" lon="5.54509">
        <ele>283</ele>
        <time>2015-12-10T13:24:58Z</time>
      </trkpt>
      <trkpt lat="46.6467" lon="5.54507">
        <ele>283</ele>
        <time>2015-12-10T13:25:02Z</time>
      </trkpt>
      <trkpt lat="46.64675" lon="5.54507">
        <ele>283</ele>
        <time>2015-12-10T13:25:07Z</time>
      </trkpt>
      <trkpt lat="46.64676" lon="5.54499">
        <ele>283</ele>
        <time>2015-12-10T13:25:23Z</time>
      </trkpt>
      <trkpt lat="46.6468" lon="5.54496">
        <ele>283</ele>
        <time>2015-12-10T13:25:31Z</time>
      </trkpt>
      <trkpt lat="46.64684" lon="5.54502">
        <ele>283</ele>
        <time>2015-12-10T13:25:36Z</time>
      </trkpt>
      <trkpt lat="46.64692" lon="5.5452">
        <ele>281</ele>
        <time>2015-12-10T13:25:49Z</time>
      </trkpt>
      <trkpt lat="46.64695" lon="5.54526">
        <ele>280</ele>
        <time>2015-12-10T13:25:53Z</time>
      </trkpt>
      <trkpt lat="46.64709" lon="5.54555">
        <ele>276</ele>
        <time>2015-12-10T13:26:12Z</time>
      </trkpt>
      <trkpt lat="46.6471" lon="5.54569">
        <ele>274</ele>
        <time>2015-12-10T13:26:21Z</time>
      </trkpt>
      <trkpt lat="46.64717" lon="5.54581">
        <ele>273</ele>
        <time>2015-12-10T13:26:26Z</time>
      </trkpt>
      <trkpt lat="46.64724" lon="5.54592">
        <ele>273</ele>
        <time>2015-12-10T13:26:32Z</time>
      </trkpt>
      <trkpt lat="46.64728" lon="5.54604">
        <ele>273</ele>
        <time>2015-12-10T13:26:39Z</time>
      </trkpt>
      <trkpt lat="46.64733" lon="5.54615">
        <ele>273</ele>
        <time>2015-12-10T13:26:47Z</time>
      </trkpt>
      <trkpt lat="46.6474" lon="5.54635">
        <ele>275</ele>
        <time>2015-12-10T13:27:00Z</time>
      </trkpt>
      <trkpt lat="46.64739" lon="5.54643">
        <ele>276</ele>
        <time>2015-12-10T13:27:07Z</time>
      </trkpt>
      <trkpt lat="46.64742" lon="5.54649">
        <ele>276</ele>
        <time>2015-12-10T13:27:12Z</time>
      </trkpt>
      <trkpt lat="46.64747" lon="5.54669">
        <ele>273</ele>
        <time>2015-12-10T13:27:28Z</time>
      </trkpt>
      <trkpt lat="46.64766" lon="5.54711">
        <ele>272</ele>
        <time>2015-12-10T13:27:58Z</time>
      </trkpt>
      <trkpt lat="46.64769" lon="5.54718">
        <ele>273</ele>
        <time>2015-12-10T13:28:02Z</time>
      </trkpt>
      <trkpt lat="46.64772" lon="5.5474">
        <ele>273</ele>
        <time>2015-12-10T13:28:16Z</time>
      </trkpt>
      <trkpt lat="46.64793" lon="5.54775">
        <ele>272</ele>
        <time>2015-12-10T13:28:39Z</time>
      </trkpt>
      <trkpt lat="46.64803" lon="5.5478">
        <ele>272</ele>
        <time>2015-12-10T13:28:48Z</time>
      </trkpt>
      <trkpt lat="46.64814" lon="5.54779">
        <ele>273</ele>
        <time>2015-12-10T13:28:58Z</time>
      </trkpt>
      <trkpt lat="46.64817" lon="5.54779">
        <ele>274</ele>
        <time>2015-12-10T13:29:04Z</time>
      </trkpt>
      <trkpt lat="46.64816" lon="5.54787">
        <ele>274</ele>
        <time>2015-12-10T13:29:13Z</time>
      </trkpt>
      <trkpt lat="46.64815" lon="5.54803">
        <ele>273</ele>
        <time>2015-12-10T13:29:22Z</time>
      </trkpt>
      <trkpt lat="46.64816" lon="5.5481">
        <ele>273</ele>
        <time>2015-12-10T13:29:27Z</time>
      </trkpt>
      <trkpt lat="46.64822" lon="5.54839">
        <ele>274</ele>
        <time>2015-12-10T13:29:44Z</time>
      </trkpt>
      <trkpt lat="46.64823" lon="5.54855">
        <ele>273</ele>
        <time>2015-12-10T13:29:52Z</time>
      </trkpt>
      <trkpt lat="46.64817" lon="5.54901">
        <ele>272</ele>
        <time>2015-12-10T13:30:21Z</time>
      </trkpt>
      <trkpt lat="46.64816" lon="5.54923">
        <ele>274</ele>
        <time>2015-12-10T13:30:33Z</time>
      </trkpt>
      <trkpt lat="46.64815" lon="5.54929">
        <ele>274</ele>
        <time>2015-12-10T13:30:37Z</time>
      </trkpt>
      <trkpt lat="46.6481" lon="5.54981">
        <ele>270</ele>
        <time>2015-12-10T13:31:08Z</time>
      </trkpt>
      <trkpt lat="46.64809" lon="5.54997">
        <ele>268</ele>
        <time>2015-12-10T13:31:17Z</time>
      </trkpt>
      <trkpt lat="46.64808" lon="5.55012">
        <ele>268</ele>
        <time>2015-12-10T13:31:25Z</time>
      </trkpt>
      <trkpt lat="46.64806" lon="5.55026">
        <ele>268</ele>
        <time>2015-12-10T13:31:32Z</time>
      </trkpt>
      <trkpt lat="46.64807" lon="5.5505">
        <ele>270</ele>
        <time>2015-12-10T13:31:44Z</time>
      </trkpt>
      <trkpt lat="46.64816" lon="5.55068">
        <ele>272</ele>
        <time>2015-12-10T13:31:57Z</time>
      </trkpt>
      <trkpt lat="46.64844" lon="5.55108">
        <ele>270</ele>
        <time>2015-12-10T13:32:31Z</time>
      </trkpt>
      <trkpt lat="46.64846" lon="5.55115">
        <ele>270</ele>
        <time>2015-12-10T13:32:36Z</time>
      </trkpt>
      <trkpt lat="46.64848" lon="5.55121">
        <ele>270</ele>
        <time>2015-12-10T13:32:40Z</time>
      </trkpt>
      <trkpt lat="46.64851" lon="5.55125">
        <ele>269</ele>
        <time>2015-12-10T13:32:44Z</time>
      </trkpt>
      <trkpt lat="46.64871" lon="5.55167">
        <ele>273</ele>
        <time>2015-12-10T13:33:16Z</time>
      </trkpt>
      <trkpt lat="46.64874" lon="5.55174">
        <ele>273</ele>
        <time>2015-12-10T13:33:21Z</time>
      </trkpt>
      <trkpt lat="46.64897" lon="5.55208">
        <ele>278</ele>
        <time>2015-12-10T13:33:52Z</time>
      </trkpt>
      <trkpt lat="46.64924" lon="5.55227">
        <ele>281</ele>
        <time>2015-12-10T13:34:23Z</time>
      </trkpt>
      <trkpt lat="46.64937" lon="5.5524">
        <ele>282</ele>
        <time>2015-12-10T13:34:37Z</time>
      </trkpt>
      <trkpt lat="46.64942" lon="5.55243">
        <ele>281</ele>
        <time>2015-12-10T13:34:42Z</time>
      </trkpt>
      <trkpt lat="46.64953" lon="5.55269">
        <ele>282</ele>
        <time>2015-12-10T13:35:00Z</time>
      </trkpt>
      <trkpt lat="46.64962" lon="5.55301">
        <ele>286</ele>
        <time>2015-12-10T13:35:22Z</time>
      </trkpt>
      <trkpt lat="46.64966" lon="5.55305">
        <ele>286</ele>
        <time>2015-12-10T13:35:27Z</time>
      </trkpt>
      <trkpt lat="46.64972" lon="5.55308">
        <ele>286</ele>
        <time>2015-12-10T13:35:32Z</time>
      </trkpt>
      <trkpt lat="46.64993" lon="5.55325">
        <ele>289</ele>
        <time>2015-12-10T13:35:54Z</time>
      </trkpt>
      <trkpt lat="46.65001" lon="5.55336">
        <ele>290</ele>
        <time>2015-12-10T13:36:04Z</time>
      </trkpt>
      <trkpt lat="46.65012" lon="5.55372">
        <ele>291</ele>
        <time>2015-12-10T13:36:29Z</time>
      </trkpt>
      <trkpt lat="46.65017" lon="5.55384">
        <ele>290</ele>
        <time>2015-12-10T13:36:38Z</time>
      </trkpt>
      <trkpt lat="46.65033" lon="5.5542">
        <ele>293</ele>
        <time>2015-12-10T13:37:10Z</time>
      </trkpt>
      <trkpt lat="46.65039" lon="5.5543">
        <ele>293</ele>
        <time>2015-12-10T13:37:20Z</time>
      </trkpt>
      <trkpt lat="46.65049" lon="5.55445">
        <ele>293</ele>
        <time>2015-12-10T13:37:37Z</time>
      </trkpt>
      <trkpt lat="46.65054" lon="5.55448">
        <ele>294</ele>
        <time>2015-12-10T13:37:42Z</time>
      </trkpt>
      <trkpt lat="46.65055" lon="5.55454">
        <ele>294</ele>
        <time>2015-12-10T13:37:48Z</time>
      </trkpt>
      <trkpt lat="46.6506" lon="5.55458">
        <ele>296</ele>
        <time>2015-12-10T13:37:55Z</time>
      </trkpt>
      <trkpt lat="46.65064" lon="5.55462">
        <ele>296</ele>
        <time>2015-12-10T13:38:02Z</time>
      </trkpt>
      <trkpt lat="46.65069" lon="5.55463">
        <ele>296</ele>
        <time>2015-12-10T13:38:06Z</time>
      </trkpt>
      <trkpt lat="46.65095" lon="5.55496">
        <ele>303</ele>
        <time>2015-12-10T13:38:39Z</time>
      </trkpt>
      <trkpt lat="46.65101" lon="5.55507">
        <ele>305</ele>
        <time>2015-12-10T13:38:47Z</time>
      </trkpt>
      <trkpt lat="46.65106" lon="5.5551">
        <ele>305</ele>
        <time>2015-12-10T13:38:52Z</time>
      </trkpt>
      <trkpt lat="46.65109" lon="5.55516">
        <ele>306</ele>
        <time>2015-12-10T13:38:57Z</time>
      </trkpt>
      <trkpt lat="46.65113" lon="5.55521">
        <ele>306</ele>
        <time>2015-12-10T13:39:02Z</time>
      </trkpt>
      <trkpt lat="46.65116" lon="5.55528">
        <ele>305</ele>
        <time>2015-12-10T13:39:07Z</time>
      </trkpt>
      <trkpt lat="46.65119" lon="5.55534">
        <ele>306</ele>
        <time>2015-12-10T13:39:12Z</time>
      </trkpt>
      <trkpt lat="46.65126" lon="5.55543">
        <ele>306</ele>
        <time>2015-12-10T13:39:22Z</time>
      </trkpt>
      <trkpt lat="46.65128" lon="5.55549">
        <ele>307</ele>
        <time>2015-12-10T13:39:27Z</time>
      </trkpt>
      <trkpt lat="46.65145" lon="5.55585">
        <ele>310</ele>
        <time>2015-12-10T13:40:00Z</time>
      </trkpt>
      <trkpt lat="46.65153" lon="5.55602">
        <ele>310</ele>
        <time>2015-12-10T13:40:15Z</time>
      </trkpt>
      <trkpt lat="46.65158" lon="5.55606">
        <ele>311</ele>
        <time>2015-12-10T13:40:20Z</time>
      </trkpt>
      <trkpt lat="46.65169" lon="5.55618">
        <ele>312</ele>
        <time>2015-12-10T13:40:36Z</time>
      </trkpt>
      <trkpt lat="46.65185" lon="5.55635">
        <ele>315</ele>
        <time>2015-12-10T13:41:00Z</time>
      </trkpt>
      <trkpt lat="46.65202" lon="5.55652">
        <ele>317</ele>
        <time>2015-12-10T13:41:22Z</time>
      </trkpt>
      <trkpt lat="46.65226" lon="5.55674">
        <ele>322</ele>
        <time>2015-12-10T13:41:56Z</time>
      </trkpt>
      <trkpt lat="46.65229" lon="5.55679">
        <ele>322</ele>
        <time>2015-12-10T13:42:00Z</time>
      </trkpt>
      <trkpt lat="46.65234" lon="5.55683">
        <ele>323</ele>
        <time>2015-12-10T13:42:06Z</time>
      </trkpt>
      <trkpt lat="46.65247" lon="5.55691">
        <ele>324</ele>
        <time>2015-12-10T13:42:25Z</time>
      </trkpt>
      <trkpt lat="46.6526" lon="5.55696">
        <ele>328</ele>
        <time>2015-12-10T13:42:46Z</time>
      </trkpt>
      <trkpt lat="46.65272" lon="5.55707">
        <ele>329</ele>
        <time>2015-12-10T13:43:01Z</time>
      </trkpt>
      <trkpt lat="46.65277" lon="5.55709">
        <ele>330</ele>
        <time>2015-12-10T13:43:07Z</time>
      </trkpt>
      <trkpt lat="46.653" lon="5.55736">
        <ele>336</ele>
        <time>2015-12-10T13:43:38Z</time>
      </trkpt>
      <trkpt lat="46.65305" lon="5.55741">
        <ele>336</ele>
        <time>2015-12-10T13:43:43Z</time>
      </trkpt>
      <trkpt lat="46.65319" lon="5.55771">
        <ele>339</ele>
        <time>2015-12-10T13:44:07Z</time>
      </trkpt>
      <trkpt lat="46.6533" lon="5.55814">
        <ele>342</ele>
        <time>2015-12-10T13:44:37Z</time>
      </trkpt>
      <trkpt lat="46.65344" lon="5.55849">
        <ele>344</ele>
        <time>2015-12-10T13:45:08Z</time>
      </trkpt>
      <trkpt lat="46.65348" lon="5.55854">
        <ele>345</ele>
        <time>2015-12-10T13:45:16Z</time>
      </trkpt>
      <trkpt lat="46.6535" lon="5.55861">
        <ele>345</ele>
        <time>2015-12-10T13:45:22Z</time>
      </trkpt>
      <trkpt lat="46.65355" lon="5.55873">
        <ele>345</ele>
        <time>2015-12-10T13:45:33Z</time>
      </trkpt>
      <trkpt lat="46.65368" lon="5.55894">
        <ele>346</ele>
        <time>2015-12-10T13:45:58Z</time>
      </trkpt>
      <trkpt lat="46.65387" lon="5.55914">
        <ele>346</ele>
        <time>2015-12-10T13:46:23Z</time>
      </trkpt>
      <trkpt lat="46.65402" lon="5.55942">
        <ele>349</ele>
        <time>2015-12-10T13:46:46Z</time>
      </trkpt>
      <trkpt lat="46.65414" lon="5.55954">
        <ele>353</ele>
        <time>2015-12-10T13:47:13Z</time>
      </trkpt>
      <trkpt lat="46.65419" lon="5.5594">
        <ele>356</ele>
        <time>2015-12-10T13:51:33Z</time>
      </trkpt>
      <trkpt lat="46.65418" lon="5.55926">
        <ele>356</ele>
        <time>2015-12-10T13:51:45Z</time>
      </trkpt>
      <trkpt lat="46.65421" lon="5.55913">
        <ele>361</ele>
        <time>2015-12-10T13:52:00Z</time>
      </trkpt>
      <trkpt lat="46.65416" lon="5.55901">
        <ele>361</ele>
        <time>2015-12-10T13:52:12Z</time>
      </trkpt>
      <trkpt lat="46.65413" lon="5.55862">
        <ele>367</ele>
        <time>2015-12-10T13:52:38Z</time>
      </trkpt>
      <trkpt lat="46.65412" lon="5.55855">
        <ele>367</ele>
        <time>2015-12-10T13:52:43Z</time>
      </trkpt>
      <trkpt lat="46.65416" lon="5.55827">
        <ele>368</ele>
        <time>2015-12-10T13:53:01Z</time>
      </trkpt>
      <trkpt lat="46.6542" lon="5.55797">
        <ele>373</ele>
        <time>2015-12-10T13:53:16Z</time>
      </trkpt>
      <trkpt lat="46.65424" lon="5.55798">
        <ele>375</ele>
        <time>2015-12-10T13:53:34Z</time>
      </trkpt>
      <trkpt lat="46.65429" lon="5.55801">
        <ele>375</ele>
        <time>2015-12-10T13:53:39Z</time>
      </trkpt>
      <trkpt lat="46.65433" lon="5.55804">
        <ele>375</ele>
        <time>2015-12-10T13:53:45Z</time>
      </trkpt>
      <trkpt lat="46.65436" lon="5.5581">
        <ele>375</ele>
        <time>2015-12-10T13:53:51Z</time>
      </trkpt>
      <trkpt lat="46.65437" lon="5.55817">
        <ele>376</ele>
        <time>2015-12-10T13:53:56Z</time>
      </trkpt>
      <trkpt lat="46.65442" lon="5.55815">
        <ele>377</ele>
        <time>2015-12-10T13:54:00Z</time>
      </trkpt>
      <trkpt lat="46.65453" lon="5.5582">
        <ele>377</ele>
        <time>2015-12-10T13:54:09Z</time>
      </trkpt>
      <trkpt lat="46.65478" lon="5.55839">
        <ele>386</ele>
        <time>2015-12-10T13:54:42Z</time>
      </trkpt>
      <trkpt lat="46.65506" lon="5.55853">
        <ele>391</ele>
        <time>2015-12-10T13:55:09Z</time>
      </trkpt>
      <trkpt lat="46.65532" lon="5.55866">
        <ele>394</ele>
        <time>2015-12-10T13:55:38Z</time>
      </trkpt>
      <trkpt lat="46.6554" lon="5.55872">
        <ele>394</ele>
        <time>2015-12-10T13:55:46Z</time>
      </trkpt>
      <trkpt lat="46.65555" lon="5.55889">
        <ele>392</ele>
        <time>2015-12-10T13:56:05Z</time>
      </trkpt>
      <trkpt lat="46.65582" lon="5.55909">
        <ele>392</ele>
        <time>2015-12-10T13:56:32Z</time>
      </trkpt>
      <trkpt lat="46.65589" lon="5.55917">
        <ele>391</ele>
        <time>2015-12-10T13:56:41Z</time>
      </trkpt>
      <trkpt lat="46.65598" lon="5.55922">
        <ele>391</ele>
        <time>2015-12-10T13:56:48Z</time>
      </trkpt>
      <trkpt lat="46.65613" lon="5.55939">
        <ele>388</ele>
        <time>2015-12-10T13:57:03Z</time>
      </trkpt>
      <trkpt lat="46.65641" lon="5.55974">
        <ele>388</ele>
        <time>2015-12-10T13:57:34Z</time>
      </trkpt>
      <trkpt lat="46.65649" lon="5.55981">
        <ele>389</ele>
        <time>2015-12-10T13:57:42Z</time>
      </trkpt>
      <trkpt lat="46.65657" lon="5.55988">
        <ele>390</ele>
        <time>2015-12-10T13:57:52Z</time>
      </trkpt>
      <trkpt lat="46.65671" lon="5.56006">
        <ele>390</ele>
        <time>2015-12-10T13:58:10Z</time>
      </trkpt>
      <trkpt lat="46.6569" lon="5.56015">
        <ele>391</ele>
        <time>2015-12-10T13:58:27Z</time>
      </trkpt>
      <trkpt lat="46.65699" lon="5.56019">
        <ele>389</ele>
        <time>2015-12-10T13:58:37Z</time>
      </trkpt>
      <trkpt lat="46.65726" lon="5.56032">
        <ele>390</ele>
        <time>2015-12-10T13:59:00Z</time>
      </trkpt>
      <trkpt lat="46.65736" lon="5.56028">
        <ele>392</ele>
        <time>2015-12-10T13:59:10Z</time>
      </trkpt>
      <trkpt lat="46.65745" lon="5.56029">
        <ele>392</ele>
        <time>2015-12-10T13:59:18Z</time>
      </trkpt>
      <trkpt lat="46.65774" lon="5.56025">
        <ele>396</ele>
        <time>2015-12-10T13:59:40Z</time>
      </trkpt>
      <trkpt lat="46.65802" lon="5.56014">
        <ele>395</ele>
        <time>2015-12-10T14:00:03Z</time>
      </trkpt>
      <trkpt lat="46.65821" lon="5.56015">
        <ele>392</ele>
        <time>2015-12-10T14:00:20Z</time>
      </trkpt>
      <trkpt lat="46.6583" lon="5.56015">
        <ele>392</ele>
        <time>2015-12-10T14:00:28Z</time>
      </trkpt>
      <trkpt lat="46.6584" lon="5.56014">
        <ele>393</ele>
        <time>2015-12-10T14:00:37Z</time>
      </trkpt>
      <trkpt lat="46.65868" lon="5.56003">
        <ele>391</ele>
        <time>2015-12-10T14:01:02Z</time>
      </trkpt>
      <trkpt lat="46.65877" lon="5.55997">
        <ele>389</ele>
        <time>2015-12-10T14:01:09Z</time>
      </trkpt>
      <trkpt lat="46.65894" lon="5.55983">
        <ele>388</ele>
        <time>2015-12-10T14:01:23Z</time>
      </trkpt>
      <trkpt lat="46.65917" lon="5.55961">
        <ele>392</ele>
        <time>2015-12-10T14:01:47Z</time>
      </trkpt>
      <trkpt lat="46.65926" lon="5.5596">
        <ele>393</ele>
        <time>2015-12-10T14:01:56Z</time>
      </trkpt>
      <trkpt lat="46.65963" lon="5.55955">
        <ele>396</ele>
        <time>2015-12-10T14:02:30Z</time>
      </trkpt>
      <trkpt lat="46.65971" lon="5.55962">
        <ele>397</ele>
        <time>2015-12-10T14:02:38Z</time>
      </trkpt>
      <trkpt lat="46.65979" lon="5.55968">
        <ele>396</ele>
        <time>2015-12-10T14:02:49Z</time>
      </trkpt>
      <trkpt lat="46.65985" lon="5.55971">
        <ele>395</ele>
        <time>2015-12-10T14:03:01Z</time>
      </trkpt>
      <trkpt lat="46.65989" lon="5.55975">
        <ele>395</ele>
        <time>2015-12-10T14:03:06Z</time>
      </trkpt>
      <trkpt lat="46.65992" lon="5.55982">
        <ele>395</ele>
        <time>2015-12-10T14:03:12Z</time>
      </trkpt>
      <trkpt lat="46.66" lon="5.56007">
        <ele>397</ele>
        <time>2015-12-10T14:03:29Z</time>
      </trkpt>
      <trkpt lat="46.66004" lon="5.56028">
        <ele>398</ele>
        <time>2015-12-10T14:03:43Z</time>
      </trkpt>
      <trkpt lat="46.6601" lon="5.56061">
        <ele>397</ele>
        <time>2015-12-10T14:04:03Z</time>
      </trkpt>
      <trkpt lat="46.66009" lon="5.56106">
        <ele>399</ele>
        <time>2015-12-10T14:04:32Z</time>
      </trkpt>
      <trkpt lat="46.66005" lon="5.56112">
        <ele>399</ele>
        <time>2015-12-10T14:04:37Z</time>
      </trkpt>
      <trkpt lat="46.66001" lon="5.56125">
        <ele>399</ele>
        <time>2015-12-10T14:04:45Z</time>
      </trkpt>
      <trkpt lat="46.66006" lon="5.56123">
        <ele>400</ele>
        <time>2015-12-10T14:04:54Z</time>
      </trkpt>
      <trkpt lat="46.66013" lon="5.56112">
        <ele>401</ele>
        <time>2015-12-10T14:05:03Z</time>
      </trkpt>
      <trkpt lat="46.66017" lon="5.56108">
        <ele>402</ele>
        <time>2015-12-10T14:05:08Z</time>
      </trkpt>
      <trkpt lat="46.6602" lon="5.56102">
        <ele>402</ele>
        <time>2015-12-10T14:05:12Z</time>
      </trkpt>
      <trkpt lat="46.66024" lon="5.56098">
        <ele>402</ele>
        <time>2015-12-10T14:05:17Z</time>
      </trkpt>
      <trkpt lat="46.6603" lon="5.56097">
        <ele>403</ele>
        <time>2015-12-10T14:05:22Z</time>
      </trkpt>
      <trkpt lat="46.66064" lon="5.56087">
        <ele>401</ele>
        <time>2015-12-10T14:05:53Z</time>
      </trkpt>
      <trkpt lat="46.66068" lon="5.56085">
        <ele>401</ele>
        <time>2015-12-10T14:05:59Z</time>
      </trkpt>
      <trkpt lat="46.66073" lon="5.56081">
        <ele>401</ele>
        <time>2015-12-10T14:06:04Z</time>
      </trkpt>
      <trkpt lat="46.66082" lon="5.56079">
        <ele>401</ele>
        <time>2015-12-10T14:06:11Z</time>
      </trkpt>
      <trkpt lat="46.66092" lon="5.5608">
        <ele>402</ele>
        <time>2015-12-10T14:06:19Z</time>
      </trkpt>
      <trkpt lat="46.66101" lon="5.56083">
        <ele>402</ele>
        <time>2015-12-10T14:06:28Z</time>
      </trkpt>
      <trkpt lat="46.66109" lon="5.56088">
        <ele>403</ele>
        <time>2015-12-10T14:06:38Z</time>
      </trkpt>
      <trkpt lat="46.66102" lon="5.56085">
        <ele>403</ele>
        <time>2015-12-10T14:08:24Z</time>
      </trkpt>
      <trkpt lat="46.66094" lon="5.5608">
        <ele>403</ele>
        <time>2015-12-10T14:08:31Z</time>
      </trkpt>
      <trkpt lat="46.66076" lon="5.56072">
        <ele>402</ele>
        <time>2015-12-10T14:08:46Z</time>
      </trkpt>
      <trkpt lat="46.66049" lon="5.56084">
        <ele>401</ele>
        <time>2015-12-10T14:09:12Z</time>
      </trkpt>
      <trkpt lat="46.66041" lon="5.56091">
        <ele>401</ele>
        <time>2015-12-10T14:09:20Z</time>
      </trkpt>
      <trkpt lat="46.66008" lon="5.56118">
        <ele>399</ele>
        <time>2015-12-10T14:09:56Z</time>
      </trkpt>
      <trkpt lat="46.66004" lon="5.56123">
        <ele>399</ele>
        <time>2015-12-10T14:10:01Z</time>
      </trkpt>
      <trkpt lat="46.65995" lon="5.56141">
        <ele>399</ele>
        <time>2015-12-10T14:10:12Z</time>
      </trkpt>
      <trkpt lat="46.65996" lon="5.56156">
        <ele>399</ele>
        <time>2015-12-10T14:10:22Z</time>
      </trkpt>
      <trkpt lat="46.66011" lon="5.56197">
        <ele>396</ele>
        <time>2015-12-10T14:10:48Z</time>
      </trkpt>
      <trkpt lat="46.66015" lon="5.56201">
        <ele>396</ele>
        <time>2015-12-10T14:10:52Z</time>
      </trkpt>
      <trkpt lat="46.6604" lon="5.56214">
        <ele>397</ele>
        <time>2015-12-10T14:11:13Z</time>
      </trkpt>
      <trkpt lat="46.66049" lon="5.5622">
        <ele>397</ele>
        <time>2015-12-10T14:11:23Z</time>
      </trkpt>
      <trkpt lat="46.66055" lon="5.56231">
        <ele>397</ele>
        <time>2015-12-10T14:11:31Z</time>
      </trkpt>
      <trkpt lat="46.66058" lon="5.56245">
        <ele>397</ele>
        <time>2015-12-10T14:11:39Z</time>
      </trkpt>
      <trkpt lat="46.66058" lon="5.56259">
        <ele>397</ele>
        <time>2015-12-10T14:11:55Z</time>
      </trkpt>
      <trkpt lat="46.66048" lon="5.56282">
        <ele>396</ele>
        <time>2015-12-10T14:12:11Z</time>
      </trkpt>
      <trkpt lat="46.66033" lon="5.56328">
        <ele>400</ele>
        <time>2015-12-10T14:12:44Z</time>
      </trkpt>
      <trkpt lat="46.66031" lon="5.56334">
        <ele>400</ele>
        <time>2015-12-10T14:12:49Z</time>
      </trkpt>
      <trkpt lat="46.66027" lon="5.56354">
        <ele>402</ele>
        <time>2015-12-10T14:13:03Z</time>
      </trkpt>
      <trkpt lat="46.66025" lon="5.56369">
        <ele>403</ele>
        <time>2015-12-10T14:13:11Z</time>
      </trkpt>
      <trkpt lat="46.66021" lon="5.56375">
        <ele>404</ele>
        <time>2015-12-10T14:13:15Z</time>
      </trkpt>
      <trkpt lat="46.66021" lon="5.56383">
        <ele>404</ele>
        <time>2015-12-10T14:13:19Z</time>
      </trkpt>
      <trkpt lat="46.6601" lon="5.56415">
        <ele>407</ele>
        <time>2015-12-10T14:13:41Z</time>
      </trkpt>
      <trkpt lat="46.66011" lon="5.56423">
        <ele>408</ele>
        <time>2015-12-10T14:13:49Z</time>
      </trkpt>
      <trkpt lat="46.66011" lon="5.56445">
        <ele>408</ele>
        <time>2015-12-10T14:14:00Z</time>
      </trkpt>
      <trkpt lat="46.66008" lon="5.5645">
        <ele>408</ele>
        <time>2015-12-10T14:14:04Z</time>
      </trkpt>
      <trkpt lat="46.66005" lon="5.56456">
        <ele>408</ele>
        <time>2015-12-10T14:14:10Z</time>
      </trkpt>
      <trkpt lat="46.66004" lon="5.56487">
        <ele>410</ele>
        <time>2015-12-10T14:14:27Z</time>
      </trkpt>
      <trkpt lat="46.66003" lon="5.56494">
        <ele>411</ele>
        <time>2015-12-10T14:14:30Z</time>
      </trkpt>
      <trkpt lat="46.66" lon="5.56508">
        <ele>411</ele>
        <time>2015-12-10T14:14:38Z</time>
      </trkpt>
      <trkpt lat="46.65988" lon="5.56533">
        <ele>411</ele>
        <time>2015-12-10T14:15:01Z</time>
      </trkpt>
      <trkpt lat="46.6598" lon="5.56558">
        <ele>413</ele>
        <time>2015-12-10T14:15:19Z</time>
      </trkpt>
      <trkpt lat="46.65965" lon="5.56574">
        <ele>415</ele>
        <time>2015-12-10T14:15:35Z</time>
      </trkpt>
      <trkpt lat="46.65953" lon="5.56598">
        <ele>417</ele>
        <time>2015-12-10T14:15:51Z</time>
      </trkpt>
      <trkpt lat="46.6595" lon="5.56607">
        <ele>419</ele>
        <time>2015-12-10T14:16:08Z</time>
      </trkpt>
      <trkpt lat="46.65953" lon="5.5662">
        <ele>419</ele>
        <time>2015-12-10T14:16:15Z</time>
      </trkpt>
      <trkpt lat="46.65948" lon="5.56631">
        <ele>422</ele>
        <time>2015-12-10T14:16:26Z</time>
      </trkpt>
      <trkpt lat="46.65926" lon="5.56657">
        <ele>427</ele>
        <time>2015-12-10T14:16:56Z</time>
      </trkpt>
      <trkpt lat="46.65925" lon="5.56671">
        <ele>428</ele>
        <time>2015-12-10T14:17:06Z</time>
      </trkpt>
      <trkpt lat="46.65919" lon="5.56679">
        <ele>428</ele>
        <time>2015-12-10T14:17:27Z</time>
      </trkpt>
      <trkpt lat="46.65919" lon="5.56684">
        <ele>412</ele>
        <time>2015-12-10T14:19:14Z</time>
      </trkpt>
      <trkpt lat="46.65911" lon="5.56696">
        <ele>412</ele>
        <time>2015-12-10T14:20:15Z</time>
      </trkpt>
      <trkpt lat="46.65903" lon="5.56716">
        <ele>420</ele>
        <time>2015-12-10T14:21:04Z</time>
      </trkpt>
      <trkpt lat="46.65909" lon="5.56714">
        <ele>423</ele>
        <time>2015-12-10T14:21:56Z</time>
      </trkpt>
      <trkpt lat="46.65885" lon="5.56768">
        <ele>425</ele>
        <time>2015-12-10T14:33:31Z</time>
      </trkpt>
      <trkpt lat="46.65858" lon="5.56806">
        <ele>418</ele>
        <time>2015-12-10T14:34:10Z</time>
      </trkpt>
      <trkpt lat="46.65858" lon="5.5682">
        <ele>417</ele>
        <time>2015-12-10T14:34:21Z</time>
      </trkpt>
      <trkpt lat="46.65854" lon="5.56832">
        <ele>417</ele>
        <time>2015-12-10T14:34:38Z</time>
      </trkpt>
      <trkpt lat="46.65854" lon="5.56837">
        <ele>418</ele>
        <time>2015-12-10T14:34:50Z</time>
      </trkpt>
    </trkseg>
  </trk>
</gpx>